Provisional Data: Susquehanna River near Danville, PA


Please select a monitoring station.
Please select start date.
Please select start date.

Toggle Unit: C/F Toggle Unit: C/F
Sample Time Temperature (C) Temperature (F) Specific Conductivity (mS/cm) pH   Turbidity (NTU+) DO (mg/L)
4/13/2022 12:00:00 AM 9.06 48.308 0.142 7.63 11.58 4.56
4/13/2022 12:15:00 AM 9.06 48.308 0.142 7.61 12.16 4.59
4/13/2022 12:30:00 AM 9.06 48.308 0.142 7.6 12.95 4.53
4/13/2022 12:45:00 AM 9.05 48.29 0.143 7.59 11.74 4.66
4/13/2022 1:00:00 AM 9.05 48.29 0.143 7.59 11.82 4.62
4/13/2022 1:15:00 AM 9.05 48.29 0.143 7.63 11.53 4.57
4/13/2022 1:30:00 AM 9.05 48.29 0.139 7.6 12.67 4.68
4/13/2022 1:45:00 AM 9.05 48.29 0.143 7.62 12.36 4.71
4/13/2022 2:00:00 AM 9.04 48.272 0.12 7.58 12.33 4.75
4/13/2022 2:15:00 AM 9.04 48.272 0.143 7.59 12.35 4.74
4/13/2022 2:30:00 AM 9.04 48.272 0.143 7.58 12.5 4.73
4/13/2022 2:45:00 AM 9.04 48.272 0.144 7.58 10.53 4.7
4/13/2022 3:00:00 AM 9.03 48.254 0.134 7.58 11.41 4.75
4/13/2022 3:15:00 AM 9.03 48.254 0.144 7.57 11.31 4.42
4/13/2022 3:30:00 AM 9.03 48.254 0.144 7.58 11.41 4.37
4/13/2022 3:45:00 AM 9.03 48.254 0.144 7.58 11.89 4.43
4/13/2022 4:00:00 AM 9.03 48.254 0.144 7.56 12.52 4.07
4/13/2022 4:15:00 AM 9.03 48.254 0.144 7.59 11.78 4.12
4/13/2022 4:30:00 AM 9.03 48.254 0.144 7.58 11.45 4.36
4/13/2022 4:45:00 AM 9.03 48.254 0.144 7.58 10.15 3.86
4/13/2022 5:00:00 AM 9.03 48.254 0.144 7.56 9.5 4.06
4/13/2022 5:15:00 AM 9.03 48.254 0.137 7.56 11.62 4.29
4/13/2022 5:30:00 AM 9.03 48.254 0.14 7.56 10.77 3.96
4/13/2022 5:45:00 AM 9.03 48.254 0.139 7.55 9.73 4.24
4/13/2022 6:00:00 AM 8.99 48.182 0.142 7.57 13.26 4.34
4/13/2022 6:15:00 AM 9.1 48.38 0.153 7.63 28.61 4.55
4/13/2022 6:30:00 AM 9.13 48.434 0.154 7.65 17.99 4.54
4/13/2022 6:45:00 AM 9.14 48.452 0.149 7.64 15.82 4.52
4/13/2022 7:00:00 AM 9.15 48.47 0.154 7.64 15 4.61
4/13/2022 7:15:00 AM 9.16 48.488 0.155 7.65 14.32 4.64
4/13/2022 7:30:00 AM 9.18 48.524 0.148 7.65 15.06 4.61
4/13/2022 7:45:00 AM 9.19 48.542 0.153 7.65 14.34 4.79
4/13/2022 8:00:00 AM 9.21 48.578 0.155 7.63 14.78 4.89
4/13/2022 8:15:00 AM 9.24 48.632 0.15 7.62 15.07 4.88
4/13/2022 8:30:00 AM 9.27 48.686 0.156 7.64 14.48 4.82
4/13/2022 8:45:00 AM 9.3 48.74 0.148 7.62 13.5 4.88
4/13/2022 9:00:00 AM 9.34 48.812 0.041 7.65 13.47 4.81
4/13/2022 9:15:00 AM 9.38 48.884 0.157 7.65 13.87 4.81
4/13/2022 9:30:00 AM 9.42 48.956 0.069 7.65 13.69 4.79
4/13/2022 9:45:00 AM 9.47 49.046 0.157 7.63 13.42 4.75
4/13/2022 10:00:00 AM 9.51 49.118 0.154 7.64 13.76 5.05
4/13/2022 10:15:00 AM 9.57 49.226 0.155 7.63 14.14 4.42
4/13/2022 10:30:00 AM 9.61 49.298 0.157 7.65 14.07 4.14
4/13/2022 10:45:00 AM 9.66 49.388 0.157 7.66 12.88 4.33
4/13/2022 11:00:00 AM 9.71 49.478 0.157 7.66 12.74 4.32
4/13/2022 11:15:00 AM 9.77 49.586 0.157 7.66 13.81 4.28
4/13/2022 11:30:00 AM 9.83 49.694 0.158 7.67 13.53 4.26
4/13/2022 11:45:00 AM 9.89 49.802 0.158 7.66 13.26 4.35
4/13/2022 12:00:00 PM 9.95 49.91 0.144 7.67 12.73 4.37
4/13/2022 12:15:00 PM 10 50 0.158 7.67 13.83 4.29
4/13/2022 12:30:00 PM 10.05 50.09 0.158 7.67 12.14 4.35
4/13/2022 12:45:00 PM 10.09 50.162 0.158 7.67 13.35 4.33
4/13/2022 1:00:00 PM 10.14 50.252 0.156 7.67 13.29 4.44
4/13/2022 1:15:00 PM 10.18 50.324 0.158 7.68 13.84 4.38
4/13/2022 1:30:00 PM 10.21 50.378 0.15 7.68 12.44 4.44
4/13/2022 1:45:00 PM 10.24 50.432 0.076 7.68 13.49 4.37
4/13/2022 2:00:00 PM 10.25 50.45 0.159 7.68 11.47 4.41
4/13/2022 2:15:00 PM 10.25 50.45 0.159 7.68 11.22 4.44
4/13/2022 2:30:00 PM 10.25 50.45 0.159 7.68 9.58 4.32
4/13/2022 2:45:00 PM 10.24 50.432 0.159 7.67 9.83 4.11
4/13/2022 3:00:00 PM 10.23 50.414 0.159 7.67 10.1 3.85
4/13/2022 3:15:00 PM 10.23 50.414 0.159 7.67 9.45 3.91
4/13/2022 3:30:00 PM 10.22 50.396 0.146 7.68 8.69 3.95
4/13/2022 3:45:00 PM 10.21 50.378 0.159 7.66 8.8 3.94
4/13/2022 4:00:00 PM 10.2 50.36 0.159 7.65 9.08 4.02
4/13/2022 4:15:00 PM 10.19 50.342 0.158 7.64 8.54 4.13
4/13/2022 4:30:00 PM 10.18 50.324 0.159 7.64 8.67 4.17
4/13/2022 4:45:00 PM 10.16 50.288 0.093 7.63 8.15 4.08
4/13/2022 5:00:00 PM 10.15 50.27 0.073 7.58 7.49 4.14
4/13/2022 5:15:00 PM 10.15 50.27 0.16 7.53 8.16 4.62
4/13/2022 5:30:00 PM 10.14 50.252 0.16 7.52 8.14 4.23
4/13/2022 5:45:00 PM 10.13 50.234 0.148 7.52 7.91 4.18
4/13/2022 6:00:00 PM 10.13 50.234 0.16 7.52 8.38 4.22
4/13/2022 6:15:00 PM 10.13 50.234 0.16 7.52 8.24 4.21
4/13/2022 6:30:00 PM 10.13 50.234 0.16 7.5 8.07 4.22
4/13/2022 6:45:00 PM 10.12 50.216 0.157 7.46 6.92 4.22
4/13/2022 7:00:00 PM 10.11 50.198 0.094 7.48 7.67 4.32
4/13/2022 7:15:00 PM 10.11 50.198 0.16 7.5 7.22 4.26
4/13/2022 7:30:00 PM 10.1 50.18 0.16 7.46 7.49 4.29
4/13/2022 7:45:00 PM 10.1 50.18 0.16 7.43 7.33 4.27
4/13/2022 8:00:00 PM 10.1 50.18 0.161 7.4 7.16 4.32
4/13/2022 8:15:00 PM 10.09 50.162 0.161 7.38 6.55 4.32
4/13/2022 8:30:00 PM 10.08 50.144 0.161 7.38 6.86 4.32
4/13/2022 8:45:00 PM 10.08 50.144 0.161 7.38 6.96 4.39
4/13/2022 9:00:00 PM 10.08 50.144 0.161 7.37 6.78 4.29
4/13/2022 9:15:00 PM 10.07 50.126 0.061 7.38 5.89 4.29
4/13/2022 9:30:00 PM 10.07 50.126 0.162 7.36 6.68 4.3
4/13/2022 9:45:00 PM 10.06 50.108 0.162 7.35 6.63 4.32
4/13/2022 10:00:00 PM 10.06 50.108 0.162 7.34 6.52 4.33
4/13/2022 10:15:00 PM 10.05 50.09 0.159 7.34 6.69 4.33
4/13/2022 10:30:00 PM 10.04 50.072 0.044 7.36 5.95 4.36
4/13/2022 10:45:00 PM 10.04 50.072 0.161 7.37 6.48 4.32
4/13/2022 11:00:00 PM 10.03 50.054 0.161 7.38 6.16 4.31
4/13/2022 11:15:00 PM 10.03 50.054 0.05 7.39 5.9 4.31
4/13/2022 11:30:00 PM 10.03 50.054 0.161 7.39 5.92 4.35
4/13/2022 11:45:00 PM 10.02 50.036 0.161 7.4 5.28 4.34
4/14/2022 12:00:00 AM 10.02 50.036 0.161 7.41 6.55 4.36
4/14/2022 12:15:00 AM 10.01 50.018 0.161 7.42 6.03 4.4
4/14/2022 12:30:00 AM 10.01 50.018 0.06 7.41 5.8 4.38
4/14/2022 12:45:00 AM 10.01 50.018 0.065 7.41 5.51 4.29
4/14/2022 1:00:00 AM 10 50 0.161 7.4 5.57 4.29
4/14/2022 1:15:00 AM 10 50 0.161 7.4 5.45 4.33
4/14/2022 1:30:00 AM 10 50 0.126 7.4 5.42 4.35
4/14/2022 1:45:00 AM 10 50 0.106 7.41 5.01 4.43
4/14/2022 2:00:00 AM 10 50 0.162 7.39 6.18 4.4
4/14/2022 2:15:00 AM 9.99 49.982 0.155 7.4 5.45 4.42
4/14/2022 2:30:00 AM 9.99 49.982 0.162 7.4 5.62 4.41
4/14/2022 2:45:00 AM 9.98 49.964 0.162 7.39 5.72 4.44
4/14/2022 3:00:00 AM 9.98 49.964 0.162 7.39 6.52 4.33
4/14/2022 3:15:00 AM 9.98 49.964 0.162 7.39 5.88 4.33
4/14/2022 3:30:00 AM 9.98 49.964 0.161 7.38 5.13 4.3
4/14/2022 3:45:00 AM 9.97 49.946 0.067 7.39 5.3 4.32
4/14/2022 4:00:00 AM 9.97 49.946 0.158 7.4 5.5 4.42
4/14/2022 4:15:00 AM 9.96 49.928 0.162 7.39 5.56 4.49
4/14/2022 4:30:00 AM 9.96 49.928 0.161 7.41 5.42 4.41
4/14/2022 4:45:00 AM 9.95 49.91 0.162 7.41 5.68 4.43
4/14/2022 5:00:00 AM 9.95 49.91 0.162 7.41 5.61 4.48
4/14/2022 5:15:00 AM 9.95 49.91 0.151 7.43 5.86 4.52
4/14/2022 5:30:00 AM 9.94 49.892 0.162 7.42 5.16 4.53
4/14/2022 5:45:00 AM 9.98 49.964 0.158 7.44 5.94 4.44
4/14/2022 6:00:00 AM 10.14 50.252 0.059 7.6 20.96 4.6
4/14/2022 6:15:00 AM 10.31 50.558 0.082 7.66 11.03 4.66
4/14/2022 6:30:00 AM 10.34 50.612 0.166 7.66 9.93 4.76
4/14/2022 6:45:00 AM 10.35 50.63 0.089 7.68 9.92 4.81
4/14/2022 7:00:00 AM 10.36 50.648 0.166 7.68 10.87 4.99
4/14/2022 7:15:00 AM 10.38 50.684 0.167 7.68 10.43 5.11
4/14/2022 7:30:00 AM 10.4 50.72 0.167 7.67 9.93 5.16
4/14/2022 7:45:00 AM 10.43 50.774 0.167 7.7 10.24 5.26
4/14/2022 8:00:00 AM 10.46 50.828 0.165 7.69 9.44 5.16
4/14/2022 8:15:00 AM 10.5 50.9 0.167 7.69 9.84 5.17
4/14/2022 8:30:00 AM 10.55 50.99 0.164 7.69 9.45 5.23
4/14/2022 8:45:00 AM 10.6 51.08 0.143 7.69 9.24 5.14
4/14/2022 9:00:00 AM 10.66 51.188 0.166 7.7 10.12 5.24
4/14/2022 9:15:00 AM 10.71 51.278 0.102 7.7 8.87 5.24
4/14/2022 9:30:00 AM 10.77 51.386 0.168 7.7 10.08 5.23
4/14/2022 9:45:00 AM 10.84 51.512 0.061 7.71 8.81 5.23
4/14/2022 10:00:00 AM 10.91 51.638 0.136 7.7 9.3 5.25
4/14/2022 10:15:00 AM 10.98 51.764 0.168 7.71 10.31 5.16
4/14/2022 10:30:00 AM 11.05 51.89 0.165 7.73 9.3 5.14
4/14/2022 10:45:00 AM 11.11 51.998 0.168 7.71 8.82 5.14
4/14/2022 11:00:00 AM 11.16 52.088 0.05 7.72 9.12 5.16
4/14/2022 11:15:00 AM 11.19 52.142 0.169 7.72 9.63 5.07
4/14/2022 11:30:00 AM 11.2 52.16 0.158 7.71 9.17 4.95
4/14/2022 11:45:00 AM 11.22 52.196 0.167 7.71 9.02 4.73
4/14/2022 12:00:00 PM 11.25 52.25 0.169 7.71 9.55 4.62
4/14/2022 12:15:00 PM 11.28 52.304 0.063 7.72 9.69 4.59
4/14/2022 12:30:00 PM 11.31 52.358 0.169 7.72 8.6 4.64
4/14/2022 12:45:00 PM 11.34 52.412 0.046 7.72 8.94 4.72
4/14/2022 1:00:00 PM 11.37 52.466 0.168 7.72 9.03 4.73
4/14/2022 1:15:00 PM 11.39 52.502 0.169 7.72 9.95 4.58
4/14/2022 1:30:00 PM 11.42 52.556 0.17 7.72 13.6 3.9
4/14/2022 1:45:00 PM 11.46 52.628 0.163 7.72 12.67 3.89
4/14/2022 2:00:00 PM 11.49 52.682 0.17 7.74 14.67 3.91
4/14/2022 2:15:00 PM 11.5 52.7 0.171 7.74 15.74 4.13
4/14/2022 2:30:00 PM 11.5 52.7 0.171 7.73 10.24 4.01
4/14/2022 2:45:00 PM 11.49 52.682 0.17 7.73 10.31 3.96
4/14/2022 3:00:00 PM 11.49 52.682 0.171 7.73 9.24 4.11
4/14/2022 3:15:00 PM 11.48 52.664 0.17 7.73 8.87 4.08
4/14/2022 3:30:00 PM 11.47 52.646 0.171 7.73 7.86 4.04
4/14/2022 3:45:00 PM 11.48 52.664 0.171 7.7 7.94 4.24
4/14/2022 4:00:00 PM 11.47 52.646 0.17 7.63 7.01 4.1
4/14/2022 4:15:00 PM 11.46 52.628 0.17 7.64 7.59 4.15
4/14/2022 4:30:00 PM 11.45 52.61 0.171 7.6 7.93 4.16
4/14/2022 4:45:00 PM 11.44 52.592 0.164 7.58 7.66 3.12
4/14/2022 5:00:00 PM 11.43 52.574 0.068 7.56 7.01 3.06
4/14/2022 5:15:00 PM 11.42 52.556 0.172 7.55 6.93 3.16
4/14/2022 5:30:00 PM 11.41 52.538 0.147 7.56 6.95 3.11
4/14/2022 5:45:00 PM 11.4 52.52 0.172 7.56 6.4 3.27
4/14/2022 6:00:00 PM 11.4 52.52 0.172 7.6 6.24 3.03
4/14/2022 6:15:00 PM 11.39 52.502 0.171 7.62 6.68 3.08
4/14/2022 6:30:00 PM 11.39 52.502 0.172 7.59 7 3.23
4/14/2022 6:45:00 PM 11.38 52.484 0.172 7.54 6.64 3.41
4/14/2022 7:00:00 PM 11.38 52.484 0.166 7.52 6.68 3.39
4/14/2022 7:15:00 PM 11.37 52.466 0.168 7.49 6.5 3.39
4/14/2022 7:30:00 PM 11.37 52.466 0.172 7.51 5.7 3.48
4/14/2022 7:45:00 PM 11.36 52.448 0.172 7.51 6.03 3.2
4/14/2022 8:00:00 PM 11.35 52.43 0.172 7.53 5.65 3.45
4/14/2022 8:15:00 PM 11.34 52.412 0.109 7.56 6.01 3.54
4/14/2022 8:30:00 PM 11.33 52.394 0.171 7.57 5.91 3.5
4/14/2022 8:45:00 PM 11.33 52.394 0.172 7.56 5.91 3.57
4/14/2022 9:00:00 PM 11.32 52.376 0.172 7.55 5.29 3.63
4/14/2022 9:15:00 PM 11.31 52.358 0.172 7.56 5.59 3.49
4/14/2022 9:30:00 PM 11.3 52.34 0.172 7.5 5.74 3.41
4/14/2022 9:45:00 PM 11.3 52.34 0.173 7.47 5.49 3.3
4/14/2022 10:00:00 PM 11.29 52.322 0.168 7.42 5.24 3.44
4/14/2022 10:15:00 PM 11.28 52.304 0.174 7.35 5.15 3.4
4/14/2022 10:30:00 PM 11.27 52.286 0.168 7.28 5.4 3.32
4/14/2022 10:45:00 PM 11.27 52.286 0.177 7.15 4.94 3.5
4/14/2022 11:00:00 PM 11.26 52.268 0.177 7.11 4.63 3.41
4/14/2022 11:15:00 PM 11.25 52.25 0.177 7.07 6.37 3.47
4/14/2022 11:30:00 PM 11.25 52.25 0.178 7.03 4.83 3.15
4/14/2022 11:45:00 PM 11.24 52.232 0.179 7 4.62 3.16
4/15/2022 12:00:00 AM 11.24 52.232 0.18 6.94 4.82 3.3
4/15/2022 12:15:00 AM 11.23 52.214 0.182 6.88 4.62 3.38
4/15/2022 12:30:00 AM 11.22 52.196 0.183 6.75 4.59 3.22
4/15/2022 12:45:00 AM 11.22 52.196 0.184 6.81 4.61 3.18
4/15/2022 1:00:00 AM 11.21 52.178 0.186 6.71 4.4 3.34
4/15/2022 1:15:00 AM 11.2 52.16 0.177 6.66 4.89 3.06
4/15/2022 1:30:00 AM 11.2 52.16 0.172 6.68 4.71 3.3
4/15/2022 1:45:00 AM 11.19 52.142 0.187 6.72 4.49 3.24
4/15/2022 2:00:00 AM 11.19 52.142 0.187 6.72 4.42 3.09
4/15/2022 2:15:00 AM 11.19 52.142 0.173 6.72 4.03 3.01
4/15/2022 2:30:00 AM 11.19 52.142 0.188 6.74 4.41 3.1
4/15/2022 2:45:00 AM 11.18 52.124 0.19 6.66 3.95 3.34
4/15/2022 3:00:00 AM 11.18 52.124 0.19 6.68 4.13 3.42
4/15/2022 3:15:00 AM 11.18 52.124 0.19 6.69 4.16 3.29
4/15/2022 3:30:00 AM 11.18 52.124 0.171 6.72 3.86 3.24
4/15/2022 3:45:00 AM 11.17 52.106 0.181 6.72 4.1 3.29
4/15/2022 4:00:00 AM 11.17 52.106 0.164 6.7 4.39 3.5
4/15/2022 4:15:00 AM 11.17 52.106 0.192 6.72 4.09 3.39
4/15/2022 4:30:00 AM 11.16 52.088 0.192 6.74 4.16 3.48
4/15/2022 4:45:00 AM 11.15 52.07 0.192 6.76 4.06 3.93
4/15/2022 5:00:00 AM 11.15 52.07 0.192 6.77 4.2 3.86
4/15/2022 5:15:00 AM 11.15 52.07 0.192 6.79 3.8 3.87
4/15/2022 5:30:00 AM 11.14 52.052 0.191 6.8 4.07 3.44
4/15/2022 5:45:00 AM 11.14 52.052 0.192 6.82 3.98 3.39
4/15/2022 6:00:00 AM 10.88 51.584 0.198 5.95 15.6 3.58
4/15/2022 6:15:00 AM 10.88 51.584 0.18 7.26 13.34 4.16
4/15/2022 6:30:00 AM 10.87 51.566 0.177 7.58 11.64 4.03
4/15/2022 6:45:00 AM 10.87 51.566 0.148 7.65 9.96 4.06
4/15/2022 7:00:00 AM 10.88 51.584 0.156 7.69 8.68 4.08
4/15/2022 7:15:00 AM 10.88 51.584 0.176 7.7 9.39 4.1
4/15/2022 7:30:00 AM 10.9 51.62 0.179 7.7 10.33 4.27
4/15/2022 7:45:00 AM 10.92 51.656 0.061 7.71 9.06 4.34
4/15/2022 8:00:00 AM 10.94 51.692 0.179 7.71 10.03 4.35
4/15/2022 8:15:00 AM 10.97 51.746 0.173 7.7 9.28 4.24
4/15/2022 8:30:00 AM 11.01 51.818 0.18 7.71 9.89 4.31
4/15/2022 8:45:00 AM 11.04 51.872 0.18 7.71 9.27 4.35
4/15/2022 9:00:00 AM 11.09 51.962 0.181 7.73 8.93 4.38
4/15/2022 9:15:00 AM 11.14 52.052 0.176 7.72 10.83 4.4
4/15/2022 9:30:00 AM 11.18 52.124 0.171 7.73 9.05 4.26
4/15/2022 9:45:00 AM 11.22 52.196 0.142 7.73 8.7 4.26
4/15/2022 10:00:00 AM 11.26 52.268 0.129 7.73 10.06 4.29
4/15/2022 10:15:00 AM 11.31 52.358 0.182 7.74 10.03 4.19
4/15/2022 10:30:00 AM 11.36 52.448 0.181 7.73 9.58 4.3
4/15/2022 10:45:00 AM 11.42 52.556 0.181 7.73 8.6 4.33
4/15/2022 11:00:00 AM 11.47 52.646 0.182 7.74 9.14 4.28
4/15/2022 11:15:00 AM 11.53 52.754 0.183 7.74 9.55 4.32
4/15/2022 11:30:00 AM 11.59 52.862 0.183 7.75 8.84 4.39
4/15/2022 11:45:00 AM 11.63 52.934 0.183 7.75 8.13 4.23
4/15/2022 12:00:00 PM 11.67 53.006 0.173 7.76 8.16 4
4/15/2022 12:15:00 PM 11.73 53.114 0.184 7.75 8.7 3.81
4/15/2022 12:30:00 PM 11.78 53.204 0.184 7.76 8.26 3.77
4/15/2022 12:45:00 PM 11.83 53.294 0.184 7.77 8.57 3.57
4/15/2022 1:00:00 PM 11.89 53.402 0.178 7.76 8.06 2.64
4/15/2022 1:15:00 PM 11.94 53.492 0.184 7.77 7.94 2.54
4/15/2022 1:30:00 PM 11.99 53.582 0.185 7.77 8.33 2.89
4/15/2022 1:45:00 PM 12 53.6 0.185 7.77 6.63 2.77
4/15/2022 2:00:00 PM 11.99 53.582 0.184 7.76 6.02 2.66
4/15/2022 2:15:00 PM 11.98 53.564 0.185 7.76 6.36 2.56
4/15/2022 2:30:00 PM 11.98 53.564 0.092 7.77 6.12 3.1
4/15/2022 2:45:00 PM 11.97 53.546 0.074 7.77 5.73 3.23
4/15/2022 3:00:00 PM 11.95 53.51 0.185 7.76 5.59 3.21
4/15/2022 3:15:00 PM 11.94 53.492 0.185 7.74 5.72 3.19
4/15/2022 3:30:00 PM 11.93 53.474 0.181 7.73 4.97 3.19
4/15/2022 3:45:00 PM 11.92 53.456 0.108 7.76 5.04 3.23
4/15/2022 4:00:00 PM 11.91 53.438 0.185 7.74 5.26 3.24
4/15/2022 4:15:00 PM 11.9 53.42 0.184 7.74 4.95 3.21
4/15/2022 4:30:00 PM 11.89 53.402 0.185 7.74 5.11 3.3
4/15/2022 4:45:00 PM 11.89 53.402 0.08 7.73 4.61 3.41
4/15/2022 5:00:00 PM 11.88 53.384 0.185 7.71 4.84 3.38
4/15/2022 5:15:00 PM 11.87 53.366 0.185 7.7 4.66 3.3
4/15/2022 5:30:00 PM 11.87 53.366 0.125 7.71 4.37 3.34
4/15/2022 5:45:00 PM 11.86 53.348 0.181 7.69 4.49 3.41
4/15/2022 6:00:00 PM 11.86 53.348 0.185 7.68 4.17 3.38
4/15/2022 6:15:00 PM 11.85 53.33 0.185 7.68 4.35 3.44
4/15/2022 6:30:00 PM 11.85 53.33 0.172 7.67 4.3 3.43
4/15/2022 6:45:00 PM 11.84 53.312 0.185 7.64 4.56 3.42
4/15/2022 7:00:00 PM 11.84 53.312 0.186 7.61 4.21 3.46
4/15/2022 7:15:00 PM 11.83 53.294 0.186 7.6 4.13 3.57
4/15/2022 7:30:00 PM 11.82 53.276 0.186 7.55 3.86 3.53
4/15/2022 7:45:00 PM 11.82 53.276 0.186 7.52 4.07 3.59
4/15/2022 8:00:00 PM 11.81 53.258 0.113 7.49 3.58 3.57
4/15/2022 8:15:00 PM 11.8 53.24 0.167 7.49 3.61 3.59
4/15/2022 8:30:00 PM 11.8 53.24 0.186 7.47 3.85 3.59
4/15/2022 8:45:00 PM 11.79 53.222 0.187 7.44 3.43 3.63
4/15/2022 9:00:00 PM 11.79 53.222 0.186 7.44 3.73 3.62
4/15/2022 9:15:00 PM 11.78 53.204 0.187 7.43 3.9 3.68
4/15/2022 9:30:00 PM 11.78 53.204 0.187 7.4 3.7 3.64
4/15/2022 9:45:00 PM 11.77 53.186 0.064 7.39 3.64 3.63
4/15/2022 10:00:00 PM 11.77 53.186 0.188 7.37 3.77 3.31
4/15/2022 10:15:00 PM 11.76 53.168 0.076 7.35 3.73 3.45
4/15/2022 10:30:00 PM 11.76 53.168 0.189 7.33 3.59 3.42
4/15/2022 10:45:00 PM 11.75 53.15 0.187 7.33 3.81 3.5
4/15/2022 11:00:00 PM 11.75 53.15 0.073 7.3 3.59 3.41
4/15/2022 11:15:00 PM 11.74 53.132 0.189 7.29 3.71 3.37
4/15/2022 11:30:00 PM 11.74 53.132 0.179 7.26 4.47 3.49
4/15/2022 11:45:00 PM 11.73 53.114 0.184 7.23 3.5 3.56
4/16/2022 12:00:00 AM 11.73 53.114 0.191 7.19 3.58 3.68
4/16/2022 12:15:00 AM 11.72 53.096 0.191 7.15 4.11 3.68
4/16/2022 12:30:00 AM 11.71 53.078 0.192 7.1 3.46 3.64
4/16/2022 12:45:00 AM 11.7 53.06 0.191 7.09 4.07 3.13
4/16/2022 1:00:00 AM 11.7 53.06 0.058 7.07 3.54 3.17
4/16/2022 1:15:00 AM 11.69 53.042 0.194 7.05 3.54 3.11
4/16/2022 1:30:00 AM 11.69 53.042 0.195 7.07 3.95 2.99
4/16/2022 1:45:00 AM 11.68 53.024 0.195 7.03 3.32 3.02
4/16/2022 2:00:00 AM 11.68 53.024 0.166 7.05 3.54 3.12
4/16/2022 2:15:00 AM 11.68 53.024 0.196 7.04 3.47 3.15
4/16/2022 2:30:00 AM 11.68 53.024 0.192 7.06 3.5 3.14
4/16/2022 2:45:00 AM 11.67 53.006 0.197 7.05 3.29 3.13
4/16/2022 3:00:00 AM 11.67 53.006 0.197 7.05 3.14 3.01
4/16/2022 3:15:00 AM 11.67 53.006 0.173 7.06 2.92 3.09
4/16/2022 3:30:00 AM 11.66 52.988 0.197 7.06 3.22 3.02
4/16/2022 3:45:00 AM 11.66 52.988 0.198 7.06 3.12 3.06
4/16/2022 4:00:00 AM 11.66 52.988 0.198 7.04 2.94 3.04
4/16/2022 4:15:00 AM 11.65 52.97 0.193 7.05 3.16 3.06
4/16/2022 4:30:00 AM 11.48 52.664 0.263 3.66 8.26 3.4
4/16/2022 4:45:00 AM 11.52 52.736 0.193 7.06 10.24 3.41
4/16/2022 5:00:00 AM 11.49 52.682 0.19 7.52 8.54 3.51
4/16/2022 5:15:00 AM 11.47 52.646 0.175 7.69 8.89 3.52
4/16/2022 5:30:00 AM 11.45 52.61 0.188 7.74 8.37 3.53
4/16/2022 5:45:00 AM 11.43 52.574 0.19 7.75 9.43 3.55
4/16/2022 6:00:00 AM 11.42 52.556 0.191 7.76 8.85 3.54
4/16/2022 6:15:00 AM 11.4 52.52 0.186 7.76 8.82 2.5
4/16/2022 6:30:00 AM 11.38 52.484 0.188 7.76 8.47 2.57
4/16/2022 6:45:00 AM 11.36 52.448 0.19 7.79 8.94 2.76
4/16/2022 7:00:00 AM 11.35 52.43 0.159 7.78 8.5 2.68
4/16/2022 7:15:00 AM 11.34 52.412 0.191 7.77 9.03 2.89
4/16/2022 7:30:00 AM 11.33 52.394 0.191 7.78 8.46 2.97
4/16/2022 7:45:00 AM 11.32 52.376 0.191 7.78 8.35 3.07
4/16/2022 8:00:00 AM 11.32 52.376 0.183 7.79 8.25 3.19
4/16/2022 8:15:00 AM 11.32 52.376 0.192 7.79 7.66 3.02
4/16/2022 8:30:00 AM 11.32 52.376 0.192 7.78 7.37 3.08
4/16/2022 8:45:00 AM 11.33 52.394 0.061 7.79 8.43 3.16
4/16/2022 9:00:00 AM 11.34 52.412 0.192 7.8 8.27 3.2
4/16/2022 9:15:00 AM 11.36 52.448 0.192 7.77 8.53 3.24
4/16/2022 9:30:00 AM 11.4 52.52 0.192 7.78 8.48 3.25
4/16/2022 9:45:00 AM 11.43 52.574 0.186 7.78 8.19 3.17
4/16/2022 10:00:00 AM 11.47 52.646 0.192 7.77 8.53 3.13
4/16/2022 10:15:00 AM 11.49 52.682 0.185 7.77 8.42 3.29
4/16/2022 10:30:00 AM 11.51 52.718 0.119 7.79 7.8 3.2
4/16/2022 10:45:00 AM 11.55 52.79 0.192 7.79 7.35 3.36
4/16/2022 11:00:00 AM 11.58 52.844 0.192 7.79 8.44 3.24
4/16/2022 11:15:00 AM 11.62 52.916 0.192 7.79 8.18 3.39
4/16/2022 11:30:00 AM 11.65 52.97 0.188 7.8 7.57 3.31
4/16/2022 11:45:00 AM 11.68 53.024 0.192 7.81 8.5 3.38
4/16/2022 12:00:00 PM 11.69 53.042 0.192 7.81 8.29 3.33
4/16/2022 12:15:00 PM 11.69 53.042 0.192 7.81 8.82 3.06
4/16/2022 12:30:00 PM 11.7 53.06 0.192 7.8 7.14 2.87
4/16/2022 12:45:00 PM 11.7 53.06 0.191 7.8 6.01 2.87
4/16/2022 1:00:00 PM 11.7 53.06 0.177 7.81 5.64 2.95
4/16/2022 1:15:00 PM 11.69 53.042 0.192 7.8 5.67 3.14
4/16/2022 1:30:00 PM 11.69 53.042 0.192 7.8 5.14 3.03
4/16/2022 1:45:00 PM 11.68 53.024 0.192 7.79 5.14 2.87
4/16/2022 2:00:00 PM 11.68 53.024 0.192 7.79 4.57 2.82
4/16/2022 2:15:00 PM 11.68 53.024 0.192 7.79 4.69 2.73
4/16/2022 2:30:00 PM 11.68 53.024 0.122 7.79 4.66 2.79
4/16/2022 2:45:00 PM 11.68 53.024 0.192 7.79 4.73 2.8
4/16/2022 3:00:00 PM 11.68 53.024 0.192 7.77 5.04 2.81
4/16/2022 3:15:00 PM 11.67 53.006 0.191 7.77 4.24 3.08
4/16/2022 3:30:00 PM 11.67 53.006 0.192 7.74 4.46 3.24
4/16/2022 3:45:00 PM 11.66 52.988 0.19 7.74 3.75 3.26
4/16/2022 4:00:00 PM 11.65 52.97 0.192 7.73 4.18 3.32
4/16/2022 4:15:00 PM 11.65 52.97 0.191 7.73 3.92 3.36
4/16/2022 4:30:00 PM 11.65 52.97 0.19 7.74 4.05 3.41
4/16/2022 4:45:00 PM 11.64 52.952 0.192 7.73 4.64 3.4
4/16/2022 5:00:00 PM 11.64 52.952 0.192 7.74 3.87 3.45
4/16/2022 5:15:00 PM 11.64 52.952 0.185 7.73 3.73 3.46
4/16/2022 5:30:00 PM 11.63 52.934 0.192 7.74 3.78 3.52
4/16/2022 5:45:00 PM 11.63 52.934 0.192 7.73 3.69 3.58
4/16/2022 6:00:00 PM 11.63 52.934 0.192 7.74 3.69 3.65
4/16/2022 6:15:00 PM 11.63 52.934 0.08 7.74 3.55 3.67
4/16/2022 6:30:00 PM 11.62 52.916 0.192 7.73 3.86 3.62
4/16/2022 6:45:00 PM 11.62 52.916 0.191 7.74 3.49 3.61
4/16/2022 7:00:00 PM 11.62 52.916 0.192 7.71 3.67 3.64
4/16/2022 7:15:00 PM 11.61 52.898 0.192 7.73 3.23 3.66
4/16/2022 7:30:00 PM 11.61 52.898 0.192 7.73 3.64 3.69
4/16/2022 7:45:00 PM 11.61 52.898 0.192 7.73 3.62 3.68
4/16/2022 8:00:00 PM 11.61 52.898 0.192 7.72 3.72 3.71
4/16/2022 8:15:00 PM 11.6 52.88 0.192 7.72 3.22 3.7
4/16/2022 8:30:00 PM 11.6 52.88 0.184 7.72 4.42 3.7
4/16/2022 8:45:00 PM 11.6 52.88 0.192 7.72 3.61 3.64
4/16/2022 9:00:00 PM 11.6 52.88 0.192 7.72 3.42 3.65
4/16/2022 9:15:00 PM 11.6 52.88 0.192 7.72 3.45 3.77
4/16/2022 9:30:00 PM 11.59 52.862 0.192 7.71 3.49 3.75
4/16/2022 9:45:00 PM 11.59 52.862 0.192 7.72 3.41 3.74
4/16/2022 10:00:00 PM 11.59 52.862 0.192 7.72 3.49 3.75
4/16/2022 10:15:00 PM 11.59 52.862 0.192 7.71 3.52 3.76
4/16/2022 10:30:00 PM 11.59 52.862 0.174 7.71 3.02 3.72
4/16/2022 10:45:00 PM 11.58 52.844 0.193 7.71 3.29 3.76
4/16/2022 11:00:00 PM 11.58 52.844 0.094 7.72 3.11 3.75
4/16/2022 11:15:00 PM 11.58 52.844 0.178 7.7 3.34 3.8
4/16/2022 11:30:00 PM 11.57 52.826 0.072 7.7 3.39 3.8
4/16/2022 11:45:00 PM 11.57 52.826 0.181 7.69 2.81 3.82
4/17/2022 12:00:00 AM 11.57 52.826 0.142 7.68 3.22 3.83
4/17/2022 12:15:00 AM 11.57 52.826 0.192 7.69 3.05 3.86
4/17/2022 12:30:00 AM 11.56 52.808 0.192 7.7 3.14 3.74
4/17/2022 12:45:00 AM 11.56 52.808 0.102 7.68 3.31 3.82
4/17/2022 1:00:00 AM 11.56 52.808 0.193 7.66 3.02 3.83
4/17/2022 1:15:00 AM 11.56 52.808 0.193 7.67 3.11 3.73
4/17/2022 1:30:00 AM 11.56 52.808 0.075 7.67 3.03 3.83
4/17/2022 1:45:00 AM 11.56 52.808 0.075 7.68 2.87 3.81
4/17/2022 2:00:00 AM 11.55 52.79 0.192 7.66 3.1 3.86
4/17/2022 2:15:00 AM 11.55 52.79 0.193 7.66 3.24 3.84
4/17/2022 2:30:00 AM 11.55 52.79 0.193 7.67 2.92 3.87
4/17/2022 2:45:00 AM 11.55 52.79 0.193 7.65 2.67 3.88
4/17/2022 3:00:00 AM 11.55 52.79 0.12 7.66 2.94 3.82
4/17/2022 3:15:00 AM 11.17 52.106 0.196 7.39 8.45 3.95
4/17/2022 3:30:00 AM 11.17 52.106 0.195 7.73 6.94 3.92
4/17/2022 3:45:00 AM 11.15 52.07 0.191 7.79 7.37 3.93
4/17/2022 4:00:00 AM 11.14 52.052 0.195 7.79 7.75 3.8
4/17/2022 4:15:00 AM 11.12 52.016 0.17 7.8 7.2 3.95
4/17/2022 4:30:00 AM 11.1 51.98 0.195 7.8 7.39 3.98
4/17/2022 4:45:00 AM 11.08 51.944 0.195 7.8 7.91 4.05
4/17/2022 5:00:00 AM 11.06 51.908 0.195 7.8 7.34 4.05
4/17/2022 5:15:00 AM 11.05 51.89 0.195 7.8 6.54 4.06
4/17/2022 5:30:00 AM 11.03 51.854 0.107 7.8 7.47 4.06
4/17/2022 5:45:00 AM 11.01 51.818 0.195 7.8 7.52 4.09
4/17/2022 6:00:00 AM 11 51.8 0.196 7.79 7.15 4.2
4/17/2022 6:15:00 AM 10.99 51.782 0.195 7.8 7.46 4.24
4/17/2022 6:30:00 AM 10.97 51.746 0.196 7.8 7.38 4.25
4/17/2022 6:45:00 AM 10.97 51.746 0.196 7.8 7.42 4.28
4/17/2022 7:00:00 AM 10.96 51.728 0.197 7.79 7.24 3.84
4/17/2022 7:15:00 AM 10.95 51.71 0.197 7.8 7.24 3.81
4/17/2022 7:30:00 AM 10.94 51.692 0.197 7.8 7.31 3.87
4/17/2022 7:45:00 AM 10.93 51.674 0.101 7.79 7.47 3.94
4/17/2022 8:00:00 AM 10.92 51.656 0.197 7.78 7.4 3.93
4/17/2022 8:15:00 AM 10.91 51.638 0.196 7.79 6.35 3.92
4/17/2022 8:30:00 AM 10.91 51.638 0.135 7.78 6.53 3.99
4/17/2022 8:45:00 AM 10.9 51.62 0.197 7.79 5.89 3.88
4/17/2022 9:00:00 AM 10.89 51.602 0.198 7.77 6.09 4
4/17/2022 9:15:00 AM 10.88 51.584 0.197 7.77 6.6 4.01
4/17/2022 9:30:00 AM 10.88 51.584 0.196 7.79 6.12 4.05
4/17/2022 9:45:00 AM 10.88 51.584 0.198 7.78 5.78 4.07
4/17/2022 10:00:00 AM 10.87 51.566 0.198 7.79 6.69 4.15
4/17/2022 10:15:00 AM 10.87 51.566 0.197 7.78 5.57 4.13
4/17/2022 10:30:00 AM 10.87 51.566 0.181 7.79 4.42 4.21
4/17/2022 10:45:00 AM 10.87 51.566 0.197 7.79 4.95 4.17
4/17/2022 11:00:00 AM 10.87 51.566 0.196 7.78 4.9 4.06
4/17/2022 11:15:00 AM 10.87 51.566 0.175 7.78 5.17 4.21
4/17/2022 11:30:00 AM 10.87 51.566 0.195 7.78 4.18 4.22
4/17/2022 11:45:00 AM 10.87 51.566 0.198 7.78 4.11 4.13
4/17/2022 12:00:00 PM 10.87 51.566 0.198 7.78 3.96 4.08
4/17/2022 12:15:00 PM 10.87 51.566 0.198 7.77 3.53 4.19
4/17/2022 12:30:00 PM 10.87 51.566 0.198 7.77 4.07 4.12
4/17/2022 12:45:00 PM 10.87 51.566 0.078 7.76 3.7 4.14
4/17/2022 1:00:00 PM 10.87 51.566 0.125 7.76 4 4.01
4/17/2022 1:15:00 PM 10.87 51.566 0.198 7.74 3.36 4.02
4/17/2022 1:30:00 PM 10.88 51.584 0.088 7.74 3.29 4.02
4/17/2022 1:45:00 PM 10.88 51.584 0.198 7.7 3.28 4.01
4/17/2022 2:00:00 PM 10.88 51.584 0.198 7.69 3.62 4.14
4/17/2022 2:15:00 PM 10.88 51.584 0.185 7.68 3.61 4.14
4/17/2022 2:30:00 PM 10.88 51.584 0.199 7.66 3.54 4.13
4/17/2022 2:45:00 PM 10.88 51.584 0.199 7.63 3.23 4.11
4/17/2022 3:00:00 PM 10.88 51.584 0.198 7.62 3.4 4.06
4/17/2022 3:15:00 PM 10.88 51.584 0.19 7.6 3.32 3.69
4/17/2022 3:30:00 PM 10.88 51.584 0.199 7.59 3.44 3.61
4/17/2022 3:45:00 PM 10.88 51.584 0.198 7.6 3.66 3.55
4/17/2022 4:00:00 PM 10.88 51.584 0.199 7.59 3.38 3.64
4/17/2022 4:15:00 PM 10.88 51.584 0.199 7.6 3.26 3.65
4/17/2022 4:30:00 PM 10.88 51.584 0.072 7.62 3.29 3.65
4/17/2022 4:45:00 PM 10.87 51.566 0.198 7.65 2.88 3.62
4/17/2022 5:00:00 PM 10.87 51.566 0.169 7.66 3.15 3.62
4/17/2022 5:15:00 PM 10.87 51.566 0.199 7.65 3.17 3.6
4/17/2022 5:30:00 PM 10.87 51.566 0.198 7.65 3.28 3.55
4/17/2022 5:45:00 PM 10.86 51.548 0.198 7.66 3.28 3.56
4/17/2022 6:00:00 PM 10.86 51.548 0.114 7.67 3.09 3.53
4/17/2022 6:15:00 PM 10.86 51.548 0.199 7.67 2.85 3.52
4/17/2022 6:30:00 PM 10.86 51.548 0.199 7.67 3.01 3.5
4/17/2022 6:45:00 PM 10.86 51.548 0.193 7.66 2.76 3.51
4/17/2022 7:00:00 PM 10.86 51.548 0.184 7.67 2.89 3.5
4/17/2022 7:15:00 PM 10.86 51.548 0.199 7.67 2.6 3.5
4/17/2022 7:30:00 PM 10.86 51.548 0.199 7.66 3.1 3.47
4/17/2022 7:45:00 PM 10.85 51.53 0.199 7.67 2.85 2.87
4/17/2022 8:00:00 PM 10.86 51.548 0.119 7.67 2.83 2.92
4/17/2022 8:15:00 PM 10.85 51.53 0.198 7.67 2.58 3.07
4/17/2022 8:30:00 PM 10.85 51.53 0.198 7.68 2.69 3.05
4/17/2022 8:45:00 PM 10.85 51.53 0.193 7.66 3.2 3.15
4/17/2022 9:00:00 PM 10.85 51.53 0.199 7.66 2.81 3.01
4/17/2022 9:15:00 PM 10.85 51.53 0.198 7.66 2.73 3
4/17/2022 9:30:00 PM 10.85 51.53 0.199 7.67 2.83 2.89
4/17/2022 9:45:00 PM 10.85 51.53 0.129 7.67 2.81 2.99
4/17/2022 10:00:00 PM 10.85 51.53 0.198 7.66 2.79 2.96
4/17/2022 10:15:00 PM 10.85 51.53 0.199 7.67 2.82 3.03
4/17/2022 10:30:00 PM 10.85 51.53 0.199 7.67 2.78 3.08
4/17/2022 10:45:00 PM 10.85 51.53 0.199 7.66 2.72 3.1
4/17/2022 11:00:00 PM 10.85 51.53 0.199 7.64 2.93 2.78
4/17/2022 11:15:00 PM 10.85 51.53 0.199 7.64 2.81 2.59
4/17/2022 11:30:00 PM 10.84 51.512 0.117 7.65 2.77 2.6
4/17/2022 11:45:00 PM 10.84 51.512 0.108 7.63 2.82 2.39
4/18/2022 12:00:00 AM 10.84 51.512 0.199 7.64 2.76 2.45
4/18/2022 12:15:00 AM 10.84 51.512 0.199 7.64 2.87 2.43
4/18/2022 12:30:00 AM 10.84 51.512 0.197 7.65 2.9 2.45
4/18/2022 12:45:00 AM 10.84 51.512 0.2 7.64 2.74 2.47
4/18/2022 1:00:00 AM 10.84 51.512 0.199 7.64 2.44 2.49
4/18/2022 1:15:00 AM 10.84 51.512 0.196 7.62 2.77 2.34
4/18/2022 1:30:00 AM 10.84 51.512 0.199 7.64 2.99 2.39
4/18/2022 1:45:00 AM 10.84 51.512 0.199 7.63 2.49 2.37
4/18/2022 2:00:00 AM 10.84 51.512 0.199 7.63 2.78 2.01
4/18/2022 2:15:00 AM 10.84 51.512 0.2 7.61 2.57 2.07
4/18/2022 2:30:00 AM 10.84 51.512 0.199 7.62 2.73 2.07
4/18/2022 2:45:00 AM 10.83 51.494 0.199 7.63 2.42 2.15
4/18/2022 3:00:00 AM 10.83 51.494 0.199 7.61 2.53 1.78
4/18/2022 3:15:00 AM 10.83 51.494 0.2 7.62 2.66 1.87
4/18/2022 3:30:00 AM 10.83 51.494 0.197 7.62 2.68 1.79
4/18/2022 3:45:00 AM 10.83 51.494 0.191 7.62 2.63 1.89
4/18/2022 4:00:00 AM 10.83 51.494 0.199 7.62 2.67 1.97
4/18/2022 4:15:00 AM 10.83 51.494 0.197 7.62 2.57 2.09
4/18/2022 4:30:00 AM 10.83 51.494 0.199 7.61 2.72 2.09
4/18/2022 4:45:00 AM 10.83 51.494 0.2 7.61 3.18 2.13
4/18/2022 5:00:00 AM 10.83 51.494 0.2 7.62 2.76 2.21
4/18/2022 5:15:00 AM 10.83 51.494 0.151 7.62 2.46 2.21
4/18/2022 5:30:00 AM 10.83 51.494 0.2 7.63 2.73 2.22
4/18/2022 5:45:00 AM 10.72 51.296 0.201 7.57 5.46 2.34
4/18/2022 6:00:00 AM 10.25 50.45 0.203 7.69 8.1 2.58
4/18/2022 6:15:00 AM 10.12 50.216 0.204 7.79 6.8 2.44
4/18/2022 6:30:00 AM 10.09 50.162 0.204 7.8 6.71 2.45
4/18/2022 6:45:00 AM 10.07 50.126 0.204 7.81 6.82 2.49
4/18/2022 7:00:00 AM 10.06 50.108 0.204 7.8 5.97 2.48
4/18/2022 7:15:00 AM 10.05 50.09 0.133 7.8 5.76 2.47
4/18/2022 7:30:00 AM 10.04 50.072 0.204 7.82 6.69 2.46
4/18/2022 7:45:00 AM 10.02 50.036 0.204 7.82 6.35 2.5
4/18/2022 8:00:00 AM 10.02 50.036 0.2 7.81 5.67 2.53
4/18/2022 8:15:00 AM 10.01 50.018 0.204 7.81 6.46 2.52
4/18/2022 8:30:00 AM 10.01 50.018 0.204 7.82 5.65 2.59
4/18/2022 8:45:00 AM 10.02 50.036 0.204 7.81 6.28 2.63
4/18/2022 9:00:00 AM 10.04 50.072 0.204 7.83 6.38 2.63
4/18/2022 9:15:00 AM 10.06 50.108 0.131 7.83 6.23 2.64
4/18/2022 9:30:00 AM 10.07 50.126 0.204 7.81 5.63 2.67
4/18/2022 9:45:00 AM 10.07 50.126 0.204 7.82 5.73 2.71
4/18/2022 10:00:00 AM 10.06 50.108 0.203 7.82 5.8 2.73
4/18/2022 10:15:00 AM 10.05 50.09 0.204 7.82 5.88 2.75
4/18/2022 10:30:00 AM 10.06 50.108 0.204 7.83 6.46 2.77
4/18/2022 10:45:00 AM 10.07 50.126 0.204 7.83 6.18 2.77
4/18/2022 11:00:00 AM 10.08 50.144 0.204 7.83 6.06 2.75
4/18/2022 11:15:00 AM 10.09 50.162 0.171 7.82 5.52 2.78
4/18/2022 11:30:00 AM 10.1 50.18 0.204 7.83 6.16 2.75
4/18/2022 11:45:00 AM 10.11 50.198 0.204 7.84 6 2.82
4/18/2022 12:00:00 PM 10.13 50.234 0.198 7.84 5.72 2.91
4/18/2022 12:15:00 PM 10.14 50.252 0.205 7.83 6.33 2.98
4/18/2022 12:30:00 PM 10.15 50.27 0.205 7.83 5.97 2.98
4/18/2022 12:45:00 PM 10.16 50.288 0.203 7.83 5.33 3.03
4/18/2022 1:00:00 PM 10.16 50.288 0.205 7.85 5.82 2.96
4/18/2022 1:15:00 PM 10.16 50.288 0.201 7.85 5.09 2.94
4/18/2022 1:30:00 PM 10.16 50.288 0.204 7.85 5.47 2.95
4/18/2022 1:45:00 PM 10.16 50.288 0.2 7.85 5.88 3.04
4/18/2022 2:00:00 PM 10.15 50.27 0.205 7.86 5.77 3.03
4/18/2022 2:15:00 PM 10.15 50.27 0.089 7.85 4.11 3.01
4/18/2022 2:30:00 PM 10.15 50.27 0.205 7.85 4.09 3.08
4/18/2022 2:45:00 PM 10.15 50.27 0.205 7.84 4.2 3.05
4/18/2022 3:00:00 PM 10.15 50.27 0.204 7.85 3.59 3
4/18/2022 3:15:00 PM 10.16 50.288 0.06 7.85 3.38 3.01
4/18/2022 3:30:00 PM 10.16 50.288 0.205 7.84 3.48 2.98
4/18/2022 3:45:00 PM 10.16 50.288 0.204 7.85 3.74 2.97
4/18/2022 4:00:00 PM 10.16 50.288 0.204 7.82 3.42 2.98
4/18/2022 4:15:00 PM 10.16 50.288 0.204 7.84 3.53 3.03
4/18/2022 4:30:00 PM 10.16 50.288 0.2 7.83 3.27 3.11
4/18/2022 4:45:00 PM 10.16 50.288 0.205 7.82 3.05 3.1
4/18/2022 5:00:00 PM 10.16 50.288 0.205 7.83 2.97 3.11
4/18/2022 5:15:00 PM 10.16 50.288 0.204 7.83 3.42 3.22
4/18/2022 5:30:00 PM 10.16 50.288 0.187 7.81 3.35 3.25
4/18/2022 5:45:00 PM 10.16 50.288 0.204 7.82 2.95 3.3
4/18/2022 6:00:00 PM 10.16 50.288 0.205 7.81 2.8 3.35
4/18/2022 6:15:00 PM 10.16 50.288 0.201 7.8 3.08 3.37
4/18/2022 6:30:00 PM 10.16 50.288 0.204 7.79 2.81 3.14
4/18/2022 6:45:00 PM 10.16 50.288 0.205 7.76 3.16 3.3
4/18/2022 7:00:00 PM 10.16 50.288 0.205 7.77 2.97 3.33
4/18/2022 7:15:00 PM 10.16 50.288 0.205 7.77 2.69 3.4
4/18/2022 7:30:00 PM 10.16 50.288 0.199 7.76 2.83 3.45
4/18/2022 7:45:00 PM 10.16 50.288 0.205 7.74 2.87 3.44
4/18/2022 8:00:00 PM 10.16 50.288 0.204 7.76 2.92 3.47
4/18/2022 8:15:00 PM 10.16 50.288 0.205 7.76 2.79 3.47
4/18/2022 8:30:00 PM 10.16 50.288 0.13 7.76 2.49 3.49
4/18/2022 8:45:00 PM 10.16 50.288 0.205 7.75 2.84 3.5
4/18/2022 9:00:00 PM 10.16 50.288 0.195 7.76 2.93 3.44
4/18/2022 9:15:00 PM 10.16 50.288 0.205 7.75 2.68 3.5
4/18/2022 9:30:00 PM 10.16 50.288 0.194 7.76 2.79 3.51
4/18/2022 9:45:00 PM 10.16 50.288 0.205 7.76 2.45 3.58
4/18/2022 10:00:00 PM 10.16 50.288 0.205 7.75 2.74 3.56
4/18/2022 10:15:00 PM 10.16 50.288 0.204 7.75 2.74 3.64
4/18/2022 10:30:00 PM 10.16 50.288 0.205 7.75 2.76 3.65
4/18/2022 10:45:00 PM 10.15 50.27 0.151 7.73 2.81 3.7
4/18/2022 11:00:00 PM 10.15 50.27 0.142 7.75 2.77 3.74
4/18/2022 11:15:00 PM 10.15 50.27 0.205 7.74 2.86 3.77
4/18/2022 11:30:00 PM 10.16 50.288 0.206 7.74 2.59 3.76
4/18/2022 11:45:00 PM 10.16 50.288 0.151 7.75 2.59 3.82
4/19/2022 12:00:00 AM 10.15 50.27 0.204 7.74 2.97 3.86
4/19/2022 12:15:00 AM 10.15 50.27 0.205 7.75 2.7 3.9
4/19/2022 12:30:00 AM 10.15 50.27 0.192 7.75 2.58 3.91
4/19/2022 12:45:00 AM 10.15 50.27 0.206 7.73 2.59 3.88
4/19/2022 1:00:00 AM 10.15 50.27 0.097 7.74 2.6 3.84
4/19/2022 1:15:00 AM 10.15 50.27 0.205 7.71 3.01 3.9
4/19/2022 1:30:00 AM 10.15 50.27 0.132 7.71 2.65 3.87
4/19/2022 1:45:00 AM 10.15 50.27 0.206 7.7 2.59 3.92
4/19/2022 2:00:00 AM 10.15 50.27 0.206 7.72 2.37 3.84
4/19/2022 2:15:00 AM 10.15 50.27 0.169 7.68 2.67 3.9
4/19/2022 2:30:00 AM 10.15 50.27 0.206 7.69 2.65 4.04
4/19/2022 2:45:00 AM 10.15 50.27 0.206 7.68 2.81 3.98
4/19/2022 3:00:00 AM 10.15 50.27 0.205 7.66 2.63 3.99
4/19/2022 3:15:00 AM 10.15 50.27 0.125 7.67 2.64 4.06
4/19/2022 3:30:00 AM 10.15 50.27 0.084 7.66 2.61 4.03
4/19/2022 3:45:00 AM 10.15 50.27 0.206 7.65 2.45 4.09
4/19/2022 4:00:00 AM 10.15 50.27 0.206 7.66 2.55 4.09
4/19/2022 4:15:00 AM 10.15 50.27 0.206 7.64 2.51 4.07
4/19/2022 4:30:00 AM 10.15 50.27 0.205 7.64 2.3 4.03
4/19/2022 4:45:00 AM 10.15 50.27 0.103 7.65 2.46 4.03
4/19/2022 5:00:00 AM 10.15 50.27 0.203 7.66 2.44 4.09
4/19/2022 5:15:00 AM 10.15 50.27 0.206 7.64 2.47 4.13
4/19/2022 5:30:00 AM 10.15 50.27 0.206 7.66 2.49 4.16
4/19/2022 5:45:00 AM 10.15 50.27 0.073 7.66 2.4 4.14
4/19/2022 6:00:00 AM 10.15 50.27 0.206 7.67 2.37 4.18
4/19/2022 6:15:00 AM 9.89 49.802 0.206 7.57 6.39 4.34
4/19/2022 6:30:00 AM 8.59 47.462 0.087 7.8 6.36 5.23
4/19/2022 6:45:00 AM 8.41 47.138 0.078 7.84 5.54 4.94
4/19/2022 7:00:00 AM 8.38 47.084 0.201 7.84 6.1 4.85
4/19/2022 7:15:00 AM 8.37 47.066 0.2 7.85 6.53 4.84
4/19/2022 7:30:00 AM 8.37 47.066 0.2 7.85 6.12 4.81
4/19/2022 7:45:00 AM 8.38 47.084 0.199 7.86 5.68 4.85
4/19/2022 8:00:00 AM 8.39 47.102 0.2 7.84 6.05 5.04
4/19/2022 8:15:00 AM 8.4 47.12 0.199 7.85 6.38 5.05
4/19/2022 8:30:00 AM 8.42 47.156 0.199 7.85 6.25 5.02
4/19/2022 8:45:00 AM 8.44 47.192 0.198 7.85 6.23 5.04
4/19/2022 9:00:00 AM 8.45 47.21 0.198 7.85 6.4 5.06
4/19/2022 9:15:00 AM 8.47 47.246 0.198 7.84 6.56 5.08
4/19/2022 9:30:00 AM 8.47 47.246 0.082 7.84 6.33 5.1
4/19/2022 9:45:00 AM 8.47 47.246 0.122 7.84 6.63 5.14
4/19/2022 10:00:00 AM 8.47 47.246 0.198 7.84 5.81 5.19
4/19/2022 10:15:00 AM 8.47 47.246 0.198 7.85 6.72 5.22
4/19/2022 10:30:00 AM 8.47 47.246 0.063 7.85 6.95 5.3
4/19/2022 10:45:00 AM 8.47 47.246 0.196 7.85 6.94 5.29
4/19/2022 11:00:00 AM 8.48 47.264 0.199 7.85 6.36 5.33
4/19/2022 11:15:00 AM 8.48 47.264 0.199 7.85 8.05 5.31
4/19/2022 11:30:00 AM 8.52 47.336 0.199 7.85 7.78 5.29
4/19/2022 11:45:00 AM 8.55 47.39 0.189 7.86 8.01 5.24
4/19/2022 12:00:00 PM 8.58 47.444 0.094 7.85 7.38 5.24
4/19/2022 12:15:00 PM 8.6 47.48 0.199 7.85 6.77 5.27
4/19/2022 12:30:00 PM 8.63 47.534 0.2 7.86 7.89 5.32
4/19/2022 12:45:00 PM 8.61 47.498 0.2 7.85 7.77 5.33
4/19/2022 1:00:00 PM 8.6 47.48 0.2 7.86 8.49 5.34
4/19/2022 1:15:00 PM 8.62 47.516 0.199 7.85 8.95 5.4
4/19/2022 1:30:00 PM 8.64 47.552 0.199 7.86 8.79 5.44
4/19/2022 1:45:00 PM 8.63 47.534 0.197 7.85 9.22 5.53
4/19/2022 2:00:00 PM 8.63 47.534 0.198 7.85 9.87 5.53
4/19/2022 2:15:00 PM 8.63 47.534 0.079 7.84 7.44 5.6
4/19/2022 2:30:00 PM 8.63 47.534 0.198 7.83 7.61 5.6
4/19/2022 2:45:00 PM 8.63 47.534 0.198 7.85 6.92 5.7
4/19/2022 3:00:00 PM 8.63 47.534 0.198 7.85 6.74 5.71
4/19/2022 3:15:00 PM 8.63 47.534 0.197 7.85 5.95 5.72
4/19/2022 3:30:00 PM 8.64 47.552 0.198 7.85 6.55 5.75
4/19/2022 3:45:00 PM 8.64 47.552 0.19 7.85 6.67 5.81
4/19/2022 4:00:00 PM 8.64 47.552 0.197 7.83 6.14 5.87
4/19/2022 4:15:00 PM 8.64 47.552 0.199 7.8 6.27 5.93
4/19/2022 4:30:00 PM 8.65 47.57 0.195 7.72 5.85 5.95
4/19/2022 4:45:00 PM 8.65 47.57 0.191 7.68 5.78 5.94
4/19/2022 5:00:00 PM 8.65 47.57 0.2 7.66 5.46 5.93
4/19/2022 5:15:00 PM 8.65 47.57 0.156 7.65 5.07 5.78
4/19/2022 5:30:00 PM 8.65 47.57 0.2 7.62 4.9 5.84
4/19/2022 5:45:00 PM 8.65 47.57 0.2 7.64 5.17 5.83
4/19/2022 6:00:00 PM 8.65 47.57 0.199 7.64 5.25 5.85
4/19/2022 6:15:00 PM 8.66 47.588 0.2 7.64 5.26 5.9
4/19/2022 6:30:00 PM 8.66 47.588 0.2 7.63 5.12 5.86
4/19/2022 6:45:00 PM 8.66 47.588 0.2 7.65 5.03 5.9
4/19/2022 7:00:00 PM 8.66 47.588 0.198 7.65 4.92 5.89
4/19/2022 7:15:00 PM 8.66 47.588 0.2 7.66 4.42 5.9
4/19/2022 7:30:00 PM 8.66 47.588 0.077 7.65 4.73 5.92
4/19/2022 7:45:00 PM 8.67 47.606 0.2 7.66 5.04 5.95
4/19/2022 8:00:00 PM 8.67 47.606 0.2 7.65 4.58 5.97
4/19/2022 8:15:00 PM 8.67 47.606 0.2 7.66 4.89 6.04
4/19/2022 8:30:00 PM 8.67 47.606 0.2 7.67 4.5 6.03
4/19/2022 8:45:00 PM 8.68 47.624 0.091 7.66 4.82 6.05
4/19/2022 9:00:00 PM 8.68 47.624 0.2 7.66 4.23 6.07
4/19/2022 9:15:00 PM 8.68 47.624 0.2 7.65 4.69 6.06
4/19/2022 9:30:00 PM 8.68 47.624 0.185 7.66 4.49 6.09
4/19/2022 9:45:00 PM 8.69 47.642 0.201 7.66 4.53 6.06
4/19/2022 10:00:00 PM 8.69 47.642 0.2 7.58 4.55 6.09
4/19/2022 10:15:00 PM 8.69 47.642 0.192 7.64 4.4 6.15
4/19/2022 10:30:00 PM 8.7 47.66 0.2 7.65 5.7 6.15
4/19/2022 10:45:00 PM 8.7 47.66 0.2 7.64 4.37 6.14
4/19/2022 11:00:00 PM 8.7 47.66 0.201 7.65 4.38 6.14
4/19/2022 11:15:00 PM 8.71 47.678 0.074 7.63 4.35 6.12
4/19/2022 11:30:00 PM 8.71 47.678 0.201 7.65 4.62 6.17
4/19/2022 11:45:00 PM 8.71 47.678 0.201 7.62 4.28 6.16
4/20/2022 12:00:00 AM 8.72 47.696 0.114 7.64 4.07 6.17
4/20/2022 12:15:00 AM 8.72 47.696 0.201 7.64 3.87 6.18
4/20/2022 12:30:00 AM 8.72 47.696 0.197 7.61 4.18 6.2
4/20/2022 12:45:00 AM 8.73 47.714 0.2 7.62 4.32 6.17
4/20/2022 1:00:00 AM 8.73 47.714 0.201 7.63 4.27 6.19
4/20/2022 1:15:00 AM 8.73 47.714 0.201 7.63 4.18 6.17
4/20/2022 1:30:00 AM 8.74 47.732 0.191 7.64 3.81 6.17
4/20/2022 1:45:00 AM 8.74 47.732 0.201 7.63 4.13 6.19
4/20/2022 2:00:00 AM 8.74 47.732 0.2 7.62 4.32 6.23
4/20/2022 2:15:00 AM 8.74 47.732 0.201 7.62 3.81 6.23
4/20/2022 2:30:00 AM 8.75 47.75 0.193 7.63 4.14 6.26
4/20/2022 2:45:00 AM 8.75 47.75 0.201 7.63 4.28 6.27
4/20/2022 3:00:00 AM 8.75 47.75 0.2 7.62 4.21 6.28
4/20/2022 3:15:00 AM 8.75 47.75 0.194 7.57 3.98 6.29
4/20/2022 3:30:00 AM 8.75 47.75 0.09 7.61 4.38 6.09
4/20/2022 3:45:00 AM 8.75 47.75 0.105 7.6 4.14 6.13
4/20/2022 4:00:00 AM 8.76 47.768 0.2 7.6 4.34 6.17
4/20/2022 4:15:00 AM 8.76 47.768 0.066 7.61 4.27 6.18
4/20/2022 4:30:00 AM 8.76 47.768 0.201 7.61 4.26 6.19
4/20/2022 4:45:00 AM 8.76 47.768 0.201 7.59 4.36 6.23
4/20/2022 5:00:00 AM 8.76 47.768 0.201 7.61 4.75 6.25
4/20/2022 5:15:00 AM 8.76 47.768 0.201 7.61 4.38 6.24
4/20/2022 5:30:00 AM 8.76 47.768 0.201 7.61 4.59 6.24
4/20/2022 5:45:00 AM 8.76 47.768 0.201 7.61 4.07 6.23
4/20/2022 6:00:00 AM 7.76 45.968 0.197 7.74 25.88 6.75
4/20/2022 6:15:00 AM 7.23 45.014 0.175 7.74 8.99 6.96
4/20/2022 6:30:00 AM 7.14 44.852 0.198 7.74 8.83 6.93
4/20/2022 6:45:00 AM 7.11 44.798 0.193 7.76 8.96 6.85
4/20/2022 7:00:00 AM 7.09 44.762 0.199 7.75 9 6.86
4/20/2022 7:15:00 AM 7.07 44.726 0.198 7.75 7.97 6.82
4/20/2022 7:30:00 AM 7.06 44.708 0.188 7.75 8.61 6.8
4/20/2022 7:45:00 AM 7.06 44.708 0.183 7.75 6.98 6.83
4/20/2022 8:00:00 AM 7.06 44.708 0.199 7.74 8.39 6.77
4/20/2022 8:15:00 AM 7.06 44.708 0.199 7.75 8.4 6.8
4/20/2022 8:30:00 AM 7.07 44.726 0.199 7.74 7.76 6.81
4/20/2022 8:45:00 AM 7.09 44.762 0.199 7.74 7.55 6.85
4/20/2022 9:00:00 AM 7.11 44.798 0.065 7.75 7.47 6.84
4/20/2022 9:15:00 AM 7.14 44.852 0.109 7.75 7.77 6.87
4/20/2022 9:30:00 AM 7.17 44.906 0.199 7.74 8.07 6.83
4/20/2022 9:45:00 AM 7.2 44.96 0.078 7.76 7.9 6.86
4/20/2022 10:00:00 AM 7.24 45.032 0.198 7.75 7.98 6.89
4/20/2022 10:15:00 AM 7.27 45.086 0.199 7.74 20.88 6.92
4/20/2022 10:30:00 AM 7.29 45.122 0.199 7.74 11.76 6.95
4/20/2022 10:45:00 AM 7.33 45.194 0.194 7.76 8.96 6.96
4/20/2022 11:00:00 AM 7.38 45.284 0.197 7.76 8.26 6.94
4/20/2022 11:15:00 AM 7.42 45.356 0.193 7.76 6.5 6.94
4/20/2022 11:30:00 AM 7.48 45.464 0.195 7.76 7.57 6.75
4/20/2022 11:45:00 AM 7.53 45.554 0.199 7.76 6.68 6.77
4/20/2022 12:00:00 PM 7.58 45.644 0.199 7.76 6.14 6.72
4/20/2022 12:15:00 PM 7.63 45.734 0.199 7.77 6.64 6.81
4/20/2022 12:30:00 PM 7.69 45.842 0.198 7.77 6.63 6.77
4/20/2022 12:45:00 PM 7.74 45.932 0.199 7.78 5.54 6.77
4/20/2022 1:00:00 PM 7.79 46.022 0.199 7.78 6.22 6.79
4/20/2022 1:15:00 PM 7.84 46.112 0.199 7.78 5.73 6.73
4/20/2022 1:30:00 PM 7.88 46.184 0.199 7.79 5.51 6.81
4/20/2022 1:45:00 PM 7.92 46.256 0.199 7.79 5.22 6.78
4/20/2022 2:00:00 PM 7.97 46.346 0.199 7.79 6.33 6.76
4/20/2022 2:15:00 PM 8 46.4 0.191 7.8 5.31 6.78
4/20/2022 2:30:00 PM 8 46.4 0.199 7.79 4.77 6.85
4/20/2022 2:45:00 PM 8.01 46.418 0.199 7.8 4.39 6.82
4/20/2022 3:00:00 PM 8.01 46.418 0.138 7.79 4.27 6.87
4/20/2022 3:15:00 PM 8.01 46.418 0.199 7.79 4.67 6.85
4/20/2022 3:30:00 PM 8.01 46.418 0.199 7.77 4.68 6.91
4/20/2022 3:45:00 PM 8.01 46.418 0.2 7.79 4 6.9
4/20/2022 4:00:00 PM 8.01 46.418 0.151 7.78 4.11 6.91
4/20/2022 4:15:00 PM 8.01 46.418 0.2 7.79 4.64 6.69
4/20/2022 4:30:00 PM 8.01 46.418 0.192 7.8 4.13 6.78
4/20/2022 4:45:00 PM 8.01 46.418 0.199 7.78 4.17 6.79
4/20/2022 5:00:00 PM 8.01 46.418 0.2 7.77 4.52 6.85
4/20/2022 5:15:00 PM 8.01 46.418 0.2 7.78 3.98 6.82
4/20/2022 5:30:00 PM 8.01 46.418 0.199 7.78 3.87 6.85
4/20/2022 5:45:00 PM 8.01 46.418 0.199 7.78 4.28 6.81
4/20/2022 6:00:00 PM 8.01 46.418 0.199 7.79 3.9 6.81
4/20/2022 6:15:00 PM 8.01 46.418 0.073 7.79 4.11 6.81
4/20/2022 6:30:00 PM 8.01 46.418 0.198 7.76 3.96 6.82
4/20/2022 6:45:00 PM 8.01 46.418 0.082 7.77 3.95 6.84
4/20/2022 7:00:00 PM 8.01 46.418 0.195 7.76 3.59 6.86
4/20/2022 7:15:00 PM 8.01 46.418 0.162 7.77 3.57 6.87
4/20/2022 7:30:00 PM 8.01 46.418 0.125 7.77 3.62 6.92
4/20/2022 7:45:00 PM 8.01 46.418 0.2 7.75 3.79 6.9
4/20/2022 8:00:00 PM 8 46.4 0.199 7.74 3.66 6.92
4/20/2022 8:15:00 PM 8 46.4 0.2 7.75 3.63 6.91
4/20/2022 8:30:00 PM 8 46.4 0.2 7.75 3.83 6.92
4/20/2022 8:45:00 PM 8 46.4 0.196 7.73 3.8 6.97
4/20/2022 9:00:00 PM 8 46.4 0.2 7.7 3.65 6.89
4/20/2022 9:15:00 PM 8.01 46.418 0.2 7.71 3.51 6.98
4/20/2022 9:30:00 PM 8.01 46.418 0.2 7.71 3.77 7
4/20/2022 9:45:00 PM 8.01 46.418 0.201 7.7 3.29 6.94
4/20/2022 10:00:00 PM 8.01 46.418 0.076 7.69 3.44 6.97
4/20/2022 10:15:00 PM 8.01 46.418 0.201 7.69 3.67 6.98
4/20/2022 10:30:00 PM 8.01 46.418 0.201 7.69 3.58 6.97
4/20/2022 10:45:00 PM 8.01 46.418 0.201 7.69 3.55 7.06
4/20/2022 11:00:00 PM 8.01 46.418 0.201 7.67 3.64 7.06
4/20/2022 11:15:00 PM 8.01 46.418 0.201 7.66 3.53 7.1
4/20/2022 11:30:00 PM 8.01 46.418 0.197 7.66 3.45 7.08
4/20/2022 11:45:00 PM 8 46.4 0.199 7.67 3.29 7.09
4/21/2022 12:00:00 AM 8.01 46.418 0.183 7.67 3.39 7.08
4/21/2022 12:15:00 AM 8.01 46.418 0.12 7.65 3.41 7.07
4/21/2022 12:30:00 AM 8.01 46.418 0.202 7.66 3.11 7.09
4/21/2022 12:45:00 AM 8.01 46.418 0.201 7.65 3.42 7.11
4/21/2022 1:00:00 AM 8.01 46.418 0.201 7.65 3.63 7.09
4/21/2022 1:15:00 AM 8.01 46.418 0.202 7.65 3.5 7.1
4/21/2022 1:30:00 AM 8.01 46.418 0.202 7.64 3.09 7.18
4/21/2022 1:45:00 AM 8.01 46.418 0.063 7.66 3.24 7.11
4/21/2022 2:00:00 AM 8.01 46.418 0.202 7.66 3.15 7.1
4/21/2022 2:15:00 AM 8.01 46.418 0.202 7.65 3.26 7.1
4/21/2022 2:30:00 AM 8.01 46.418 0.202 7.65 3.26 7.07
4/21/2022 2:45:00 AM 8.01 46.418 0.202 7.64 3.26 7.07
4/21/2022 3:00:00 AM 8.01 46.418 0.202 7.64 3.14 7.06
4/21/2022 3:15:00 AM 8.02 46.436 0.202 7.63 3.18 7.03
4/21/2022 3:30:00 AM 8.02 46.436 0.126 7.64 3.02 6.98
4/21/2022 3:45:00 AM 8.02 46.436 0.202 7.63 3.1 6.99
4/21/2022 4:00:00 AM 8.02 46.436 0.176 7.65 3.15 6.85
4/21/2022 4:15:00 AM 8.03 46.454 0.105 7.63 3.3 6.79
4/21/2022 4:30:00 AM 8.04 46.472 0.194 7.63 3.14 6.83
4/21/2022 4:45:00 AM 8.04 46.472 0.202 7.62 3.21 6.96
4/21/2022 5:00:00 AM 8.04 46.472 0.166 7.6 3.06 7
4/21/2022 5:15:00 AM 8.05 46.49 0.202 7.64 3.15 6.94
4/21/2022 5:30:00 AM 8.05 46.49 0.078 7.63 3.19 7
4/21/2022 5:45:00 AM 8.06 46.508 0.202 7.62 3.2 6.96
4/21/2022 6:00:00 AM 8.08 46.544 0.198 7.67 4.78 7.12
4/21/2022 6:15:00 AM 8.08 46.544 0.196 7.72 5.87 7.26
4/21/2022 6:30:00 AM 8.07 46.526 0.193 7.76 5.58 7.27
4/21/2022 6:45:00 AM 8.03 46.454 0.175 7.78 5.51 7.42
4/21/2022 7:00:00 AM 8.03 46.454 0.191 7.78 5.19 7.43
4/21/2022 7:15:00 AM 8.02 46.436 0.19 7.78 4.76 7.43
4/21/2022 7:30:00 AM 8.02 46.436 0.19 7.76 5.42 7.49
4/21/2022 7:45:00 AM 8.03 46.454 0.189 7.77 4.57 7.44
4/21/2022 8:00:00 AM 8.04 46.472 0.189 7.78 4.95 7.46
4/21/2022 8:15:00 AM 8.05 46.49 0.19 7.78 4.44 7.42
4/21/2022 8:30:00 AM 8.06 46.508 0.19 7.79 4.92 7.56
4/21/2022 8:45:00 AM 8.09 46.562 0.19 7.79 4.74 7.53
4/21/2022 9:00:00 AM 8.11 46.598 0.19 7.8 5.12 7.57
4/21/2022 9:15:00 AM 8.14 46.652 0.19 7.8 4.8 7.58
4/21/2022 9:30:00 AM 8.18 46.724 0.19 7.79 4.97 7.57
4/21/2022 9:45:00 AM 8.21 46.778 0.19 7.79 4.91 7.54
4/21/2022 10:00:00 AM 8.25 46.85 0.19 7.8 4.33 7.54
4/21/2022 10:15:00 AM 8.29 46.922 0.19 7.8 4.66 7.54
4/21/2022 10:30:00 AM 8.33 46.994 0.19 7.79 4.85 7.55
4/21/2022 10:45:00 AM 8.37 47.066 0.19 7.81 4.73 7.55
4/21/2022 11:00:00 AM 8.4 47.12 0.19 7.81 4.85 7.56
4/21/2022 11:15:00 AM 8.45 47.21 0.182 7.81 4.74 7.56
4/21/2022 11:30:00 AM 8.5 47.3 0.19 7.8 4.93 7.54
4/21/2022 11:45:00 AM 8.53 47.354 0.19 7.81 4.91 7.54
4/21/2022 12:00:00 PM 8.56 47.408 0.191 7.81 4.99 7.54
4/21/2022 12:15:00 PM 8.58 47.444 0.191 7.81 4.26 7.55
4/21/2022 12:30:00 PM 8.6 47.48 0.191 7.83 4.91 7.54
4/21/2022 12:45:00 PM 8.62 47.516 0.188 7.83 5.06 7.56
4/21/2022 1:00:00 PM 8.64 47.552 0.191 7.81 5.15 7.57
4/21/2022 1:15:00 PM 8.65 47.57 0.19 7.8 4.38 7.55
4/21/2022 1:30:00 PM 8.65 47.57 0.191 7.81 4.13 7.56
4/21/2022 1:45:00 PM 8.66 47.588 0.188 7.83 3.7 7.51
4/21/2022 2:00:00 PM 8.66 47.588 0.192 7.82 3.89 7.54
4/21/2022 2:15:00 PM 8.66 47.588 0.191 7.82 3.8 7.51
4/21/2022 2:30:00 PM 8.66 47.588 0.183 7.81 3.66 7.51
4/21/2022 2:45:00 PM 8.66 47.588 0.191 7.82 3 7.52
4/21/2022 3:00:00 PM 8.66 47.588 0.105 7.78 3.38 7.53
4/21/2022 3:15:00 PM 8.66 47.588 0.192 7.81 3.49 7.55
4/21/2022 3:30:00 PM 8.66 47.588 0.192 7.82 3.29 7.51
4/21/2022 3:45:00 PM 8.66 47.588 0.079 7.83 3.45 7.49
4/21/2022 4:00:00 PM 8.66 47.588 0.192 7.81 3.45 7.49
4/21/2022 4:15:00 PM 8.66 47.588 0.192 7.81 3.23 7.5
4/21/2022 4:30:00 PM 8.66 47.588 0.191 7.81 3.41 7.51
4/21/2022 4:45:00 PM 8.65 47.57 0.192 7.8 3.43 7.54
4/21/2022 5:00:00 PM 8.65 47.57 0.191 7.8 3.21 7.55
4/21/2022 5:15:00 PM 8.65 47.57 0.192 7.8 3.19 7.53
4/21/2022 5:30:00 PM 8.65 47.57 0.193 7.81 3.26 7.58
4/21/2022 5:45:00 PM 8.65 47.57 0.186 7.78 3.49 7.55
4/21/2022 6:00:00 PM 8.65 47.57 0.179 7.79 3.18 7.54
4/21/2022 6:15:00 PM 8.65 47.57 0.193 7.8 3.18 7.54
4/21/2022 6:30:00 PM 8.65 47.57 0.193 7.79 3.16 7.54
4/21/2022 6:45:00 PM 8.65 47.57 0.158 7.78 3.22 7.55
4/21/2022 7:00:00 PM 8.65 47.57 0.193 7.77 3.13 7.53
4/21/2022 7:15:00 PM 8.65 47.57 0.193 7.77 3.25 7.51
4/21/2022 7:30:00 PM 8.65 47.57 0.193 7.74 3.18 7.5
4/21/2022 7:45:00 PM 8.65 47.57 0.193 7.74 3.22 7.49
4/21/2022 8:00:00 PM 8.65 47.57 0.191 7.73 3.24 7.51
4/21/2022 8:15:00 PM 8.65 47.57 0.12 7.66 3.26 7.52
4/21/2022 8:30:00 PM 8.65 47.57 0.193 7.72 3.01 7.5
4/21/2022 8:45:00 PM 8.64 47.552 0.193 7.74 3.3 7.51
4/21/2022 9:00:00 PM 8.64 47.552 0.193 7.75 3.42 7.51
4/21/2022 9:15:00 PM 8.64 47.552 0.194 7.75 3.33 7.49
4/21/2022 9:30:00 PM 8.65 47.57 0.194 7.73 3.15 7.48
4/21/2022 9:45:00 PM 8.64 47.552 0.194 7.73 2.94 7.51
4/21/2022 10:00:00 PM 8.64 47.552 0.194 7.74 3.17 7.51
4/21/2022 10:15:00 PM 8.64 47.552 0.189 7.72 3.09 7.48
4/21/2022 10:30:00 PM 8.65 47.57 0.194 7.7 3.07 7.47
4/21/2022 10:45:00 PM 8.65 47.57 0.094 7.72 3.17 7.48
4/21/2022 11:00:00 PM 8.65 47.57 0.194 7.7 3.2 7.48
4/21/2022 11:15:00 PM 8.65 47.57 0.194 7.72 3.21 7.5
4/21/2022 11:30:00 PM 8.65 47.57 0.194 7.7 3.14 7.5
4/21/2022 11:45:00 PM 8.65 47.57 0.194 7.71 3.52 7.49
4/22/2022 12:00:00 AM 8.65 47.57 0.193 7.71 3.27 7.52
4/22/2022 12:15:00 AM 8.65 47.57 0.194 7.67 3.12 7.5
4/22/2022 12:30:00 AM 8.65 47.57 0.194 7.69 2.9 7.44
4/22/2022 12:45:00 AM 8.65 47.57 0.193 7.67 3.1 7.38
4/22/2022 1:00:00 AM 8.66 47.588 0.194 7.7 2.94 7.38
4/22/2022 1:15:00 AM 8.66 47.588 0.194 7.68 3.03 7.4
4/22/2022 1:30:00 AM 8.66 47.588 0.122 7.7 3.02 7.42
4/22/2022 1:45:00 AM 8.66 47.588 0.194 7.67 3.02 7.41
4/22/2022 2:00:00 AM 8.66 47.588 0.194 7.68 3.19 7.42
4/22/2022 2:15:00 AM 8.66 47.588 0.191 7.68 2.99 7.41
4/22/2022 2:30:00 AM 8.66 47.588 0.194 7.67 3.1 7.41
4/22/2022 2:45:00 AM 8.66 47.588 0.195 7.66 3.18 7.42
4/22/2022 3:00:00 AM 8.66 47.588 0.195 7.66 2.98 7.42
4/22/2022 3:15:00 AM 8.66 47.588 0.194 7.65 3.05 7.41
4/22/2022 3:30:00 AM 8.67 47.606 0.195 7.65 3.01 7.43
4/22/2022 3:45:00 AM 8.67 47.606 0.195 7.65 2.87 7.42
4/22/2022 4:00:00 AM 8.67 47.606 0.106 7.64 2.94 7.43
4/22/2022 4:15:00 AM 8.67 47.606 0.194 7.65 2.92 7.44
4/22/2022 4:30:00 AM 8.67 47.606 0.194 7.65 2.54 7.45
4/22/2022 4:45:00 AM 8.67 47.606 0.083 7.65 2.88 7.43
4/22/2022 5:00:00 AM 8.67 47.606 0.195 7.65 2.83 7.44
4/22/2022 5:15:00 AM 8.67 47.606 0.078 7.63 2.96 7.45
4/22/2022 5:30:00 AM 8.67 47.606 0.195 7.64 2.91 7.45
4/22/2022 5:45:00 AM 8.67 47.606 0.195 7.61 3.17 7.46
4/22/2022 6:00:00 AM 8.66 47.588 0.193 7.66 3.62 7.45
4/22/2022 6:15:00 AM 8.37 47.066 0.18 7.77 7.96 7.68
4/22/2022 6:30:00 AM 8.24 46.832 0.184 7.77 7.8 7.76
4/22/2022 6:45:00 AM 8.17 46.706 0.184 7.76 7.2 7.79
4/22/2022 7:00:00 AM 8.13 46.634 0.181 7.79 6.99 7.8
4/22/2022 7:15:00 AM 8.12 46.616 0.184 7.78 7.72 7.83
4/22/2022 7:30:00 AM 8.11 46.598 0.184 7.78 7.52 7.83
4/22/2022 7:45:00 AM 8.1 46.58 0.077 7.78 7.56 7.82
4/22/2022 8:00:00 AM 8.1 46.58 0.184 7.78 7.3 7.83
4/22/2022 8:15:00 AM 8.11 46.598 0.184 7.76 6.41 7.84
4/22/2022 8:30:00 AM 8.12 46.616 0.18 7.78 7.03 7.81
4/22/2022 8:45:00 AM 8.13 46.634 0.185 7.8 7.51 7.8
4/22/2022 9:00:00 AM 8.15 46.67 0.186 7.79 7.43 7.78
4/22/2022 9:15:00 AM 8.17 46.706 0.186 7.79 6.77 7.8
4/22/2022 9:30:00 AM 8.2 46.76 0.092 7.78 7.57 7.79
4/22/2022 9:45:00 AM 8.23 46.814 0.154 7.78 7.58 7.81
4/22/2022 10:00:00 AM 8.26 46.868 0.187 7.77 7.8 7.8
4/22/2022 10:15:00 AM 8.31 46.958 0.083 7.78 7.48 7.79
4/22/2022 10:30:00 AM 8.35 47.03 0.184 7.8 7.72 7.79
4/22/2022 10:45:00 AM 8.4 47.12 0.148 7.78 7.05 7.78
4/22/2022 11:00:00 AM 8.44 47.192 0.188 7.79 7.32 7.77
4/22/2022 11:15:00 AM 8.5 47.3 0.182 7.79 7.7 7.77
4/22/2022 11:30:00 AM 8.55 47.39 0.187 7.79 7.86 7.76
4/22/2022 11:45:00 AM 8.6 47.48 0.161 7.8 7.18 7.75
4/22/2022 12:00:00 PM 8.66 47.588 0.188 7.8 7.27 7.74
4/22/2022 12:15:00 PM 8.72 47.696 0.188 7.79 7.2 7.64
4/22/2022 12:30:00 PM 8.78 47.804 0.188 7.8 7.88 7.36
4/22/2022 12:45:00 PM 8.83 47.894 0.187 7.8 8.48 7.3
4/22/2022 1:00:00 PM 8.89 48.002 0.188 7.79 8.16 7.1
4/22/2022 1:15:00 PM 8.94 48.092 0.187 7.8 7.46 7.14
4/22/2022 1:30:00 PM 8.99 48.182 0.075 7.81 8.19 7.13
4/22/2022 1:45:00 PM 9.02 48.236 0.188 7.81 7.83 7.13
4/22/2022 2:00:00 PM 9.03 48.254 0.188 7.78 6.48 7.16
4/22/2022 2:15:00 PM 9.03 48.254 0.188 7.79 6.2 7.17
4/22/2022 2:30:00 PM 9.02 48.236 0.188 7.82 6.04 7.18
4/22/2022 2:45:00 PM 9.02 48.236 0.145 7.8 5.74 7.18
4/22/2022 3:00:00 PM 9.02 48.236 0.083 7.79 5.58 7.17
4/22/2022 3:15:00 PM 9.02 48.236 0.187 7.79 5.43 7.18
4/22/2022 3:30:00 PM 9.02 48.236 0.188 7.8 4.92 7.16
4/22/2022 3:45:00 PM 9.01 48.218 0.188 7.79 5.2 7.06
4/22/2022 4:00:00 PM 9.01 48.218 0.187 7.79 4.64 5.24
4/22/2022 4:15:00 PM 9.01 48.218 0.187 7.8 4.96 4.26
4/22/2022 4:30:00 PM 9.01 48.218 0.187 7.8 4.97 4.25
4/22/2022 4:45:00 PM 9 48.2 0.187 7.78 4.73 4.34
4/22/2022 5:00:00 PM 8.99 48.182 0.187 7.78 4.29 4.38
4/22/2022 5:15:00 PM 8.99 48.182 0.188 7.77 4.93 4.4
4/22/2022 5:30:00 PM 8.98 48.164 0.072 7.78 4.58 4.41
4/22/2022 5:45:00 PM 8.98 48.164 0.188 7.77 5.21 4.33
4/22/2022 6:00:00 PM 8.97 48.146 0.183 7.76 4.68 4.32
4/22/2022 6:15:00 PM 8.97 48.146 0.182 7.76 5.1 4.38
4/22/2022 6:30:00 PM 8.97 48.146 0.189 7.74 4.72 4.39
4/22/2022 6:45:00 PM 8.96 48.128 0.189 7.74 6.08 4.37
4/22/2022 7:00:00 PM 8.96 48.128 0.187 7.74 4.26 4.36
4/22/2022 7:15:00 PM 8.96 48.128 0.189 7.72 4.67 4.34
4/22/2022 7:30:00 PM 8.96 48.128 0.176 7.73 4.4 4.32
4/22/2022 7:45:00 PM 8.95 48.11 0.189 7.7 4.75 4.34
4/22/2022 8:00:00 PM 8.95 48.11 0.189 7.7 4.58 4.34
4/22/2022 8:15:00 PM 8.95 48.11 0.19 7.69 3.73 4.36
4/22/2022 8:30:00 PM 8.95 48.11 0.19 7.7 4.45 4.3
4/22/2022 8:45:00 PM 8.95 48.11 0.19 7.69 4.09 4.23
4/22/2022 9:00:00 PM 8.94 48.092 0.074 7.68 5.22 4.14
4/22/2022 9:15:00 PM 8.94 48.092 0.189 7.68 4.5 4.03
4/22/2022 9:30:00 PM 8.94 48.092 0.19 7.67 4.37 4.03
4/22/2022 9:45:00 PM 8.94 48.092 0.19 7.68 4.79 3.84
4/22/2022 10:00:00 PM 8.94 48.092 0.159 7.65 4.44 3.81
4/22/2022 10:15:00 PM 8.93 48.074 0.105 7.65 4.47 3.79
4/22/2022 10:30:00 PM 8.93 48.074 0.188 7.63 4.19 3.85
4/22/2022 10:45:00 PM 8.93 48.074 0.191 7.66 4.71 3.9
4/22/2022 11:00:00 PM 8.93 48.074 0.183 7.65 4.18 3.89
4/22/2022 11:15:00 PM 8.93 48.074 0.067 7.64 4.1 3.95
4/22/2022 11:30:00 PM 8.93 48.074 0.189 7.62 4.31 4.06
4/22/2022 11:45:00 PM 8.93 48.074 0.189 7.64 4.45 4.02
4/23/2022 12:00:00 AM 8.93 48.074 0.125 7.63 3.9 4.28
4/23/2022 12:15:00 AM 8.93 48.074 0.191 7.62 6.01 4.3
4/23/2022 12:30:00 AM 8.93 48.074 0.19 7.63 4.37 4.28
4/23/2022 12:45:00 AM 8.93 48.074 0.191 7.63 4.53 4.34
4/23/2022 1:00:00 AM 8.92 48.056 0.116 7.62 4.21 4.38
4/23/2022 1:15:00 AM 8.93 48.074 0.191 7.64 3.86 4.38
4/23/2022 1:30:00 AM 8.92 48.056 0.191 7.63 4.3 4.39
4/23/2022 1:45:00 AM 8.92 48.056 0.191 7.62 4.11 4.44
4/23/2022 2:00:00 AM 8.92 48.056 0.126 7.62 3.68 4.46
4/23/2022 2:15:00 AM 8.92 48.056 0.191 7.61 4.82 4.46
4/23/2022 2:30:00 AM 8.92 48.056 0.191 7.62 4.08 4.46
4/23/2022 2:45:00 AM 8.92 48.056 0.191 7.62 4.53 4.46
4/23/2022 3:00:00 AM 8.92 48.056 0.156 7.63 4.2 4.54
4/23/2022 3:15:00 AM 8.93 48.074 0.191 7.62 4.48 4.56
4/23/2022 3:30:00 AM 8.92 48.056 0.191 7.6 4.04 4.57
4/23/2022 3:45:00 AM 8.92 48.056 0.191 7.61 4.23 4.62
4/23/2022 4:00:00 AM 8.93 48.074 0.19 7.65 5.5 4.59
4/23/2022 4:15:00 AM 8.88 47.984 0.185 7.73 10.59 4.64
4/23/2022 4:30:00 AM 8.84 47.912 0.183 7.76 6.62 4.73
4/23/2022 4:45:00 AM 8.83 47.894 0.17 7.78 7.78 4.72
4/23/2022 5:00:00 AM 8.82 47.876 0.114 7.78 7.64 4.76
4/23/2022 5:15:00 AM 8.82 47.876 0.183 7.78 8.29 4.8
4/23/2022 5:30:00 AM 8.83 47.894 0.182 7.78 7.51 4.81
4/23/2022 5:45:00 AM 8.83 47.894 0.183 7.78 7.15 4.85
4/23/2022 6:00:00 AM 8.84 47.912 0.182 7.76 7.6 4.88
4/23/2022 6:15:00 AM 8.84 47.912 0.182 7.78 8.14 4.85
4/23/2022 6:30:00 AM 8.85 47.93 0.182 7.77 7.93 4.92
4/23/2022 6:45:00 AM 8.86 47.948 0.182 7.77 8.43 4.93
4/23/2022 7:00:00 AM 8.87 47.966 0.182 7.77 7.67 4.97
4/23/2022 7:15:00 AM 8.88 47.984 0.182 7.78 7.2 4.98
4/23/2022 7:30:00 AM 8.89 48.002 0.181 7.77 6.89 4.99
4/23/2022 7:45:00 AM 8.91 48.038 0.182 7.77 7.36 5.04
4/23/2022 8:00:00 AM 8.93 48.074 0.182 7.78 6.83 5.04
4/23/2022 8:15:00 AM 8.95 48.11 0.179 7.76 8.48 5.07
4/23/2022 8:30:00 AM 8.97 48.146 0.176 7.77 8.2 5.09
4/23/2022 8:45:00 AM 8.99 48.182 0.18 7.78 8.61 5.06
4/23/2022 9:00:00 AM 9 48.2 0.182 7.78 8.6 5.02
4/23/2022 9:15:00 AM 9.01 48.218 0.18 7.76 8.49 5.04
4/23/2022 9:30:00 AM 9.03 48.254 0.097 7.78 6.93 5.06
4/23/2022 9:45:00 AM 9.04 48.272 0.181 7.77 6.88 5.07
4/23/2022 10:00:00 AM 9.05 48.29 0.053 7.76 6.23 4.97
4/23/2022 10:15:00 AM 9.05 48.29 0.054 7.77 5.99 4.93
4/23/2022 10:30:00 AM 9.07 48.326 0.182 7.79 6.39 4.93
4/23/2022 10:45:00 AM 9.08 48.344 0.18 7.76 5.77 4.92
4/23/2022 11:00:00 AM 9.09 48.362 0.175 7.78 5 4.94
4/23/2022 11:15:00 AM 9.11 48.398 0.181 7.78 5.37 4.95
4/23/2022 11:30:00 AM 9.12 48.416 0.179 7.77 5.08 4.98
4/23/2022 11:45:00 AM 9.15 48.47 0.181 7.8 5.16 5
4/23/2022 12:00:00 PM 9.17 48.506 0.074 7.76 5.68 5
4/23/2022 12:15:00 PM 9.17 48.506 0.15 7.76 4.8 5.05
4/23/2022 12:30:00 PM 9.17 48.506 0.181 7.79 4.88 5.07
4/23/2022 12:45:00 PM 9.17 48.506 0.18 7.77 4.57 5.02
4/23/2022 1:00:00 PM 9.17 48.506 0.182 7.77 5.27 5.04
4/23/2022 1:15:00 PM 9.17 48.506 0.18 7.77 4.43 5.11
4/23/2022 1:30:00 PM 9.17 48.506 0.182 7.77 4.29 5.13
4/23/2022 1:45:00 PM 9.17 48.506 0.172 7.77 4.59 5.17
4/23/2022 2:00:00 PM 9.17 48.506 0.182 7.77 4.59 5.17
4/23/2022 2:15:00 PM 9.17 48.506 0.182 7.76 5.52 5.18
4/23/2022 2:30:00 PM 9.17 48.506 0.075 7.76 4.24 5.18
4/23/2022 2:45:00 PM 9.16 48.488 0.182 7.75 4.3 5.17
4/23/2022 3:00:00 PM 9.16 48.488 0.182 7.75 4.77 5.16
4/23/2022 3:15:00 PM 9.16 48.488 0.097 7.74 4.5 5.19
4/23/2022 3:30:00 PM 9.16 48.488 0.182 7.74 4.52 5.2
4/23/2022 3:45:00 PM 9.16 48.488 0.182 7.73 4.52 5.22
4/23/2022 4:00:00 PM 9.16 48.488 0.182 7.72 4.28 5.26
4/23/2022 4:15:00 PM 9.16 48.488 0.182 7.72 4.29 5.28
4/23/2022 4:30:00 PM 9.16 48.488 0.124 7.71 3.74 5.38
4/23/2022 4:45:00 PM 9.15 48.47 0.181 7.72 3.9 5.45
4/23/2022 5:00:00 PM 9.15 48.47 0.075 7.72 3.61 5.46
4/23/2022 5:15:00 PM 9.15 48.47 0.183 7.69 4.05 5.47
4/23/2022 5:30:00 PM 9.15 48.47 0.183 7.68 4.09 5.5
4/23/2022 5:45:00 PM 9.15 48.47 0.171 7.65 3.62 5.45
4/23/2022 6:00:00 PM 9.15 48.47 0.183 7.63 3.7 5.49
4/23/2022 6:15:00 PM 9.14 48.452 0.179 7.61 3.65 5.52
4/23/2022 6:30:00 PM 9.14 48.452 0.064 7.61 4.14 5.52
4/23/2022 6:45:00 PM 9.14 48.452 0.184 7.61 4.01 5.54
4/23/2022 7:00:00 PM 9.14 48.452 0.184 7.62 4.06 5.56
4/23/2022 7:15:00 PM 9.14 48.452 0.087 7.59 3.97 5.58
4/23/2022 7:30:00 PM 9.14 48.452 0.075 7.63 3.57 5.58
4/23/2022 7:45:00 PM 9.14 48.452 0.183 7.61 3.34 5.63
4/23/2022 8:00:00 PM 9.14 48.452 0.183 7.6 3.86 5.63
4/23/2022 8:15:00 PM 9.14 48.452 0.184 7.58 4.05 5.58
4/23/2022 8:30:00 PM 9.14 48.452 0.184 7.6 4.04 5.61
4/23/2022 8:45:00 PM 9.13 48.434 0.184 7.61 3.82 5.56
4/23/2022 9:00:00 PM 9.13 48.434 0.073 7.62 3.64 5.51
4/23/2022 9:15:00 PM 9.13 48.434 0.184 7.61 3.79 5.54
4/23/2022 9:30:00 PM 9.13 48.434 0.184 7.6 4.03 5.59
4/23/2022 9:45:00 PM 9.13 48.434 0.184 7.59 3.66 5.63
4/23/2022 10:00:00 PM 9.13 48.434 0.182 7.63 4.69 5.6
4/23/2022 10:15:00 PM 9.13 48.434 0.181 7.6 3.94 5.58
4/23/2022 10:30:00 PM 9.13 48.434 0.183 7.62 3.81 5.62
4/23/2022 10:45:00 PM 9.13 48.434 0.177 7.6 3.79 5.68
4/23/2022 11:00:00 PM 9.13 48.434 0.184 7.61 4.13 5.71
4/23/2022 11:15:00 PM 9.13 48.434 0.122 7.6 4.2 5.73
4/23/2022 11:30:00 PM 9.13 48.434 0.184 7.61 3.73 5.77
4/23/2022 11:45:00 PM 9.14 48.452 0.184 7.61 3.79 5.78
4/24/2022 12:00:00 AM 9.14 48.452 0.184 7.6 3.78 5.8
4/24/2022 12:15:00 AM 9.13 48.434 0.184 7.61 3.54 5.7
4/24/2022 12:30:00 AM 9.13 48.434 0.183 7.62 5.3 5.68
4/24/2022 12:45:00 AM 9.13 48.434 0.185 7.6 3.69 5.62
4/24/2022 1:00:00 AM 9.13 48.434 0.185 7.6 3.68 5.58
4/24/2022 1:15:00 AM 9.14 48.452 0.185 7.59 3.95 5.59
4/24/2022 1:30:00 AM 9.14 48.452 0.179 7.59 3.05 5.59
4/24/2022 1:45:00 AM 9.14 48.452 0.185 7.58 3.8 5.64
4/24/2022 2:00:00 AM 9.14 48.452 0.185 7.58 4.28 5.7
4/24/2022 2:15:00 AM 9.14 48.452 0.185 7.59 4.24 5.72
4/24/2022 2:30:00 AM 9.14 48.452 0.183 7.59 5.16 5.74
4/24/2022 2:45:00 AM 9.14 48.452 0.119 7.58 3.93 5.78
4/24/2022 3:00:00 AM 9.14 48.452 0.124 7.59 3.55 5.79
4/24/2022 3:15:00 AM 9.14 48.452 0.185 7.57 4.12 5.8
4/24/2022 3:30:00 AM 9.14 48.452 0.184 7.56 3.85 5.79
4/24/2022 3:45:00 AM 9.14 48.452 0.184 7.57 3.81 5.79
4/24/2022 4:00:00 AM 9.15 48.47 0.185 7.57 4.23 5.73
4/24/2022 4:15:00 AM 9.16 48.488 0.179 7.7 12 5.71
4/24/2022 4:30:00 AM 9.16 48.488 0.175 7.75 9.29 5.7
4/24/2022 4:45:00 AM 9.16 48.488 0.091 7.77 7.36 5.61
4/24/2022 5:00:00 AM 9.16 48.488 0.147 7.78 7.32 5.58
4/24/2022 5:15:00 AM 9.15 48.47 0.175 7.76 5.43 5.51
4/24/2022 5:30:00 AM 9.15 48.47 0.172 7.77 5.75 5.13
4/24/2022 5:45:00 AM 9.15 48.47 0.175 7.76 7.5 5.02
4/24/2022 6:00:00 AM 9.15 48.47 0.174 7.78 7.5 5.03
4/24/2022 6:15:00 AM 9.15 48.47 0.174 7.75 7.84 5.05
4/24/2022 6:30:00 AM 9.15 48.47 0.172 7.76 6.85 5.01
4/24/2022 6:45:00 AM 9.16 48.488 0.171 7.76 7.43 4.98
4/24/2022 7:00:00 AM 9.16 48.488 0.175 7.75 7.33 4.95
4/24/2022 7:15:00 AM 9.17 48.506 0.089 7.78 7.92 4.99
4/24/2022 7:30:00 AM 9.18 48.524 0.174 7.76 7.98 4.96
4/24/2022 7:45:00 AM 9.19 48.542 0.174 7.75 7.23 4.98
4/24/2022 8:00:00 AM 9.21 48.578 0.171 7.77 6.78 4.94
4/24/2022 8:15:00 AM 9.21 48.578 0.174 7.76 6.61 5.02
4/24/2022 8:30:00 AM 9.25 48.65 0.174 7.77 5.25 4.97
4/24/2022 8:45:00 AM 9.27 48.686 0.174 7.77 5.7 5.01
4/24/2022 9:00:00 AM 9.31 48.758 0.174 7.77 7.29 5.03
4/24/2022 9:15:00 AM 9.34 48.812 0.174 7.76 7.7 5.03
4/24/2022 9:30:00 AM 9.38 48.884 0.174 7.77 7.25 5
4/24/2022 9:45:00 AM 9.42 48.956 0.174 7.77 8.09 4.98
4/24/2022 10:00:00 AM 9.47 49.046 0.166 7.77 7.15 4.97
4/24/2022 10:15:00 AM 9.51 49.118 0.173 7.76 5.53 4.97
4/24/2022 10:30:00 AM 9.56 49.208 0.173 7.78 6.17 5.01
4/24/2022 10:45:00 AM 9.61 49.298 0.173 7.79 7.51 4.99
4/24/2022 11:00:00 AM 9.66 49.388 0.173 7.8 7.2 5.04
4/24/2022 11:15:00 AM 9.7 49.46 0.173 7.78 15.01 5.07
4/24/2022 11:30:00 AM 9.75 49.55 0.172 7.78 7.48 5.06
4/24/2022 11:45:00 AM 9.8 49.64 0.172 7.78 7.59 5.04
4/24/2022 12:00:00 PM 9.84 49.712 0.165 7.78 6.55 5
4/24/2022 12:15:00 PM 9.84 49.712 0.171 7.78 2.89 5.01
4/24/2022 12:30:00 PM 9.83 49.694 0.173 7.78 5.26 5.04
4/24/2022 12:45:00 PM 9.82 49.676 0.169 7.77 4.5 5.08
4/24/2022 1:00:00 PM 9.82 49.676 0.173 7.78 1.93 5.05
4/24/2022 1:15:00 PM 9.82 49.676 0.168 7.77 4.74 5.1
4/24/2022 1:30:00 PM 9.82 49.676 0.173 7.77 4.56 5.12
4/24/2022 1:45:00 PM 9.81 49.658 0.173 7.77 4.43 5.12
4/24/2022 2:00:00 PM 9.81 49.658 0.172 7.76 4.51 5.1
4/24/2022 2:15:00 PM 9.8 49.64 0.173 7.77 4.43 5.1
4/24/2022 2:30:00 PM 9.79 49.622 0.173 7.76 4.6 5.1
4/24/2022 2:45:00 PM 9.78 49.604 0.173 7.74 4.64 5.13
4/24/2022 3:00:00 PM 9.77 49.586 0.173 7.72 3.75 5.15
4/24/2022 3:15:00 PM 9.76 49.568 0.173 7.74 11.42 5.19
4/24/2022 3:30:00 PM 9.76 49.568 0.173 7.72 4.74 5.19
4/24/2022 3:45:00 PM 9.75 49.55 0.173 7.71 4.5 5.22
4/24/2022 4:00:00 PM 9.75 49.55 0.174 7.7 8.3 5.24
4/24/2022 4:15:00 PM 9.75 49.55 0.174 7.7 3.86 5.26
4/24/2022 4:30:00 PM 9.74 49.532 0.174 7.7 4.14 5.27
4/24/2022 4:45:00 PM 9.74 49.532 0.174 7.72 3.98 5.2
4/24/2022 5:00:00 PM 9.74 49.532 0.173 7.68 3.5 5.22
4/24/2022 5:15:00 PM 9.74 49.532 0.174 7.67 3.84 5.19
4/24/2022 5:30:00 PM 9.74 49.532 0.172 7.69 1.57 5.23
4/24/2022 5:45:00 PM 9.74 49.532 0.174 7.68 3.75 5.25
4/24/2022 6:00:00 PM 9.73 49.514 0.174 7.69 1.73 5.28
4/24/2022 6:15:00 PM 9.73 49.514 0.174 7.68 3.76 5.27
4/24/2022 6:30:00 PM 9.73 49.514 0.174 7.67 3.62 5.27
4/24/2022 6:45:00 PM 9.72 49.496 0.174 7.69 6.77 5.38
4/24/2022 7:00:00 PM 9.72 49.496 0.174 7.67 3.68 5.3
4/24/2022 7:15:00 PM 9.72 49.496 0.174 7.67 4.57 5.36
4/24/2022 7:30:00 PM 9.72 49.496 0.174 7.68 8.81 5.36
4/24/2022 7:45:00 PM 9.72 49.496 0.174 7.68 3.8 5.41
4/24/2022 8:00:00 PM 9.71 49.478 0.174 7.65 3.91 5.39
4/24/2022 8:15:00 PM 9.71 49.478 0.174 7.65 3.75 5.31
4/24/2022 8:30:00 PM 9.71 49.478 0.174 7.66 3.64 5.32
4/24/2022 8:45:00 PM 9.71 49.478 0.175 7.65 3.41 5.25
4/24/2022 9:00:00 PM 9.7 49.46 0.175 7.64 3.47 5.17
4/24/2022 9:15:00 PM 9.7 49.46 0.175 7.65 2.59 5.2
4/24/2022 9:30:00 PM 9.7 49.46 0.175 7.67 3.59 5.14
4/24/2022 9:45:00 PM 9.7 49.46 0.175 7.66 3.49 5.16
4/24/2022 10:00:00 PM 9.7 49.46 0.175 7.62 3.35 5.23
4/24/2022 10:15:00 PM 9.7 49.46 0.175 7.64 3.11 5.27
4/24/2022 10:30:00 PM 9.7 49.46 0.175 7.64 3.38 5.28
4/24/2022 10:45:00 PM 9.7 49.46 0.175 7.61 3.34 5.29
4/24/2022 11:00:00 PM 9.69 49.442 0.172 7.61 1.58 5.18
4/24/2022 11:15:00 PM 9.69 49.442 0.175 7.62 3.35 5.22
4/24/2022 11:30:00 PM 9.69 49.442 0.176 7.59 3.2 5.29
4/24/2022 11:45:00 PM 9.69 49.442 0.176 7.63 3.34 5.23
4/25/2022 12:00:00 AM 9.69 49.442 0.176 7.6 3.39 5.31
4/25/2022 12:15:00 AM 9.69 49.442 0.176 7.59 3.42 5.39
4/25/2022 12:30:00 AM 9.69 49.442 0.176 7.61 3.26 5.35
4/25/2022 12:45:00 AM 9.68 49.424 0.176 7.57 3.37 5.35
4/25/2022 1:00:00 AM 9.68 49.424 0.176 7.57 3.29 5.32
4/25/2022 1:15:00 AM 9.68 49.424 0.176 7.57 3.32 5.31
4/25/2022 1:30:00 AM 9.68 49.424 0.176 7.57 3.23 5.34
4/25/2022 1:45:00 AM 9.68 49.424 0.176 7.59 3.35 5.33
4/25/2022 2:00:00 AM 9.68 49.424 0.176 7.58 3.31 5.37
4/25/2022 2:15:00 AM 9.68 49.424 0.176 7.59 3.41 5.4
4/25/2022 2:30:00 AM 9.68 49.424 0.176 7.57 3.3 5.36
4/25/2022 2:45:00 AM 9.68 49.424 0.176 7.57 3.27 5.41
4/25/2022 3:00:00 AM 9.68 49.424 0.176 7.57 3.23 5.42
4/25/2022 3:15:00 AM 9.68 49.424 0.176 7.58 3.31 5.37
4/25/2022 3:30:00 AM 9.68 49.424 0.176 7.59 3.22 5.4
4/25/2022 3:45:00 AM 9.68 49.424 0.176 7.56 3.25 5.48
4/25/2022 4:00:00 AM 9.68 49.424 0.176 7.56 3.27 5.48
4/25/2022 4:15:00 AM 9.68 49.424 0.176 7.58 3.23 5.47
4/25/2022 4:30:00 AM 9.68 49.424 0.176 7.58 3.13 5.47
4/25/2022 4:45:00 AM 9.68 49.424 0.176 7.58 3.29 5.45
4/25/2022 5:00:00 AM 9.68 49.424 0.176 7.59 3.14 5.46
4/25/2022 5:15:00 AM 9.68 49.424 0.176 7.57 2.78 5.37
4/25/2022 5:30:00 AM 9.68 49.424 0.176 7.58 3.44 5.38
4/25/2022 5:45:00 AM 9.69 49.442 0.175 7.59 3.23 5.31
4/25/2022 6:00:00 AM 9.96 49.928 0.17 7.69 13.98 5.4
4/25/2022 6:15:00 AM 10.21 50.378 0.168 7.75 7.03 5.41
4/25/2022 6:30:00 AM 10.31 50.558 0.167 7.76 6.06 5.39
4/25/2022 6:45:00 AM 10.35 50.63 0.167 7.76 8.53 5.39
4/25/2022 7:00:00 AM 10.37 50.666 0.167 7.76 6.88 5.39
4/25/2022 7:15:00 AM 10.4 50.72 0.166 7.77 7.56 5.39
4/25/2022 7:30:00 AM 10.42 50.756 0.166 7.77 6.88 5.42
4/25/2022 7:45:00 AM 10.45 50.81 0.166 7.77 23.17 5.42
4/25/2022 8:00:00 AM 10.48 50.864 0.166 7.76 5.92 5.42
4/25/2022 8:15:00 AM 10.51 50.918 0.166 7.76 6.43 5.43
4/25/2022 8:30:00 AM 10.54 50.972 0.166 7.79 9.57 5.4
4/25/2022 8:45:00 AM 10.59 51.062 0.166 7.76 7.6 5.39
4/25/2022 9:00:00 AM 10.63 51.134 0.166 7.77 7.29 5.38
4/25/2022 9:15:00 AM 10.67 51.206 0.166 7.77 5.34 5.39
4/25/2022 9:30:00 AM 10.7 51.26 0.166 7.78 1.78 5.38
4/25/2022 9:45:00 AM 10.7 51.26 0.166 7.78 6.66 5.41
4/25/2022 10:00:00 AM 10.72 51.296 0.166 7.78 5.19 5.41
4/25/2022 10:15:00 AM 10.76 51.368 0.166 7.79 6.24 5.44
4/25/2022 10:30:00 AM 10.8 51.44 0.166 7.78 6.45 5.41
4/25/2022 10:45:00 AM 10.82 51.476 0.166 7.79 5.71 5.42
4/25/2022 11:00:00 AM 10.85 51.53 0.166 7.78 5.7 5.42
4/25/2022 11:15:00 AM 10.87 51.566 0.166 7.77 5.04 5.42
4/25/2022 11:30:00 AM 10.92 51.656 0.166 7.77 6.11 5.4
4/25/2022 11:45:00 AM 10.96 51.728 0.166 7.78 5.5 5.43
4/25/2022 12:00:00 PM 11 51.8 0.166 7.78 0.56 5.39
4/25/2022 12:15:00 PM 11.04 51.872 0.166 7.79 5.63 5.4
4/25/2022 12:30:00 PM 11.1 51.98 0.166 7.8 5.35 5.41
4/25/2022 12:45:00 PM 11.16 52.088 0.166 7.8 5.76 5.4
4/25/2022 1:00:00 PM 11.22 52.196 0.166 7.79 5.99 5.38
4/25/2022 1:15:00 PM 11.27 52.286 0.166 7.8 5.96 5.39
4/25/2022 1:30:00 PM 11.31 52.358 0.166 7.78 5.86 5.38
4/25/2022 1:45:00 PM 11.39 52.502 0.166 7.8 23.88 5.36
4/25/2022 2:00:00 PM 11.44 52.592 0.166 7.79 4.97 5.34
4/25/2022 2:15:00 PM 11.41 52.538 0.165 7.75 3.93 5.32
4/25/2022 2:30:00 PM 11.42 52.556 0.165 7.73 4.28 5.39
4/25/2022 2:45:00 PM 11.42 52.556 0.165 7.74 18.21 5.32
4/25/2022 3:00:00 PM 11.43 52.574 0.166 7.79 3.89 5.33
4/25/2022 3:15:00 PM 11.43 52.574 0.166 7.78 2.95 5.26
4/25/2022 3:30:00 PM 11.41 52.538 0.162 7.79 1.83 5.19
4/25/2022 3:45:00 PM 11.4 52.52 0.166 7.78 3.88 5.2
4/25/2022 4:00:00 PM 11.39 52.502 0.166 7.78 4.07 5.26
4/25/2022 4:15:00 PM 11.39 52.502 0.166 7.77 3.74 5.17
4/25/2022 4:30:00 PM 11.37 52.466 0.166 7.77 3.01 5.2
4/25/2022 4:45:00 PM 11.36 52.448 0.166 7.76 3.68 5.27
4/25/2022 5:00:00 PM 11.35 52.43 0.166 7.76 3.44 5.16
4/25/2022 5:15:00 PM 11.35 52.43 0.166 7.74 4.11 5.15
4/25/2022 5:30:00 PM 11.34 52.412 0.166 7.75 9.73 5.16
4/25/2022 5:45:00 PM 11.33 52.394 0.166 7.75 3.39 5.16
4/25/2022 6:00:00 PM 11.33 52.394 0.166 7.74 3.44 5.21
4/25/2022 6:15:00 PM 11.32 52.376 0.166 7.75 3.22 5.16
4/25/2022 6:30:00 PM 11.32 52.376 0.166 7.74 2.68 5.15
4/25/2022 6:45:00 PM 11.31 52.358 0.167 7.72 5.18 5.16
4/25/2022 7:00:00 PM 11.3 52.34 0.164 7.72 1.21 5.16
4/25/2022 7:15:00 PM 11.29 52.322 0.167 7.7 3.36 5.18
4/25/2022 7:30:00 PM 11.29 52.322 0.166 7.68 3.35 5.16
4/25/2022 7:45:00 PM 11.29 52.322 0.167 7.67 8.36 5.18
4/25/2022 8:00:00 PM 11.28 52.304 0.167 7.67 3.2 5.25
4/25/2022 8:15:00 PM 11.28 52.304 0.167 7.65 3.16 5.15
4/25/2022 8:30:00 PM 11.27 52.286 0.167 7.66 3.37 5.25
4/25/2022 8:45:00 PM 11.27 52.286 0.168 7.64 3.26 5.15
4/25/2022 9:00:00 PM 11.27 52.286 0.158 7.64 1.63 5.07
4/25/2022 9:15:00 PM 11.26 52.268 0.168 7.63 2.51 5.04
4/25/2022 9:30:00 PM 11.26 52.268 0.168 7.63 2.36 5.09
4/25/2022 9:45:00 PM 11.26 52.268 0.168 7.61 3.26 5.07
4/25/2022 10:00:00 PM 11.25 52.25 0.169 7.61 3.04 4.95
4/25/2022 10:15:00 PM 11.25 52.25 0.156 7.58 0.47 5.06
4/25/2022 10:30:00 PM 11.25 52.25 0.061 7.59 2.74 5.02
4/25/2022 10:45:00 PM 11.24 52.232 0.162 7.59 2.75 4.94
4/25/2022 11:00:00 PM 11.24 52.232 0.169 7.59 3.52 5.02
4/25/2022 11:15:00 PM 11.23 52.214 0.169 7.59 3.42 5.2
4/25/2022 11:30:00 PM 11.23 52.214 0.169 7.6 3.27 5.07
4/25/2022 11:45:00 PM 11.23 52.214 0.168 7.59 5.64 4.96
4/26/2022 12:00:00 AM 11.22 52.196 0.169 7.61 2.9 4.57
4/26/2022 12:15:00 AM 11.22 52.196 0.163 7.59 2.46 4.59
4/26/2022 12:30:00 AM 11.22 52.196 0.168 7.59 2.85 4.75
4/26/2022 12:45:00 AM 11.21 52.178 0.169 7.6 2.86 4.68
4/26/2022 1:00:00 AM 11.21 52.178 0.164 7.6 3.05 4.79
4/26/2022 1:15:00 AM 11.2 52.16 0.168 7.59 4.9 4.8
4/26/2022 1:30:00 AM 11.2 52.16 0.168 7.59 2.82 4.71
4/26/2022 1:45:00 AM 11.2 52.16 0.169 7.58 2.84 4.83
4/26/2022 2:00:00 AM 11.19 52.142 0.168 7.59 3.54 4.85
4/26/2022 2:15:00 AM 11.19 52.142 0.169 7.58 2.93 4.78
4/26/2022 2:30:00 AM 11.19 52.142 0.168 7.59 2.91 4.81
4/26/2022 2:45:00 AM 11.19 52.142 0.169 7.6 6.99 5.01
4/26/2022 3:00:00 AM 11.18 52.124 0.168 7.6 2.74 5.01
4/26/2022 3:15:00 AM 11.18 52.124 0.168 7.6 -0.05 5.03
4/26/2022 3:30:00 AM 11.17 52.106 0.168 7.63 2.79 4.91
4/26/2022 3:45:00 AM 11.17 52.106 0.168 7.61 2.77 4.9
4/26/2022 4:00:00 AM 11.17 52.106 0.168 7.6 2.76 4.93
4/26/2022 4:15:00 AM 11.16 52.088 0.168 7.61 3.33 4.93
4/26/2022 4:30:00 AM 11.16 52.088 0.168 7.61 2.88 4.95
4/26/2022 4:45:00 AM 11.16 52.088 0.168 7.6 2.77 4.97
4/26/2022 5:00:00 AM 11.15 52.07 0.168 7.6 3.42 4.97
4/26/2022 5:15:00 AM 11.15 52.07 0.169 7.59 2.12 4.98
4/26/2022 5:30:00 AM 11.15 52.07 0.169 7.62 2.72 4.94
4/26/2022 5:45:00 AM 11.14 52.052 0.169 7.6 0.21 4.93
4/26/2022 6:00:00 AM 11.17 52.106 0.167 7.63 3.58 4.87
4/26/2022 6:15:00 AM 11.34 52.412 0.17 7.7 11.06 5.12
4/26/2022 6:30:00 AM 11.41 52.538 0.17 7.73 5.12 5.19
4/26/2022 6:45:00 AM 11.46 52.628 0.17 7.72 5.32 5.17
4/26/2022 7:00:00 AM 11.5 52.7 0.171 7.74 4.39 5.13
4/26/2022 7:15:00 AM 11.52 52.736 0.17 7.74 3.42 5.05
4/26/2022 7:30:00 AM 11.54 52.772 0.171 7.75 1.76 5.15
4/26/2022 7:45:00 AM 11.56 52.808 0.171 7.74 4.79 5.14
4/26/2022 8:00:00 AM 11.58 52.844 0.171 7.75 4.93 5.14
4/26/2022 8:15:00 AM 11.6 52.88 0.171 7.75 4.61 5.18
4/26/2022 8:30:00 AM 11.62 52.916 0.171 7.73 4.81 5.18
4/26/2022 8:45:00 AM 11.64 52.952 0.172 7.75 5 5.17
4/26/2022 9:00:00 AM 11.66 52.988 0.172 7.76 5 5.19
4/26/2022 9:15:00 AM 11.68 53.024 0.172 7.75 4.67 5.29
4/26/2022 9:30:00 AM 11.7 53.06 0.172 7.73 4.7 5.15
4/26/2022 9:45:00 AM 11.72 53.096 0.172 7.74 5.42 5.12
4/26/2022 10:00:00 AM 11.73 53.114 0.088 7.75 3.63 5.17
4/26/2022 10:15:00 AM 11.73 53.114 0.172 7.75 4.76 5.14
4/26/2022 10:30:00 AM 11.74 53.132 0.172 7.76 7.87 5.14
4/26/2022 10:45:00 AM 11.75 53.15 0.172 7.76 3.84 5.16
4/26/2022 11:00:00 AM 11.76 53.168 0.172 7.75 4.06 5.18
4/26/2022 11:15:00 AM 11.78 53.204 0.172 7.76 4.86 5.18
4/26/2022 11:30:00 AM 11.79 53.222 0.115 7.75 3.5 5.22
4/26/2022 11:45:00 AM 11.81 53.258 0.172 7.76 4.48 5.31
4/26/2022 12:00:00 PM 11.85 53.33 0.173 7.77 4.78 5.32
4/26/2022 12:15:00 PM 11.87 53.366 0.173 7.75 4.46 5.32
4/26/2022 12:30:00 PM 11.91 53.438 0.172 7.76 4.51 5.32
4/26/2022 12:45:00 PM 11.94 53.492 0.171 7.75 2.49 5.31
4/26/2022 1:00:00 PM 12 53.6 0.172 7.75 5.25 5.31
4/26/2022 1:15:00 PM 12.04 53.672 0.173 7.77 5.25 5.25
4/26/2022 1:30:00 PM 12.07 53.726 0.172 7.77 4.91 5.27
4/26/2022 1:45:00 PM 12.1 53.78 0.173 7.76 4.97 5.33
4/26/2022 2:00:00 PM 12.11 53.798 0.173 7.78 4.34 5.32
4/26/2022 2:15:00 PM 12.11 53.798 0.173 7.77 2.18 5.32
4/26/2022 2:30:00 PM 12.11 53.798 0.173 7.76 3.51 5.34
4/26/2022 2:45:00 PM 12.11 53.798 0.173 7.76 3.53 5.34
4/26/2022 3:00:00 PM 12.1 53.78 0.173 7.75 3.51 5.35
4/26/2022 3:15:00 PM 12.1 53.78 0.173 7.76 3.68 5.35
4/26/2022 3:30:00 PM 12.1 53.78 0.173 7.76 3.43 5.36
4/26/2022 3:45:00 PM 12.08 53.744 0.173 7.74 3.37 5.35
4/26/2022 4:00:00 PM 12.08 53.744 0.173 7.74 3.19 5.35
4/26/2022 4:15:00 PM 12.07 53.726 0.173 7.74 3.18 5.36
4/26/2022 4:30:00 PM 12.06 53.708 0.173 7.75 3.07 5.35
4/26/2022 4:45:00 PM 12.06 53.708 0.173 7.74 3 5.37
4/26/2022 5:00:00 PM 12.05 53.69 0.173 7.73 3.12 5.35
4/26/2022 5:15:00 PM 12.04 53.672 0.173 7.72 3.07 5.35
4/26/2022 5:30:00 PM 12.04 53.672 0.173 7.74 3.03 5.34
4/26/2022 5:45:00 PM 12.04 53.672 0.173 7.71 3.06 5.35
4/26/2022 6:00:00 PM 12.03 53.654 0.173 7.71 2.98 5.36
4/26/2022 6:15:00 PM 12.03 53.654 0.174 7.72 3.01 5.36
4/26/2022 6:30:00 PM 12.02 53.636 0.174 7.68 2.93 5.32
4/26/2022 6:45:00 PM 12.02 53.636 0.174 7.69 2.95 5.25
4/26/2022 7:00:00 PM 12.01 53.618 0.174 7.68 2.93 5.26
4/26/2022 7:15:00 PM 12.01 53.618 0.174 7.7 2.82 5.29
4/26/2022 7:30:00 PM 12.01 53.618 0.174 7.71 2.85 5.27
4/26/2022 7:45:00 PM 12 53.6 0.173 7.7 2.74 5.3
4/26/2022 8:00:00 PM 12 53.6 0.174 7.72 2.92 5.25
4/26/2022 8:15:00 PM 11.99 53.582 0.173 7.69 2.76 5.28
4/26/2022 8:30:00 PM 11.99 53.582 0.173 7.71 2.67 5.3
4/26/2022 8:45:00 PM 11.99 53.582 0.173 7.69 2.76 5.27
4/26/2022 9:00:00 PM 11.98 53.564 0.174 7.69 2.67 5.26
4/26/2022 9:15:00 PM 11.98 53.564 0.174 7.69 2.69 5.28
4/26/2022 9:30:00 PM 11.98 53.564 0.174 7.68 2.7 5.29
4/26/2022 9:45:00 PM 11.98 53.564 0.174 7.67 2.73 5.25
4/26/2022 10:00:00 PM 11.97 53.546 0.174 7.65 2.65 5.29
4/26/2022 10:15:00 PM 11.97 53.546 0.174 7.65 2.64 5.25
4/26/2022 10:30:00 PM 11.97 53.546 0.174 7.64 2.64 5.23
4/26/2022 10:45:00 PM 11.96 53.528 0.174 7.64 2.6 5.21
4/26/2022 11:00:00 PM 11.96 53.528 0.174 7.65 2.69 5.18
4/26/2022 11:15:00 PM 11.96 53.528 0.175 7.64 2.59 5.16
4/26/2022 11:30:00 PM 11.95 53.51 0.174 7.63 2.56 5.13
4/26/2022 11:45:00 PM 11.95 53.51 0.175 7.63 2.54 5.11
4/27/2022 12:00:00 AM 11.95 53.51 0.175 7.64 2.87 5.11
4/27/2022 12:15:00 AM 11.94 53.492 0.175 7.63 2.58 5.1
4/27/2022 12:30:00 AM 11.94 53.492 0.175 7.66 2.52 5.09
4/27/2022 12:45:00 AM 11.94 53.492 0.175 7.63 2.47 5.08
4/27/2022 1:00:00 AM 11.94 53.492 0.175 7.65 2.47 5.06
4/27/2022 1:15:00 AM 11.93 53.474 0.175 7.64 2.43 5.06
4/27/2022 1:30:00 AM 11.93 53.474 0.175 7.62 2.47 5.07
4/27/2022 1:45:00 AM 11.93 53.474 0.175 7.61 3.11 5.08
4/27/2022 2:00:00 AM 11.92 53.456 0.175 7.63 2.42 5.08
4/27/2022 2:15:00 AM 11.92 53.456 0.175 7.61 2.48 4.99
4/27/2022 2:30:00 AM 11.92 53.456 0.175 7.61 2.38 4.98
4/27/2022 2:45:00 AM 11.91 53.438 0.175 7.62 2.44 5.01
4/27/2022 3:00:00 AM 11.91 53.438 0.176 7.63 1.85 5.04
4/27/2022 3:15:00 AM 11.91 53.438 0.176 7.61 2.39 5.01
4/27/2022 3:30:00 AM 11.9 53.42 0.176 7.6 2.37 5.01
4/27/2022 3:45:00 AM 11.9 53.42 0.176 7.58 2.3 5.02
4/27/2022 4:00:00 AM 11.9 53.42 0.176 7.61 2.35 4.97
4/27/2022 4:15:00 AM 11.89 53.402 0.176 7.6 2.45 4.98
4/27/2022 4:30:00 AM 11.89 53.402 0.176 7.59 2.27 4.98
4/27/2022 4:45:00 AM 11.89 53.402 0.176 7.58 2.3 4.96
4/27/2022 5:00:00 AM 11.89 53.402 0.176 7.58 2.36 4.91
4/27/2022 5:15:00 AM 11.89 53.402 0.176 7.59 2.34 4.93
4/27/2022 5:30:00 AM 11.89 53.402 0.177 7.6 2.24 4.9
4/27/2022 5:45:00 AM 11.88 53.384 0.176 7.59 2.29 4.9
4/27/2022 6:00:00 AM 11.84 53.312 0.173 7.67 4.4 5.15
4/27/2022 6:15:00 AM 11.74 53.132 0.172 7.7 7.25 5.38
4/27/2022 6:30:00 AM 11.72 53.096 0.172 7.71 7.25 5.42
4/27/2022 6:45:00 AM 11.69 53.042 0.171 7.71 5.78 5.4
4/27/2022 7:00:00 AM 11.66 52.988 0.171 7.72 5.34 5.42
4/27/2022 7:15:00 AM 11.64 52.952 0.171 7.73 5.78 5.46
4/27/2022 7:30:00 AM 11.62 52.916 0.171 7.76 6 5.46
4/27/2022 7:45:00 AM 11.61 52.898 0.171 7.73 5.77 5.45
4/27/2022 8:00:00 AM 11.62 52.916 0.172 7.75 6.44 5.46
4/27/2022 8:15:00 AM 11.63 52.934 0.172 7.75 6.39 5.46
4/27/2022 8:30:00 AM 11.65 52.97 0.172 7.74 8.76 5.5
4/27/2022 8:45:00 AM 11.65 52.97 0.173 7.73 7.71 5.48
4/27/2022 9:00:00 AM 11.66 52.988 0.173 7.75 9.47 5.49
4/27/2022 9:15:00 AM 11.67 53.006 0.173 7.79 8.49 5.49
4/27/2022 9:30:00 AM 11.66 52.988 0.173 7.74 7.74 5.5
4/27/2022 9:45:00 AM 11.65 52.97 0.173 7.75 7.35 5.51
4/27/2022 10:00:00 AM 11.64 52.952 0.174 7.76 7.16 5.52
4/27/2022 10:15:00 AM 11.63 52.934 0.174 7.76 6.19 5.52
4/27/2022 10:30:00 AM 11.62 52.916 0.174 7.77 6.24 5.55
4/27/2022 10:45:00 AM 11.62 52.916 0.174 7.78 5.73 5.55
4/27/2022 11:00:00 AM 11.62 52.916 0.175 7.77 5.73 5.53
4/27/2022 11:15:00 AM 11.64 52.952 0.175 7.79 6.15 5.52
4/27/2022 11:30:00 AM 11.68 53.024 0.175 7.76 6.89 5.53
4/27/2022 11:45:00 AM 11.69 53.042 0.176 7.77 7.16 5.46
4/27/2022 12:00:00 PM 11.69 53.042 0.176 7.79 7.04 5.38
4/27/2022 12:15:00 PM 11.7 53.06 0.176 7.77 6.91 5.24
4/27/2022 12:30:00 PM 11.71 53.078 0.176 7.79 6.39 5.29
4/27/2022 12:45:00 PM 11.72 53.096 0.176 7.8 6.16 5.29
4/27/2022 1:00:00 PM 11.73 53.114 0.176 7.79 6.41 5.3
4/27/2022 1:15:00 PM 11.74 53.132 0.177 7.8 6.77 5.32
4/27/2022 1:30:00 PM 11.75 53.15 0.177 7.78 5.79 5.36
4/27/2022 1:45:00 PM 11.76 53.168 0.177 7.78 4.93 5.34
4/27/2022 2:00:00 PM 11.76 53.168 0.177 7.8 4.92 5.38
4/27/2022 2:15:00 PM 11.76 53.168 0.177 7.76 4.07 5.36
4/27/2022 2:30:00 PM 11.75 53.15 0.177 7.75 3.62 5.35
4/27/2022 2:45:00 PM 11.75 53.15 0.177 7.77 3.86 5.4
4/27/2022 3:00:00 PM 11.75 53.15 0.177 7.77 3.65 5.39
4/27/2022 3:15:00 PM 11.75 53.15 0.177 7.76 3.72 5.38
4/27/2022 3:30:00 PM 11.75 53.15 0.177 7.78 3.46 5.38
4/27/2022 3:45:00 PM 11.75 53.15 0.177 7.74 3.45 5.42
4/27/2022 4:00:00 PM 11.75 53.15 0.178 7.75 3.47 5.37
4/27/2022 4:15:00 PM 11.75 53.15 0.178 7.69 3.4 5.45
4/27/2022 4:30:00 PM 11.75 53.15 0.178 7.68 3.23 5.41
4/27/2022 4:45:00 PM 11.74 53.132 0.178 7.68 3.21 5.47
4/27/2022 5:00:00 PM 11.74 53.132 0.178 7.67 3.11 5.42
4/27/2022 5:15:00 PM 11.74 53.132 0.178 7.7 3.14 5.38
4/27/2022 5:30:00 PM 11.73 53.114 0.178 7.7 3.12 5.39
4/27/2022 5:45:00 PM 11.73 53.114 0.178 7.71 2.98 5.4
4/27/2022 6:00:00 PM 11.73 53.114 0.178 7.73 3.08 5.41
4/27/2022 6:15:00 PM 11.72 53.096 0.178 7.68 3.09 5.42
4/27/2022 6:30:00 PM 11.72 53.096 0.178 7.69 3.03 5.33
4/27/2022 6:45:00 PM 11.72 53.096 0.178 7.7 2.98 5.34
4/27/2022 7:00:00 PM 11.72 53.096 0.178 7.71 2.91 5.33
4/27/2022 7:15:00 PM 11.71 53.078 0.178 7.68 2.85 5.31
4/27/2022 7:30:00 PM 11.71 53.078 0.178 7.68 2.92 5.31
4/27/2022 7:45:00 PM 11.71 53.078 0.178 7.68 2.96 5.31
4/27/2022 8:00:00 PM 11.71 53.078 0.178 7.67 2.81 5.26
4/27/2022 8:15:00 PM 11.71 53.078 0.178 7.7 2.74 5.3
4/27/2022 8:30:00 PM 11.7 53.06 0.178 7.67 2.85 5.28
4/27/2022 8:45:00 PM 11.7 53.06 0.178 7.7 2.8 5.29
4/27/2022 9:00:00 PM 11.7 53.06 0.178 7.7 2.84 5.29
4/27/2022 9:15:00 PM 11.7 53.06 0.178 7.67 2.73 5.33
4/27/2022 9:30:00 PM 11.7 53.06 0.178 7.69 2.76 5.34
4/27/2022 9:45:00 PM 11.69 53.042 0.178 7.65 2.79 5.29
4/27/2022 10:00:00 PM 11.69 53.042 0.178 7.68 2.62 5.28
4/27/2022 10:15:00 PM 11.69 53.042 0.178 7.67 2.61 5.31
4/27/2022 10:30:00 PM 11.69 53.042 0.178 7.68 2.69 5.33
4/27/2022 10:45:00 PM 11.69 53.042 0.178 7.67 2.58 5.3
4/27/2022 11:00:00 PM 11.68 53.024 0.179 7.63 2.58 5.34
4/27/2022 11:15:00 PM 11.68 53.024 0.179 7.66 2.65 5.31
4/27/2022 11:30:00 PM 11.68 53.024 0.179 7.63 2.55 5.32
4/27/2022 11:45:00 PM 11.68 53.024 0.179 7.64 2.49 5.32
4/28/2022 12:00:00 AM 11.68 53.024 0.179 7.63 2.53 5.33
4/28/2022 12:15:00 AM 11.67 53.006 0.179 7.63 2.5 5.29
4/28/2022 12:30:00 AM 11.67 53.006 0.179 7.63 2.51 5.28
4/28/2022 12:45:00 AM 11.67 53.006 0.179 7.64 2.42 5.27
4/28/2022 1:00:00 AM 11.67 53.006 0.179 7.63 2.48 5.26
4/28/2022 1:15:00 AM 11.67 53.006 0.179 7.65 2.45 5.28
4/28/2022 1:30:00 AM 11.67 53.006 0.179 7.61 2.43 5.27
4/28/2022 1:45:00 AM 11.66 52.988 0.179 7.64 2.54 5.3
4/28/2022 2:00:00 AM 11.66 52.988 0.179 7.6 2.44 5.28
4/28/2022 2:15:00 AM 11.66 52.988 0.179 7.65 2.38 5.28
4/28/2022 2:30:00 AM 11.66 52.988 0.179 7.61 2.4 5.28
4/28/2022 2:45:00 AM 11.66 52.988 0.179 7.63 2.33 5.27
4/28/2022 3:00:00 AM 11.66 52.988 0.179 7.64 2.36 5.3
4/28/2022 3:15:00 AM 11.65 52.97 0.179 7.62 2.39 5.28
4/28/2022 3:30:00 AM 11.65 52.97 0.179 7.65 2.39 5.26
4/28/2022 3:45:00 AM 11.65 52.97 0.179 7.6 2.3 5.25
4/28/2022 4:00:00 AM 11.65 52.97 0.179 7.65 2.37 5.22
4/28/2022 4:15:00 AM 11.65 52.97 0.179 7.65 2.25 5.19
4/28/2022 4:30:00 AM 11.65 52.97 0.179 7.61 2.24 5.24
4/28/2022 4:45:00 AM 11.65 52.97 0.179 7.65 2.21 5.24
4/28/2022 5:00:00 AM 11.65 52.97 0.179 7.63 2.29 5.12
4/28/2022 5:15:00 AM 11.65 52.97 0.18 7.63 2.32 5.11
4/28/2022 5:30:00 AM 11.64 52.952 0.18 7.61 2.18 5.11
4/28/2022 5:45:00 AM 11.64 52.952 0.18 7.63 2.19 5.11
4/28/2022 6:00:00 AM 11.64 52.952 0.177 7.59 2.95 5.18
4/28/2022 6:15:00 AM 11.46 52.628 0.181 7.64 4.58 5.46
4/28/2022 6:30:00 AM 11.16 52.088 0.184 7.65 4.86 5.75
4/28/2022 6:45:00 AM 11.01 51.818 0.185 7.71 4.62 5.82
4/28/2022 7:00:00 AM 10.92 51.656 0.185 7.73 4.08 5.86
4/28/2022 7:15:00 AM 10.84 51.512 0.186 7.76 4.82 5.91
4/28/2022 7:30:00 AM 10.79 51.422 0.186 7.79 4.75 5.95
4/28/2022 7:45:00 AM 10.77 51.386 0.186 7.77 4.86 5.96
4/28/2022 8:00:00 AM 10.77 51.386 0.186 7.77 4.42 5.91
4/28/2022 8:15:00 AM 10.77 51.386 0.186 7.78 4.54 5.97
4/28/2022 8:30:00 AM 10.77 51.386 0.186 7.79 4.68 6
4/28/2022 8:45:00 AM 10.77 51.386 0.187 7.78 4.79 6.02
4/28/2022 9:00:00 AM 10.78 51.404 0.187 7.81 4.66 6.06
4/28/2022 9:15:00 AM 10.79 51.422 0.187 7.77 4.77 5.99
4/28/2022 9:30:00 AM 10.81 51.458 0.187 7.79 5.26 5.99
4/28/2022 9:45:00 AM 10.84 51.512 0.187 7.78 4.73 6.08
4/28/2022 10:00:00 AM 10.88 51.584 0.187 7.81 4.63 6.09
4/28/2022 10:15:00 AM 10.91 51.638 0.187 7.81 3.85 6.07
4/28/2022 10:30:00 AM 10.95 51.71 0.187 7.8 4.81 6.12
4/28/2022 10:45:00 AM 10.99 51.782 0.187 7.84 4.81 6.12
4/28/2022 11:00:00 AM 11.04 51.872 0.187 7.83 4.31 6.15
4/28/2022 11:15:00 AM 11.08 51.944 0.187 7.8 4.67 6.15
4/28/2022 11:30:00 AM 11.12 52.016 0.187 7.81 4.65 6.18
4/28/2022 11:45:00 AM 11.17 52.106 0.187 7.84 4.94 6.17
4/28/2022 12:00:00 PM 11.22 52.196 0.188 7.82 4.35 6.18
4/28/2022 12:15:00 PM 11.28 52.304 0.188 7.83 4.33 6.18
4/28/2022 12:30:00 PM 11.32 52.376 0.188 7.82 4.61 6.19
4/28/2022 12:45:00 PM 11.37 52.466 0.188 7.85 4.49 6.2
4/28/2022 1:00:00 PM 11.44 52.592 0.188 7.85 5.01 6.2
4/28/2022 1:15:00 PM 11.49 52.682 0.188 7.83 4.7 6.21
4/28/2022 1:30:00 PM 11.53 52.754 0.188 7.84 4.86 6.2
4/28/2022 1:45:00 PM 11.58 52.844 0.188 7.84 4.9 6.24
4/28/2022 2:00:00 PM 11.61 52.898 0.188 7.85 4.43 6.23
4/28/2022 2:15:00 PM 11.61 52.898 0.188 7.84 3.44 6.23
4/28/2022 2:30:00 PM 11.61 52.898 0.188 7.83 3.47 6.23
4/28/2022 2:45:00 PM 11.61 52.898 0.188 7.87 2.81 6.23
4/28/2022 3:00:00 PM 11.61 52.898 0.188 7.82 2.72 6.26
4/28/2022 3:15:00 PM 11.61 52.898 0.188 7.85 2.76 6.27
4/28/2022 3:30:00 PM 11.61 52.898 0.188 7.82 2.73 6.29
4/28/2022 3:45:00 PM 11.61 52.898 0.188 7.85 2.69 6.3
4/28/2022 4:00:00 PM 11.61 52.898 0.188 7.82 2.71 6.31
4/28/2022 4:15:00 PM 11.6 52.88 0.188 7.81 2.75 6.32
4/28/2022 4:30:00 PM 11.6 52.88 0.188 7.82 2.72 6.26
4/28/2022 4:45:00 PM 11.6 52.88 0.188 7.85 2.71 6.23
4/28/2022 5:00:00 PM 11.59 52.862 0.188 7.81 2.48 6.19
4/28/2022 5:15:00 PM 11.59 52.862 0.188 7.8 2.52 6.18
4/28/2022 5:30:00 PM 11.58 52.844 0.188 7.81 2.42 6.16
4/28/2022 5:45:00 PM 11.57 52.826 0.188 7.79 2.31 6.16
4/28/2022 6:00:00 PM 11.57 52.826 0.188 7.81 2.41 6.15
4/28/2022 6:15:00 PM 11.57 52.826 0.189 7.81 2.27 6.14
4/28/2022 6:30:00 PM 11.57 52.826 0.189 7.78 2.18 6.15
4/28/2022 6:45:00 PM 11.57 52.826 0.189 7.78 2.2 6.13
4/28/2022 7:00:00 PM 11.56 52.808 0.189 7.8 2.33 6.14
4/28/2022 7:15:00 PM 11.56 52.808 0.189 7.78 2.24 6.15
4/28/2022 7:30:00 PM 11.56 52.808 0.189 7.8 2.28 6.16
4/28/2022 7:45:00 PM 11.56 52.808 0.189 7.77 2.18 6.17
4/28/2022 8:00:00 PM 11.56 52.808 0.189 7.77 2.18 6.17
4/28/2022 8:15:00 PM 11.55 52.79 0.189 7.78 2.15 6.17
4/28/2022 8:30:00 PM 11.55 52.79 0.189 7.76 2.26 6.16
4/28/2022 8:45:00 PM 11.55 52.79 0.189 7.76 2.11 6.16
4/28/2022 9:00:00 PM 11.55 52.79 0.189 7.79 2.15 6.16
4/28/2022 9:15:00 PM 11.55 52.79 0.189 7.76 2.16 6.15
4/28/2022 9:30:00 PM 11.55 52.79 0.189 7.75 2.11 6.15
4/28/2022 9:45:00 PM 11.54 52.772 0.189 7.75 2.13 6.15
4/28/2022 10:00:00 PM 11.54 52.772 0.189 7.79 2.07 6.16
4/28/2022 10:15:00 PM 11.54 52.772 0.189 7.75 2.09 6.16
4/28/2022 10:30:00 PM 11.54 52.772 0.189 7.74 2.09 6.16
4/28/2022 10:45:00 PM 11.54 52.772 0.189 7.75 2.1 6.15
4/28/2022 11:00:00 PM 11.54 52.772 0.189 7.75 2.03 6.15
4/28/2022 11:15:00 PM 11.54 52.772 0.189 7.75 2.06 6.15
4/28/2022 11:30:00 PM 11.53 52.754 0.189 7.74 1.99 6.14
4/28/2022 11:45:00 PM 11.53 52.754 0.189 7.74 2.04 6.14
4/29/2022 12:00:00 AM 11.53 52.754 0.189 7.74 2.02 6.15
4/29/2022 12:15:00 AM 11.53 52.754 0.189 7.75 2.02 6.14
4/29/2022 12:30:00 AM 11.53 52.754 0.189 7.75 2.04 6.16
4/29/2022 12:45:00 AM 11.53 52.754 0.189 7.78 1.95 6.15
4/29/2022 1:00:00 AM 11.53 52.754 0.189 7.78 2.09 6.14
4/29/2022 1:15:00 AM 11.52 52.736 0.189 7.74 2 6.17
4/29/2022 1:30:00 AM 11.52 52.736 0.189 7.73 1.94 6.18
4/29/2022 1:45:00 AM 11.52 52.736 0.189 7.74 1.96 6.16
4/29/2022 2:00:00 AM 11.52 52.736 0.189 7.73 1.95 6.15
4/29/2022 2:15:00 AM 11.52 52.736 0.189 7.74 1.94 6.15
4/29/2022 2:30:00 AM 11.52 52.736 0.189 7.72 1.94 6.15
4/29/2022 2:45:00 AM 11.52 52.736 0.189 7.73 1.94 6.14
4/29/2022 3:00:00 AM 11.51 52.718 0.189 7.72 1.96 6.09
4/29/2022 3:15:00 AM 11.51 52.718 0.189 7.73 1.93 6.08
4/29/2022 3:30:00 AM 11.51 52.718 0.189 7.72 1.92 6.06
4/29/2022 3:45:00 AM 11.51 52.718 0.189 7.75 1.87 6.06
4/29/2022 4:00:00 AM 11.51 52.718 0.189 7.72 1.91 6.04
4/29/2022 4:15:00 AM 11.51 52.718 0.189 7.72 1.88 6.03
4/29/2022 4:30:00 AM 11.51 52.718 0.189 7.72 1.93 6
4/29/2022 4:45:00 AM 11.5 52.7 0.189 7.71 1.91 5.99
4/29/2022 5:00:00 AM 11.5 52.7 0.189 7.7 1.87 5.98
4/29/2022 5:15:00 AM 11.5 52.7 0.189 7.71 1.9 5.95
4/29/2022 5:30:00 AM 11.5 52.7 0.189 7.73 1.89 5.95
4/29/2022 5:45:00 AM 11.5 52.7 0.189 7.71 1.83 5.93
4/29/2022 6:00:00 AM 11.51 52.718 0.185 7.67 2.28 5.89
4/29/2022 6:15:00 AM 11.33 52.394 0.191 7.62 3.36 6.2
4/29/2022 6:30:00 AM 10.82 51.476 0.194 7.72 3.85 6.5
4/29/2022 6:45:00 AM 10.65 51.17 0.195 7.78 3.46 6.56
4/29/2022 7:00:00 AM 10.54 50.972 0.196 7.8 3.78 6.57
4/29/2022 7:15:00 AM 10.48 50.864 0.196 7.79 3.98 6.55
4/29/2022 7:30:00 AM 10.45 50.81 0.196 7.8 4.1 6.54
4/29/2022 7:45:00 AM 10.46 50.828 0.196 7.8 4.48 6.52
4/29/2022 8:00:00 AM 10.42 50.756 0.196 7.8 5.03 6.5
4/29/2022 8:15:00 AM 10.41 50.738 0.196 7.85 3.79 6.46
4/29/2022 8:30:00 AM 10.41 50.738 0.197 7.78 3.51 6.44
4/29/2022 8:45:00 AM 10.41 50.738 0.197 7.8 3.72 6.45
4/29/2022 9:00:00 AM 10.42 50.756 0.197 7.81 3.5 6.46
4/29/2022 9:15:00 AM 10.44 50.792 0.197 7.81 3.31 6.49
4/29/2022 9:30:00 AM 10.46 50.828 0.197 7.83 4.24 6.5
4/29/2022 9:45:00 AM 10.49 50.882 0.197 7.81 3.73 6.5
4/29/2022 10:00:00 AM 10.54 50.972 0.197 7.83 4.17 6.51
4/29/2022 10:15:00 AM 10.58 51.044 0.198 7.84 3.93 6.47
4/29/2022 10:30:00 AM 10.63 51.134 0.198 7.85 3.69 6.47
4/29/2022 10:45:00 AM 10.68 51.224 0.198 7.85 3.9 6.48
4/29/2022 11:00:00 AM 10.75 51.35 0.198 7.86 4.32 6.49
4/29/2022 11:15:00 AM 10.8 51.44 0.198 7.84 4.31 6.49
4/29/2022 11:30:00 AM 10.86 51.548 0.198 7.84 3.74 6.5
4/29/2022 11:45:00 AM 10.92 51.656 0.198 7.85 3.92 6.5
4/29/2022 12:00:00 PM 10.98 51.764 0.198 7.86 3.9 6.52
4/29/2022 12:15:00 PM 11.04 51.872 0.198 7.87 4.37 6.49
4/29/2022 12:30:00 PM 11.11 51.998 0.198 7.87 4.11 6.49
4/29/2022 12:45:00 PM 11.18 52.124 0.199 7.88 3.79 6.51
4/29/2022 1:00:00 PM 11.25 52.25 0.199 7.89 4.15 6.51
4/29/2022 1:15:00 PM 11.32 52.376 0.199 7.88 3.84 6.51
4/29/2022 1:30:00 PM 11.32 52.376 0.199 7.87 3.34 6.5
4/29/2022 1:45:00 PM 11.31 52.358 0.198 7.85 2.84 6.49
4/29/2022 2:00:00 PM 11.32 52.376 0.199 7.86 2.78 6.49
4/29/2022 2:15:00 PM 11.32 52.376 0.199 7.87 2.47 6.48
4/29/2022 2:30:00 PM 11.32 52.376 0.199 7.86 2.42 6.48
4/29/2022 2:45:00 PM 11.32 52.376 0.199 7.87 2.3 6.49
4/29/2022 3:00:00 PM 11.32 52.376 0.199 7.85 2.33 6.5
4/29/2022 3:15:00 PM 11.31 52.358 0.199 7.87 2.2 6.49
4/29/2022 3:30:00 PM 11.31 52.358 0.199 7.86 2.29 6.49
4/29/2022 3:45:00 PM 11.31 52.358 0.199 7.87 2.15 6.49
4/29/2022 4:00:00 PM 11.31 52.358 0.199 7.82 2.25 6.48
4/29/2022 4:15:00 PM 11.31 52.358 0.199 7.84 2.2 6.48
4/29/2022 4:30:00 PM 11.3 52.34 0.199 7.83 2.19 6.48
4/29/2022 4:45:00 PM 11.3 52.34 0.199 7.84 2.14 6.47
4/29/2022 5:00:00 PM 11.3 52.34 0.199 7.83 2.09 6.47
4/29/2022 5:15:00 PM 11.29 52.322 0.199 7.85 2.07 6.43
4/29/2022 5:30:00 PM 11.29 52.322 0.199 7.85 2.03 6.45
4/29/2022 5:45:00 PM 11.29 52.322 0.199 7.83 2.01 6.44
4/29/2022 6:00:00 PM 11.29 52.322 0.199 7.82 2.03 6.43
4/29/2022 6:15:00 PM 11.29 52.322 0.199 7.84 1.94 6.41
4/29/2022 6:30:00 PM 11.29 52.322 0.199 7.82 1.97 6.44
4/29/2022 6:45:00 PM 11.28 52.304 0.199 7.81 1.95 6.42
4/29/2022 7:00:00 PM 11.28 52.304 0.199 7.84 1.94 6.36
4/29/2022 7:15:00 PM 11.28 52.304 0.199 7.81 1.92 6.35
4/29/2022 7:30:00 PM 11.28 52.304 0.199 7.8 1.97 6.34
4/29/2022 7:45:00 PM 11.28 52.304 0.199 7.81 1.89 6.34
4/29/2022 8:00:00 PM 11.28 52.304 0.199 7.84 1.99 6.34
4/29/2022 8:15:00 PM 11.28 52.304 0.199 7.81 1.85 6.34
4/29/2022 8:30:00 PM 11.27 52.286 0.199 7.8 1.86 6.33
4/29/2022 8:45:00 PM 11.27 52.286 0.199 7.78 1.79 6.29
4/29/2022 9:00:00 PM 11.27 52.286 0.199 7.79 1.83 6.28
4/29/2022 9:15:00 PM 11.27 52.286 0.199 7.81 1.88 6.27
4/29/2022 9:30:00 PM 11.27 52.286 0.199 7.81 1.86 6.28
4/29/2022 9:45:00 PM 11.27 52.286 0.199 7.77 1.93 6.27
4/29/2022 10:00:00 PM 11.27 52.286 0.199 7.8 1.8 6.28
4/29/2022 10:15:00 PM 11.27 52.286 0.199 7.8 1.87 6.28
4/29/2022 10:30:00 PM 11.27 52.286 0.199 7.77 1.91 6.32
4/29/2022 10:45:00 PM 11.26 52.268 0.199 7.78 2.02 6.34
4/29/2022 11:00:00 PM 11.26 52.268 0.199 7.8 1.98 6.37
4/29/2022 11:15:00 PM 11.26 52.268 0.199 7.78 1.94 6.36
4/29/2022 11:30:00 PM 11.26 52.268 0.2 7.78 2.07 6.37
4/29/2022 11:45:00 PM 11.25 52.25 0.2 7.77 1.96 6.38
4/30/2022 12:00:00 AM 11.25 52.25 0.2 7.74 2.03 6.36
4/30/2022 12:15:00 AM 11.25 52.25 0.2 7.76 2.01 6.35
4/30/2022 12:30:00 AM 11.24 52.232 0.2 7.77 2.01 6.34
4/30/2022 12:45:00 AM 11.24 52.232 0.2 7.72 1.98 6.35
4/30/2022 1:00:00 AM 11.23 52.214 0.2 7.71 2.04 6.34
4/30/2022 1:15:00 AM 11.23 52.214 0.2 7.73 2.06 6.36
4/30/2022 1:30:00 AM 11.21 52.178 0.2 7.7 2.32 6.4
4/30/2022 1:45:00 AM 11.21 52.178 0.2 7.7 2.24 6.4
4/30/2022 2:00:00 AM 11.21 52.178 0.2 7.71 2.13 6.44
4/30/2022 2:15:00 AM 11.21 52.178 0.2 7.74 2.18 6.41
4/30/2022 2:30:00 AM 11.21 52.178 0.2 7.7 2.08 6.39
4/30/2022 2:45:00 AM 11.21 52.178 0.2 7.72 2.05 6.38
4/30/2022 3:00:00 AM 11.21 52.178 0.2 7.7 2.06 6.35
4/30/2022 3:15:00 AM 11.21 52.178 0.201 7.7 1.99 6.32
4/30/2022 3:30:00 AM 11.21 52.178 0.201 7.7 1.98 6.31
4/30/2022 3:45:00 AM 11.2 52.16 0.201 7.7 1.95 6.27
4/30/2022 4:00:00 AM 11.21 52.178 0.201 7.7 2.03 6.26
4/30/2022 4:15:00 AM 11.18 52.124 0.198 7.66 3.08 6.3
4/30/2022 4:30:00 AM 11.01 51.818 0.207 7.72 3.36 6.51
4/30/2022 4:45:00 AM 10.9 51.62 0.21 7.79 3.27 6.59
4/30/2022 5:00:00 AM 10.81 51.458 0.213 7.83 4.17 6.65
4/30/2022 5:15:00 AM 10.74 51.332 0.214 7.85 4.03 6.68
4/30/2022 5:30:00 AM 10.68 51.224 0.215 7.88 4.12 6.68
4/30/2022 5:45:00 AM 10.64 51.152 0.215 7.85 3.38 6.68
4/30/2022 6:00:00 AM 10.6 51.08 0.215 7.86 3.34 6.67
4/30/2022 6:15:00 AM 10.56 51.008 0.216 7.86 3.13 6.67
4/30/2022 6:30:00 AM 10.53 50.954 0.216 7.86 3.22 6.68
4/30/2022 6:45:00 AM 10.51 50.918 0.216 7.85 3.18 6.66
4/30/2022 7:00:00 AM 10.49 50.882 0.216 7.87 3.5 6.68
4/30/2022 7:15:00 AM 10.48 50.864 0.216 7.88 3.29 6.68
4/30/2022 7:30:00 AM 10.47 50.846 0.217 7.86 3.24 6.68
4/30/2022 7:45:00 AM 10.48 50.864 0.217 7.86 3.25 6.71
4/30/2022 8:00:00 AM 10.48 50.864 0.217 7.88 3.13 6.7
4/30/2022 8:15:00 AM 10.5 50.9 0.217 7.87 2.77 6.7
4/30/2022 8:30:00 AM 10.51 50.918 0.217 7.88 3 6.69
4/30/2022 8:45:00 AM 10.53 50.954 0.217 7.84 2.78 6.69
4/30/2022 9:00:00 AM 10.55 50.99 0.217 7.87 2.67 6.68
4/30/2022 9:15:00 AM 10.57 51.026 0.218 7.85 2.49 6.66
4/30/2022 9:30:00 AM 10.6 51.08 0.218 7.87 2.88 6.68
4/30/2022 9:45:00 AM 10.64 51.152 0.218 7.86 2.67 6.66
4/30/2022 10:00:00 AM 10.67 51.206 0.218 7.9 2.5 6.66
4/30/2022 10:15:00 AM 10.69 51.242 0.218 7.86 2.48 6.63
4/30/2022 10:30:00 AM 10.72 51.296 0.218 7.87 2.55 6.62
4/30/2022 10:45:00 AM 10.75 51.35 0.218 7.89 2.44 6.61
4/30/2022 11:00:00 AM 10.78 51.404 0.218 7.88 2.44 6.62
4/30/2022 11:15:00 AM 10.79 51.422 0.218 7.84 2.27 6.61
4/30/2022 11:30:00 AM 10.8 51.44 0.218 7.89 2.16 6.6
4/30/2022 11:45:00 AM 10.81 51.458 0.218 7.85 2.07 6.57
4/30/2022 12:00:00 PM 10.82 51.476 0.218 7.86 1.99 6.55
4/30/2022 12:15:00 PM 10.82 51.476 0.218 7.83 1.91 6.55
4/30/2022 12:30:00 PM 10.82 51.476 0.218 7.81 1.94 6.56
4/30/2022 12:45:00 PM 10.82 51.476 0.218 7.85 1.9 6.58
4/30/2022 1:00:00 PM 10.83 51.494 0.218 7.81 1.91 6.6
4/30/2022 1:15:00 PM 10.83 51.494 0.218 7.84 1.95 6.6
4/30/2022 1:30:00 PM 10.83 51.494 0.218 7.84 2.01 6.62
4/30/2022 1:45:00 PM 10.83 51.494 0.218 7.83 1.91 6.61
4/30/2022 2:00:00 PM 10.83 51.494 0.218 7.81 1.94 6.6
4/30/2022 2:15:00 PM 10.83 51.494 0.219 7.81 1.9 6.6
4/30/2022 2:30:00 PM 10.83 51.494 0.219 7.83 1.89 6.6
4/30/2022 2:45:00 PM 10.83 51.494 0.218 7.8 1.86 6.61
4/30/2022 3:00:00 PM 10.83 51.494 0.219 7.85 1.89 6.6
4/30/2022 3:15:00 PM 10.83 51.494 0.219 7.8 1.9 6.59
4/30/2022 3:30:00 PM 10.83 51.494 0.219 7.83 1.83 6.59
4/30/2022 3:45:00 PM 10.83 51.494 0.219 7.82 1.82 6.58
4/30/2022 4:00:00 PM 10.83 51.494 0.219 7.79 1.79 6.59
4/30/2022 4:15:00 PM 10.83 51.494 0.219 7.81 2.2 6.57
4/30/2022 4:30:00 PM 10.83 51.494 0.219 7.79 1.74 6.57
4/30/2022 4:45:00 PM 10.83 51.494 0.219 7.79 1.77 6.55
4/30/2022 5:00:00 PM 10.83 51.494 0.219 7.79 1.71 6.55
4/30/2022 5:15:00 PM 10.83 51.494 0.219 7.79 1.74 6.57
4/30/2022 5:30:00 PM 10.83 51.494 0.219 7.79 1.72 6.57
4/30/2022 5:45:00 PM 10.82 51.476 0.219 7.79 1.69 6.57
4/30/2022 6:00:00 PM 10.83 51.494 0.219 7.79 1.73 6.57
4/30/2022 6:15:00 PM 10.82 51.476 0.219 7.79 1.69 6.56
4/30/2022 6:30:00 PM 10.82 51.476 0.219 7.81 1.74 6.56
4/30/2022 6:45:00 PM 10.82 51.476 0.219 7.76 1.66 6.54
4/30/2022 7:00:00 PM 10.83 51.494 0.219 7.81 1.75 6.52
4/30/2022 7:15:00 PM 10.83 51.494 0.219 7.77 1.72 6.52
4/30/2022 7:30:00 PM 10.82 51.476 0.219 7.78 1.65 6.52
4/30/2022 7:45:00 PM 10.82 51.476 0.219 7.77 1.65 6.52
4/30/2022 8:00:00 PM 10.82 51.476 0.219 7.79 1.64 6.51
4/30/2022 8:15:00 PM 10.82 51.476 0.219 7.75 1.63 6.5
4/30/2022 8:30:00 PM 10.82 51.476 0.219 7.81 1.64 6.49
4/30/2022 8:45:00 PM 10.82 51.476 0.219 7.75 1.64 6.47
4/30/2022 9:00:00 PM 10.82 51.476 0.219 7.79 1.61 6.44
4/30/2022 9:15:00 PM 10.82 51.476 0.219 7.75 1.57 6.44
4/30/2022 9:30:00 PM 10.82 51.476 0.219 7.79 1.61 6.39
4/30/2022 9:45:00 PM 10.82 51.476 0.219 7.76 1.64 6.32
4/30/2022 10:00:00 PM 10.82 51.476 0.219 7.76 1.6 6.26
4/30/2022 10:15:00 PM 10.82 51.476 0.22 7.76 1.54 6.24
4/30/2022 10:30:00 PM 10.82 51.476 0.22 7.77 1.55 6.18
4/30/2022 10:45:00 PM 10.82 51.476 0.22 7.91 1.58 6.14
4/30/2022 11:00:00 PM 10.82 51.476 0.22 7.75 1.56 6.08
4/30/2022 11:15:00 PM 10.82 51.476 0.22 7.75 1.55 6.03
4/30/2022 11:30:00 PM 10.82 51.476 0.22 7.76 1.51 6.01
4/30/2022 11:45:00 PM 10.82 51.476 0.22 7.77 1.57 6
5/1/2022 12:00:00 AM 10.82 51.476 0.22 7.95 1.54 5.98
5/1/2022 12:15:00 AM 10.82 51.476 0.22 7.76 1.55 5.95
5/1/2022 12:30:00 AM 10.82 51.476 0.22 7.76 1.53 5.92
5/1/2022 12:45:00 AM 10.82 51.476 0.22 7.75 1.47 5.89
5/1/2022 1:00:00 AM 10.82 51.476 0.22 7.76 1.51 5.87
5/1/2022 1:15:00 AM 10.82 51.476 0.22 7.73 1.52 5.86
5/1/2022 1:30:00 AM 10.82 51.476 0.22 7.75 1.49 5.84
5/1/2022 1:45:00 AM 10.82 51.476 0.22 7.74 1.5 5.81
5/1/2022 2:00:00 AM 10.82 51.476 0.22 7.75 1.51 5.79
5/1/2022 2:15:00 AM 10.82 51.476 0.22 7.74 1.53 5.77
5/1/2022 2:30:00 AM 10.82 51.476 0.22 7.74 1.47 5.75
5/1/2022 2:45:00 AM 10.82 51.476 0.22 7.74 1.51 5.73
5/1/2022 3:00:00 AM 10.81 51.458 0.22 7.78 1.52 5.72
5/1/2022 3:15:00 AM 10.81 51.458 0.22 7.72 1.56 5.7
5/1/2022 3:30:00 AM 10.81 51.458 0.22 7.74 1.48 5.68
5/1/2022 3:45:00 AM 10.81 51.458 0.22 7.73 1.46 5.65
5/1/2022 4:00:00 AM 10.81 51.458 0.22 7.74 1.52 5.65
5/1/2022 4:15:00 AM 10.82 51.476 0.214 7.71 1.8 5.71
5/1/2022 4:30:00 AM 10.82 51.476 0.216 7.67 2.61 6
5/1/2022 4:45:00 AM 11.12 52.016 0.219 7.75 3.57 6.15
5/1/2022 5:00:00 AM 11.3 52.34 0.223 7.84 3.64 6.25
5/1/2022 5:15:00 AM 11.36 52.448 0.224 7.88 3.52 6.22
5/1/2022 5:30:00 AM 11.36 52.448 0.225 7.91 3.13 6.22
5/1/2022 5:45:00 AM 11.35 52.43 0.226 7.91 3.17 6.21
5/1/2022 6:00:00 AM 11.33 52.394 0.226 7.93 3.22 6.21
5/1/2022 6:15:00 AM 11.3 52.34 0.227 7.91 3.21 6.21
5/1/2022 6:30:00 AM 11.28 52.304 0.227 7.94 2.99 6.21
5/1/2022 6:45:00 AM 11.27 52.286 0.227 7.91 3.04 6.21
5/1/2022 7:00:00 AM 11.26 52.268 0.228 7.92 3.01 6.21
5/1/2022 7:15:00 AM 11.26 52.268 0.228 7.91 2.98 6.2
5/1/2022 7:30:00 AM 11.26 52.268 0.228 7.92 3.17 6.21
5/1/2022 7:45:00 AM 11.27 52.286 0.228 7.92 3.09 6.21
5/1/2022 8:00:00 AM 11.28 52.304 0.229 7.92 2.9 6.2
5/1/2022 8:15:00 AM 11.31 52.358 0.229 7.92 2.84 6.18
5/1/2022 8:30:00 AM 11.34 52.412 0.229 7.93 3.12 6.12
5/1/2022 8:45:00 AM 11.37 52.466 0.229 7.93 2.92 6.09
5/1/2022 9:00:00 AM 11.4 52.52 0.229 7.94 3.06 6.03
5/1/2022 9:15:00 AM 11.43 52.574 0.23 7.94 2.82 6.02
5/1/2022 9:30:00 AM 11.46 52.628 0.23 7.94 2.89 5.97
5/1/2022 9:45:00 AM 11.5 52.7 0.23 7.94 2.89 5.95
5/1/2022 10:00:00 AM 11.53 52.754 0.23 7.94 2.64 5.96
5/1/2022 10:15:00 AM 11.56 52.808 0.23 7.94 2.58 5.9
5/1/2022 10:30:00 AM 11.58 52.844 0.231 7.94 2.48 5.83
5/1/2022 10:45:00 AM 11.58 52.844 0.231 7.94 2.66 5.8
5/1/2022 11:00:00 AM 11.59 52.862 0.231 7.94 2.34 5.78
5/1/2022 11:15:00 AM 11.61 52.898 0.231 7.93 2.11 5.75
5/1/2022 11:30:00 AM 11.62 52.916 0.231 7.93 2.41 5.73
5/1/2022 11:45:00 AM 11.63 52.934 0.231 7.92 2.1 5.73
5/1/2022 12:00:00 PM 11.63 52.934 0.231 7.9 1.94 5.69
5/1/2022 12:15:00 PM 11.64 52.952 0.231 7.91 1.85 5.7
5/1/2022 12:30:00 PM 11.64 52.952 0.231 7.9 1.82 5.72
5/1/2022 12:45:00 PM 11.64 52.952 0.231 7.87 1.81 5.71
5/1/2022 1:00:00 PM 11.64 52.952 0.231 7.88 1.81 5.71
5/1/2022 1:15:00 PM 11.64 52.952 0.231 7.88 1.82 5.74
5/1/2022 1:30:00 PM 11.64 52.952 0.231 7.89 1.86 5.73
5/1/2022 1:45:00 PM 11.63 52.934 0.231 7.88 1.91 5.74
5/1/2022 2:00:00 PM 11.63 52.934 0.231 7.88 1.89 5.75
5/1/2022 2:15:00 PM 11.63 52.934 0.231 7.92 1.85 5.78
5/1/2022 2:30:00 PM 11.63 52.934 0.231 7.87 1.78 5.76
5/1/2022 2:45:00 PM 11.62 52.916 0.231 7.88 1.79 5.76
5/1/2022 3:00:00 PM 11.62 52.916 0.231 7.88 1.79 5.75
5/1/2022 3:15:00 PM 11.62 52.916 0.231 7.88 1.81 5.74
5/1/2022 3:30:00 PM 11.61 52.898 0.231 7.88 1.73 5.76
5/1/2022 3:45:00 PM 11.61 52.898 0.231 7.86 1.7 5.74
5/1/2022 4:00:00 PM 11.61 52.898 0.231 7.86 1.67 5.74
5/1/2022 4:15:00 PM 11.61 52.898 0.231 7.86 1.73 5.73
5/1/2022 4:30:00 PM 11.6 52.88 0.231 7.86 1.63 5.73
5/1/2022 4:45:00 PM 11.6 52.88 0.231 7.85 1.76 5.73
5/1/2022 5:00:00 PM 11.6 52.88 0.231 7.86 1.68 5.74
5/1/2022 5:15:00 PM 11.59 52.862 0.231 7.84 1.71 5.75
5/1/2022 5:30:00 PM 11.59 52.862 0.231 7.87 1.75 5.76
5/1/2022 5:45:00 PM 11.59 52.862 0.231 7.83 1.66 5.75
5/1/2022 6:00:00 PM 11.59 52.862 0.231 7.84 1.66 5.75
5/1/2022 6:15:00 PM 11.59 52.862 0.231 7.85 1.69 5.74
5/1/2022 6:30:00 PM 11.58 52.844 0.232 7.83 1.66 5.74
5/1/2022 6:45:00 PM 11.58 52.844 0.232 7.83 1.65 5.73
5/1/2022 7:00:00 PM 11.58 52.844 0.232 7.83 1.67 5.74
5/1/2022 7:15:00 PM 11.58 52.844 0.232 7.82 1.64 5.73
5/1/2022 7:30:00 PM 11.58 52.844 0.232 7.81 1.65 5.74
5/1/2022 7:45:00 PM 11.57 52.826 0.232 7.83 1.62 5.73
5/1/2022 8:00:00 PM 11.57 52.826 0.232 7.82 1.68 5.74
5/1/2022 8:15:00 PM 11.57 52.826 0.232 7.82 1.63 5.73
5/1/2022 8:30:00 PM 11.57 52.826 0.232 7.79 1.62 5.72
5/1/2022 8:45:00 PM 11.57 52.826 0.232 7.8 1.59 5.71
5/1/2022 9:00:00 PM 11.56 52.808 0.232 7.78 1.63 5.7
5/1/2022 9:15:00 PM 11.56 52.808 0.232 7.83 1.57 5.71
5/1/2022 9:30:00 PM 11.56 52.808 0.232 7.78 1.62 5.7
5/1/2022 9:45:00 PM 11.56 52.808 0.232 7.81 1.61 5.69
5/1/2022 10:00:00 PM 11.56 52.808 0.232 7.78 1.58 5.69
5/1/2022 10:15:00 PM 11.56 52.808 0.232 7.79 1.58 5.7
5/1/2022 10:30:00 PM 11.55 52.79 0.232 7.78 1.6 5.7
5/1/2022 10:45:00 PM 11.55 52.79 0.232 7.8 1.6 5.71
5/1/2022 11:00:00 PM 11.55 52.79 0.232 7.77 1.61 5.71
5/1/2022 11:15:00 PM 11.55 52.79 0.232 7.78 1.59 5.73
5/1/2022 11:30:00 PM 11.55 52.79 0.232 7.77 1.59 5.74
5/1/2022 11:45:00 PM 11.55 52.79 0.232 7.78 1.61 5.73
5/2/2022 12:00:00 AM 11.54 52.772 0.232 7.78 1.61 5.73
5/2/2022 12:15:00 AM 11.54 52.772 0.232 7.82 1.65 5.74
5/2/2022 12:30:00 AM 11.54 52.772 0.232 7.76 1.69 5.74
5/2/2022 12:45:00 AM 11.54 52.772 0.232 7.77 1.79 5.72
5/2/2022 1:00:00 AM 11.54 52.772 0.232 7.78 1.69 5.74
5/2/2022 1:15:00 AM 11.54 52.772 0.232 7.77 1.58 5.72
5/2/2022 1:30:00 AM 11.54 52.772 0.232 7.77 1.59 5.72
5/2/2022 1:45:00 AM 11.53 52.754 0.232 7.77 1.57 5.7
5/2/2022 2:00:00 AM 11.53 52.754 0.232 7.78 1.59 5.7
5/2/2022 2:15:00 AM 11.53 52.754 0.232 7.77 1.55 5.7
5/2/2022 2:30:00 AM 11.53 52.754 0.232 7.78 1.56 5.7
5/2/2022 2:45:00 AM 11.53 52.754 0.232 7.76 1.57 5.67
5/2/2022 3:00:00 AM 11.53 52.754 0.232 7.77 1.51 5.67
5/2/2022 3:15:00 AM 11.53 52.754 0.232 7.75 1.55 5.68
5/2/2022 3:30:00 AM 11.52 52.736 0.232 7.76 1.51 5.67
5/2/2022 3:45:00 AM 11.52 52.736 0.232 7.76 1.49 5.66
5/2/2022 4:00:00 AM 11.52 52.736 0.232 7.76 1.5 5.65
5/2/2022 4:15:00 AM 11.52 52.736 0.233 7.76 1.5 5.65
5/2/2022 4:30:00 AM 11.52 52.736 0.233 7.75 1.5 5.65
5/2/2022 4:45:00 AM 11.52 52.736 0.233 7.8 1.48 5.64
5/2/2022 5:00:00 AM 11.52 52.736 0.233 7.74 1.5 5.65
5/2/2022 5:15:00 AM 11.51 52.718 0.233 7.75 1.51 5.65
5/2/2022 5:30:00 AM 11.52 52.736 0.232 7.76 1.62 5.65
5/2/2022 5:45:00 AM 11.44 52.592 0.229 7.68 2.89 5.93
5/2/2022 6:00:00 AM 11.74 53.132 0.232 7.78 2.89 6.03
5/2/2022 6:15:00 AM 11.97 53.546 0.231 7.88 2.78 6.05
5/2/2022 6:30:00 AM 12.04 53.672 0.231 7.88 3.46 6.04
5/2/2022 6:45:00 AM 12.07 53.726 0.232 7.91 3 6.05
5/2/2022 7:00:00 AM 12.09 53.762 0.232 7.92 3.13 6.07
5/2/2022 7:15:00 AM 12.1 53.78 0.232 7.93 2.83 6.08
5/2/2022 7:30:00 AM 12.1 53.78 0.233 7.93 2.53 6.09
5/2/2022 7:45:00 AM 12.11 53.798 0.233 7.93 2.78 6.1
5/2/2022 8:00:00 AM 12.11 53.798 0.233 7.94 2.4 6.11
5/2/2022 8:15:00 AM 12.11 53.798 0.233 7.93 2.44 6.12
5/2/2022 8:30:00 AM 12.11 53.798 0.234 7.95 2.81 6.15
5/2/2022 8:45:00 AM 12.12 53.816 0.234 7.94 2.62 6.17
5/2/2022 9:00:00 AM 12.13 53.834 0.234 7.95 2.98 6.18
5/2/2022 9:15:00 AM 12.15 53.87 0.234 7.94 2.71 6.2
5/2/2022 9:30:00 AM 12.16 53.888 0.235 7.96 2.81 6.23
5/2/2022 9:45:00 AM 12.17 53.906 0.235 7.95 3.36 6.24
5/2/2022 10:00:00 AM 12.18 53.924 0.235 7.95 2.76 6.24
5/2/2022 10:15:00 AM 12.2 53.96 0.235 7.96 2.6 6.26
5/2/2022 10:30:00 AM 12.21 53.978 0.236 7.97 2.52 6.25
5/2/2022 10:45:00 AM 12.23 54.014 0.236 7.99 2.61 6.27
5/2/2022 11:00:00 AM 12.25 54.05 0.236 7.99 2.39 6.28
5/2/2022 11:15:00 AM 12.26 54.068 0.236 7.97 2.31 6.28
5/2/2022 11:30:00 AM 12.27 54.086 0.236 8 2.35 6.29
5/2/2022 11:45:00 AM 12.3 54.14 0.237 7.97 2.23 6.29
5/2/2022 12:00:00 PM 12.33 54.194 0.237 8 2.14 6.27
5/2/2022 12:15:00 PM 12.36 54.248 0.237 7.98 2.42 6.28
5/2/2022 12:30:00 PM 12.39 54.302 0.237 7.98 2.21 6.28
5/2/2022 12:45:00 PM 12.42 54.356 0.238 7.98 2.04 6.27
5/2/2022 1:00:00 PM 12.43 54.374 0.238 7.98 2.08 6.25
5/2/2022 1:15:00 PM 12.44 54.392 0.238 7.97 1.98 6.25
5/2/2022 1:30:00 PM 12.45 54.41 0.238 7.95 1.97 6.23
5/2/2022 1:45:00 PM 12.46 54.428 0.238 7.95 1.78 6.21
5/2/2022 2:00:00 PM 12.46 54.428 0.238 7.94 1.74 6.2
5/2/2022 2:15:00 PM 12.46 54.428 0.238 7.94 1.71 6.2
5/2/2022 2:30:00 PM 12.46 54.428 0.238 7.94 1.72 6.21
5/2/2022 2:45:00 PM 12.46 54.428 0.238 7.94 1.76 6.2
5/2/2022 3:00:00 PM 12.46 54.428 0.238 7.92 1.71 6.24
5/2/2022 3:15:00 PM 12.46 54.428 0.238 7.93 1.77 6.25
5/2/2022 3:30:00 PM 12.45 54.41 0.238 7.94 1.73 6.27
5/2/2022 3:45:00 PM 12.45 54.41 0.238 7.93 1.7 6.28
5/2/2022 4:00:00 PM 12.45 54.41 0.238 7.93 1.71 6.28
5/2/2022 4:15:00 PM 12.44 54.392 0.238 7.92 1.71 6.29
5/2/2022 4:30:00 PM 12.44 54.392 0.238 7.92 1.71 6.27
5/2/2022 4:45:00 PM 12.43 54.374 0.238 7.92 1.67 6.29
5/2/2022 5:00:00 PM 12.43 54.374 0.239 7.92 1.66 6.29
5/2/2022 5:15:00 PM 12.43 54.374 0.239 7.94 1.66 6.3
5/2/2022 5:30:00 PM 12.42 54.356 0.239 7.91 1.66 6.27
5/2/2022 5:45:00 PM 12.42 54.356 0.239 7.92 1.65 6.29
5/2/2022 6:00:00 PM 12.42 54.356 0.239 7.92 1.68 6.28
5/2/2022 6:15:00 PM 12.41 54.338 0.239 7.91 1.64 6.26
5/2/2022 6:30:00 PM 12.41 54.338 0.239 7.9 1.65 6.28
5/2/2022 6:45:00 PM 12.4 54.32 0.239 7.9 1.64 6.29
5/2/2022 7:00:00 PM 12.4 54.32 0.239 7.89 1.64 6.29
5/2/2022 7:15:00 PM 12.4 54.32 0.239 7.9 1.63 6.31
5/2/2022 7:30:00 PM 12.39 54.302 0.239 7.89 1.68 6.3
5/2/2022 7:45:00 PM 12.39 54.302 0.239 7.9 1.6 6.27
5/2/2022 8:00:00 PM 12.39 54.302 0.239 7.88 1.58 6.28
5/2/2022 8:15:00 PM 12.38 54.284 0.239 7.89 1.63 6.27
5/2/2022 8:30:00 PM 12.38 54.284 0.239 7.87 1.58 6.25
5/2/2022 8:45:00 PM 12.38 54.284 0.239 7.88 1.57 6.27
5/2/2022 9:00:00 PM 12.37 54.266 0.239 7.87 1.55 6.26
5/2/2022 9:15:00 PM 12.37 54.266 0.239 7.86 1.55 6.26
5/2/2022 9:30:00 PM 12.37 54.266 0.239 7.88 1.53 6.25
5/2/2022 9:45:00 PM 12.37 54.266 0.239 7.9 1.54 6.25
5/2/2022 10:00:00 PM 12.36 54.248 0.239 7.84 1.53 6.24
5/2/2022 10:15:00 PM 12.36 54.248 0.239 7.87 1.53 6.24
5/2/2022 10:30:00 PM 12.36 54.248 0.239 7.86 1.52 6.24
5/2/2022 10:45:00 PM 12.36 54.248 0.239 7.85 1.53 6.22
5/2/2022 11:00:00 PM 12.35 54.23 0.239 7.86 1.57 6.23
5/2/2022 11:15:00 PM 12.35 54.23 0.239 7.86 1.54 6.24
5/2/2022 11:30:00 PM 12.35 54.23 0.239 7.87 1.52 6.25
5/2/2022 11:45:00 PM 12.35 54.23 0.239 7.85 1.53 6.25
5/3/2022 12:00:00 AM 12.34 54.212 0.239 7.89 1.49 6.23
5/3/2022 12:15:00 AM 12.34 54.212 0.239 7.85 1.47 6.22
5/3/2022 12:30:00 AM 12.34 54.212 0.239 7.84 1.5 6.23
5/3/2022 12:45:00 AM 12.34 54.212 0.239 7.84 1.48 6.22
5/3/2022 1:00:00 AM 12.33 54.194 0.239 7.84 1.46 6.21
5/3/2022 1:15:00 AM 12.33 54.194 0.239 7.85 1.49 6.21
5/3/2022 1:30:00 AM 12.33 54.194 0.239 7.82 1.49 6.22
5/3/2022 1:45:00 AM 12.33 54.194 0.239 7.84 1.47 6.2
5/3/2022 2:00:00 AM 12.32 54.176 0.239 7.85 1.49 6.2
5/3/2022 2:15:00 AM 12.32 54.176 0.239 7.83 1.47 6.19
5/3/2022 2:30:00 AM 12.32 54.176 0.239 7.85 1.45 6.19
5/3/2022 2:45:00 AM 12.32 54.176 0.239 7.82 1.43 6.18
5/3/2022 3:00:00 AM 12.32 54.176 0.239 7.81 1.41 5.93
5/3/2022 3:15:00 AM 12.31 54.158 0.239 7.84 1.43 5.87
5/3/2022 3:30:00 AM 12.31 54.158 0.239 7.82 1.4 5.88
5/3/2022 3:45:00 AM 12.31 54.158 0.239 7.81 1.44 5.91
5/3/2022 4:00:00 AM 12.31 54.158 0.239 7.82 1.41 5.89
5/3/2022 4:15:00 AM 12.3 54.14 0.239 7.82 1.41 5.92
5/3/2022 4:30:00 AM 12.3 54.14 0.239 7.81 1.46 5.91
5/3/2022 4:45:00 AM 12.3 54.14 0.239 7.81 1.41 5.9
5/3/2022 5:00:00 AM 12.3 54.14 0.239 7.82 1.42 5.83
5/3/2022 5:15:00 AM 12.3 54.14 0.239 7.81 1.42 5.56
5/3/2022 5:30:00 AM 12.29 54.122 0.239 7.8 1.42 5.51
5/3/2022 5:45:00 AM 12.29 54.122 0.239 7.8 1.39 5.53
5/3/2022 6:00:00 AM 12.27 54.086 0.238 7.79 1.97 5.62
5/3/2022 6:15:00 AM 12.23 54.014 0.24 7.74 2.31 5.8
5/3/2022 6:30:00 AM 12.34 54.212 0.241 7.78 2.34 5.84
5/3/2022 6:45:00 AM 12.44 54.392 0.242 7.85 2.49 5.87
5/3/2022 7:00:00 AM 12.51 54.518 0.242 7.91 2.32 5.88
5/3/2022 7:15:00 AM 12.53 54.554 0.242 7.95 2.8 5.89
5/3/2022 7:30:00 AM 12.54 54.572 0.242 7.97 2.59 5.92
5/3/2022 7:45:00 AM 12.54 54.572 0.242 7.98 2.4 5.92
5/3/2022 8:00:00 AM 12.54 54.572 0.242 7.95 2.12 5.91
5/3/2022 8:15:00 AM 12.54 54.572 0.238 7.94 2.12 5.86
5/3/2022 8:30:00 AM 12.55 54.59 0.241 7.98 2.28 5.93
5/3/2022 8:45:00 AM 12.58 54.644 0.241 8 2.6 5.95
5/3/2022 9:00:00 AM 12.6 54.68 0.241 8 2.68 5.95
5/3/2022 9:15:00 AM 12.64 54.752 0.241 8 2.49 5.96
5/3/2022 9:30:00 AM 12.69 54.842 0.241 8.02 2.5 5.97
5/3/2022 9:45:00 AM 12.73 54.914 0.241 8.02 2.78 5.96
5/3/2022 10:00:00 AM 12.79 55.022 0.241 8.03 2.43 5.98
5/3/2022 10:15:00 AM 12.83 55.094 0.241 8.04 2.5 5.98
5/3/2022 10:30:00 AM 12.89 55.202 0.241 8.05 2.56 5.98
5/3/2022 10:45:00 AM 12.94 55.292 0.241 8.05 2.13 5.97
5/3/2022 11:00:00 AM 13 55.4 0.241 8.05 2.48 5.99
5/3/2022 11:15:00 AM 13.06 55.508 0.241 8.08 2.42 6
5/3/2022 11:30:00 AM 13.13 55.634 0.241 8.06 2.34 5.93
5/3/2022 11:45:00 AM 13.2 55.76 0.242 8.07 2.46 5.9
5/3/2022 12:00:00 PM 13.29 55.922 0.242 8.07 2.65 5.85
5/3/2022 12:15:00 PM 13.35 56.03 0.242 8.1 2.37 5.81
5/3/2022 12:30:00 PM 13.4 56.12 0.242 8.1 2.52 5.72
5/3/2022 12:45:00 PM 13.45 56.21 0.242 8.11 2.9 5.67
5/3/2022 1:00:00 PM 13.51 56.318 0.242 8.11 2.62 5.51
5/3/2022 1:15:00 PM 13.58 56.444 0.242 8.12 2.6 5.39
5/3/2022 1:30:00 PM 13.65 56.57 0.242 8.13 2.49 5.32
5/3/2022 1:45:00 PM 13.73 56.714 0.242 8.15 2.57 5.24
5/3/2022 2:00:00 PM 13.81 56.858 0.243 8.15 2.33 5.23
5/3/2022 2:15:00 PM 13.85 56.93 0.243 8.16 2.41 5.24
5/3/2022 2:30:00 PM 13.85 56.93 0.242 8.18 2.08 5.21
5/3/2022 2:45:00 PM 13.85 56.93 0.243 8.13 1.89 5.2
5/3/2022 3:00:00 PM 13.86 56.948 0.243 8.11 1.81 5.2
5/3/2022 3:15:00 PM 13.85 56.93 0.243 8.1 1.74 5.21
5/3/2022 3:30:00 PM 13.85 56.93 0.243 8.14 1.71 5.22
5/3/2022 3:45:00 PM 13.84 56.912 0.243 8.09 1.73 5.23
5/3/2022 4:00:00 PM 13.83 56.894 0.243 8.1 1.67 5.25
5/3/2022 4:15:00 PM 13.82 56.876 0.243 8.1 1.76 5.26
5/3/2022 4:30:00 PM 13.82 56.876 0.243 8.08 1.72 5.26
5/3/2022 4:45:00 PM 13.81 56.858 0.243 8.08 1.66 5.27
5/3/2022 5:00:00 PM 13.8 56.84 0.243 8.05 1.63 5.27
5/3/2022 5:15:00 PM 13.79 56.822 0.243 8.05 1.63 5.26
5/3/2022 5:30:00 PM 13.79 56.822 0.243 8.06 1.62 5.27
5/3/2022 5:45:00 PM 13.78 56.804 0.243 8.04 1.63 5.25
5/3/2022 6:00:00 PM 13.77 56.786 0.243 8.05 1.6 5.26
5/3/2022 6:15:00 PM 13.77 56.786 0.243 8.02 1.62 5.27
5/3/2022 6:30:00 PM 13.76 56.768 0.243 8.06 1.67 5.27
5/3/2022 6:45:00 PM 13.76 56.768 0.243 8.02 1.6 5.27
5/3/2022 7:00:00 PM 13.75 56.75 0.243 8.02 1.61 5.22
5/3/2022 7:15:00 PM 13.74 56.732 0.243 8.02 1.56 5.23
5/3/2022 7:30:00 PM 13.74 56.732 0.243 8.02 1.52 5.23
5/3/2022 7:45:00 PM 13.73 56.714 0.243 8.01 1.52 5.21
5/3/2022 8:00:00 PM 13.73 56.714 0.243 8 1.53 5.2
5/3/2022 8:15:00 PM 13.72 56.696 0.243 8.03 1.53 5.2
5/3/2022 8:30:00 PM 13.72 56.696 0.243 7.98 1.49 5.2
5/3/2022 8:45:00 PM 13.71 56.678 0.243 7.98 1.54 5.19
5/3/2022 9:00:00 PM 13.71 56.678 0.243 7.98 1.57 5.18
5/3/2022 9:15:00 PM 13.7 56.66 0.243 7.97 1.54 5.15
5/3/2022 9:30:00 PM 13.7 56.66 0.243 7.98 1.52 5.14
5/3/2022 9:45:00 PM 13.69 56.642 0.243 7.95 1.48 5.13
5/3/2022 10:00:00 PM 13.69 56.642 0.243 7.97 1.48 5.12
5/3/2022 10:15:00 PM 13.68 56.624 0.243 7.96 1.49 5.11
5/3/2022 10:30:00 PM 13.68 56.624 0.243 7.97 1.51 5.12
5/3/2022 10:45:00 PM 13.67 56.606 0.243 7.94 1.52 5.1
5/3/2022 11:00:00 PM 13.67 56.606 0.243 7.94 1.52 5.1
5/3/2022 11:15:00 PM 13.66 56.588 0.243 7.94 1.51 5.08
5/3/2022 11:30:00 PM 13.66 56.588 0.243 7.94 1.49 5.07
5/3/2022 11:45:00 PM 13.65 56.57 0.243 7.93 1.45 5.06
5/4/2022 12:00:00 AM 13.65 56.57 0.243 7.92 1.46 5.06
5/4/2022 12:15:00 AM 13.64 56.552 0.244 7.91 1.45 5.03
5/4/2022 12:30:00 AM 13.64 56.552 0.244 7.92 1.46 5.03
5/4/2022 12:45:00 AM 13.64 56.552 0.244 7.91 1.43 5.02
5/4/2022 1:00:00 AM 13.63 56.534 0.244 7.9 1.43 5.01
5/4/2022 1:15:00 AM 13.63 56.534 0.244 7.9 1.42 4.99
5/4/2022 1:30:00 AM 13.62 56.516 0.244 7.89 1.43 4.98
5/4/2022 1:45:00 AM 13.62 56.516 0.244 7.89 1.45 4.98
5/4/2022 2:00:00 AM 13.62 56.516 0.244 7.89 1.44 4.97
5/4/2022 2:15:00 AM 13.61 56.498 0.244 7.9 1.42 4.94
5/4/2022 2:30:00 AM 13.61 56.498 0.244 7.88 1.43 4.95
5/4/2022 2:45:00 AM 13.6 56.48 0.244 7.88 1.39 4.95
5/4/2022 3:00:00 AM 13.6 56.48 0.244 7.87 1.45 4.93
5/4/2022 3:15:00 AM 13.6 56.48 0.244 7.87 1.38 4.94
5/4/2022 3:30:00 AM 13.59 56.462 0.244 7.91 1.41 4.91
5/4/2022 3:45:00 AM 13.59 56.462 0.244 7.9 1.4 4.91
5/4/2022 4:00:00 AM 13.59 56.462 0.244 7.83 1.35 4.9
5/4/2022 4:15:00 AM 13.58 56.444 0.244 7.84 1.36 4.87
5/4/2022 4:30:00 AM 13.58 56.444 0.244 7.86 1.39 4.86
5/4/2022 4:45:00 AM 13.57 56.426 0.244 7.84 1.35 4.84
5/4/2022 5:00:00 AM 13.57 56.426 0.244 7.84 1.37 4.82
5/4/2022 5:15:00 AM 13.57 56.426 0.244 7.84 1.37 4.81
5/4/2022 5:30:00 AM 13.56 56.408 0.244 7.84 1.34 4.77
5/4/2022 5:45:00 AM 13.56 56.408 0.244 7.84 1.34 4.79
5/4/2022 6:00:00 AM 13.56 56.408 0.244 7.85 1.38 4.77
5/4/2022 6:15:00 AM 13.54 56.372 0.24 7.8 1.57 4.74
5/4/2022 6:30:00 AM 13.44 56.192 0.247 7.84 2 4.91
5/4/2022 6:45:00 AM 13.64 56.552 0.249 7.93 3.2 4.83
5/4/2022 7:00:00 AM 13.76 56.768 0.251 8 2.58 4.82
5/4/2022 7:15:00 AM 13.8 56.84 0.252 8.02 2.77 4.81
5/4/2022 7:30:00 AM 13.8 56.84 0.251 8.03 2.72 4.79
5/4/2022 7:45:00 AM 13.79 56.822 0.251 8.03 2.36 4.78
5/4/2022 8:00:00 AM 13.77 56.786 0.251 8.02 2.25 4.78
5/4/2022 8:15:00 AM 13.76 56.768 0.251 8.03 2.26 4.77
5/4/2022 8:30:00 AM 13.74 56.732 0.251 8.06 2.4 4.77
5/4/2022 8:45:00 AM 13.74 56.732 0.251 8.03 2.57 4.77
5/4/2022 9:00:00 AM 13.73 56.714 0.251 8.03 2.28 4.77
5/4/2022 9:15:00 AM 13.73 56.714 0.251 8.03 2.32 4.52
5/4/2022 9:30:00 AM 13.73 56.714 0.251 8.04 2.18 4.38
5/4/2022 9:45:00 AM 13.73 56.714 0.251 8.05 2.3 4.37
5/4/2022 10:00:00 AM 13.73 56.714 0.25 8.05 2.25 4.01
5/4/2022 10:15:00 AM 13.73 56.714 0.25 8.05 2.21 4.02
5/4/2022 10:30:00 AM 13.73 56.714 0.25 8.05 2.08 4.03
5/4/2022 10:45:00 AM 13.73 56.714 0.25 8.06 2.59 4
5/4/2022 11:00:00 AM 13.73 56.714 0.25 8.08 2.59 4.04
5/4/2022 11:15:00 AM 13.73 56.714 0.25 8.08 2.38 4.04
5/4/2022 11:30:00 AM 13.73 56.714 0.25 8.09 2.34 4.02
5/4/2022 11:45:00 AM 13.74 56.732 0.25 8.09 2.39 4.04
5/4/2022 12:00:00 PM 13.75 56.75 0.25 8.1 2.36 3.96
5/4/2022 12:15:00 PM 13.77 56.786 0.25 8.11 2.54 3.94
5/4/2022 12:30:00 PM 13.78 56.804 0.25 8.12 2.21 3.83
5/4/2022 12:45:00 PM 13.8 56.84 0.25 8.12 2.62 3.83
5/4/2022 1:00:00 PM 13.83 56.894 0.25 8.15 2.96 3.83
5/4/2022 1:15:00 PM 13.85 56.93 0.249 8.15 2.3 3.86
5/4/2022 1:30:00 PM 13.86 56.948 0.249 8.13 2.58 3.87
5/4/2022 1:45:00 PM 13.9 57.02 0.249 8.15 2.91 3.89
5/4/2022 2:00:00 PM 13.94 57.092 0.249 8.16 2.73 3.9
5/4/2022 2:15:00 PM 13.97 57.146 0.249 8.17 2.32 3.87
5/4/2022 2:30:00 PM 13.97 57.146 0.249 8.17 1.99 3.89
5/4/2022 2:45:00 PM 13.98 57.164 0.249 8.11 1.71 3.87
5/4/2022 3:00:00 PM 13.98 57.164 0.249 8.11 1.69 3.9
5/4/2022 3:15:00 PM 13.98 57.164 0.249 8.1 1.74 3.87
5/4/2022 3:30:00 PM 13.98 57.164 0.249 8.09 1.64 3.85
5/4/2022 3:45:00 PM 13.98 57.164 0.249 8.1 1.61 3.87
5/4/2022 4:00:00 PM 13.97 57.146 0.249 8.08 1.58 3.81
5/4/2022 4:15:00 PM 13.97 57.146 0.249 8.08 1.67 3.78
5/4/2022 4:30:00 PM 13.97 57.146 0.249 8.09 1.67 3.78
5/4/2022 4:45:00 PM 13.96 57.128 0.249 8.08 1.6 3.8
5/4/2022 5:00:00 PM 13.96 57.128 0.249 8.08 1.63 3.8
5/4/2022 5:15:00 PM 13.95 57.11 0.249 8.05 1.65 3.8
5/4/2022 5:30:00 PM 13.95 57.11 0.249 8.08 1.59 3.77
5/4/2022 5:45:00 PM 13.94 57.092 0.249 8.05 1.58 3.77
5/4/2022 6:00:00 PM 13.94 57.092 0.249 8.05 1.62 3.78
5/4/2022 6:15:00 PM 13.93 57.074 0.249 8.06 1.58 3.75
5/4/2022 6:30:00 PM 13.93 57.074 0.249 8.01 1.59 3.78
5/4/2022 6:45:00 PM 13.93 57.074 0.249 8.05 1.6 3.77
5/4/2022 7:00:00 PM 13.92 57.056 0.249 8.02 1.61 3.79
5/4/2022 7:15:00 PM 13.92 57.056 0.249 8.04 1.57 3.8
5/4/2022 7:30:00 PM 13.91 57.038 0.249 8.02 1.53 3.79
5/4/2022 7:45:00 PM 13.91 57.038 0.249 8.04 1.63 3.85
5/4/2022 8:00:00 PM 13.9 57.02 0.249 8.01 1.5 3.79
5/4/2022 8:15:00 PM 13.9 57.02 0.249 8.03 1.58 3.78
5/4/2022 8:30:00 PM 13.9 57.02 0.249 8.03 1.56 3.79
5/4/2022 8:45:00 PM 13.89 57.002 0.249 8.02 1.46 3.8
5/4/2022 9:00:00 PM 13.89 57.002 0.249 8.01 1.53 3.82
5/4/2022 9:15:00 PM 13.89 57.002 0.249 8 1.52 3.82
5/4/2022 9:30:00 PM 13.88 56.984 0.249 8.01 1.53 3.85
5/4/2022 9:45:00 PM 13.88 56.984 0.249 7.99 1.52 3.81
5/4/2022 10:00:00 PM 13.87 56.966 0.249 8 1.52 3.81
5/4/2022 10:15:00 PM 13.87 56.966 0.25 7.98 1.51 3.8
5/4/2022 10:30:00 PM 13.86 56.948 0.249 8 1.55 3.8
5/4/2022 10:45:00 PM 13.86 56.948 0.249 8 1.55 3.78
5/4/2022 11:00:00 PM 13.86 56.948 0.25 7.95 1.51 3.8
5/4/2022 11:15:00 PM 13.85 56.93 0.25 7.97 1.46 3.8
5/4/2022 11:30:00 PM 13.85 56.93 0.25 7.94 1.49 3.8
5/4/2022 11:45:00 PM 13.85 56.93 0.25 7.94 1.54 3.81
5/5/2022 12:00:00 AM 13.84 56.912 0.25 7.94 1.62 3.78
5/5/2022 12:15:00 AM 13.84 56.912 0.25 7.97 1.53 3.83
5/5/2022 12:30:00 AM 13.84 56.912 0.25 7.94 1.51 3.8
5/5/2022 12:45:00 AM 13.83 56.894 0.25 7.94 1.47 3.8
5/5/2022 1:00:00 AM 13.83 56.894 0.25 7.95 1.55 3.79
5/5/2022 1:15:00 AM 13.83 56.894 0.25 7.9 1.47 3.78
5/5/2022 1:30:00 AM 13.82 56.876 0.25 7.93 1.47 3.81
5/5/2022 1:45:00 AM 13.82 56.876 0.25 7.9 1.46 3.82
5/5/2022 2:00:00 AM 13.82 56.876 0.25 7.92 1.47 3.79
5/5/2022 2:15:00 AM 13.81 56.858 0.25 7.89 1.4 3.79
5/5/2022 2:30:00 AM 13.81 56.858 0.25 7.91 1.43 3.81
5/5/2022 2:45:00 AM 13.81 56.858 0.25 7.88 1.45 3.79
5/5/2022 3:00:00 AM 13.8 56.84 0.25 7.88 1.69 3.82
5/5/2022 3:15:00 AM 13.8 56.84 0.25 7.88 1.38 3.78
5/5/2022 3:30:00 AM 13.8 56.84 0.25 7.89 1.38 3.79
5/5/2022 3:45:00 AM 13.79 56.822 0.25 7.9 1.36 3.82
5/5/2022 4:00:00 AM 13.79 56.822 0.25 7.86 1.38 3.81
5/5/2022 4:15:00 AM 13.79 56.822 0.25 7.87 1.33 3.79
5/5/2022 4:30:00 AM 13.78 56.804 0.25 7.86 1.36 3.79
5/5/2022 4:45:00 AM 13.78 56.804 0.25 7.86 1.38 3.79
5/5/2022 5:00:00 AM 13.78 56.804 0.25 7.89 1.35 3.79
5/5/2022 5:15:00 AM 13.77 56.786 0.25 7.89 1.43 3.8
5/5/2022 5:30:00 AM 13.77 56.786 0.25 7.88 1.37 3.81
5/5/2022 5:45:00 AM 13.77 56.786 0.25 7.84 1.36 3.8
5/5/2022 6:00:00 AM 13.75 56.75 0.246 7.87 1.86 3.86
5/5/2022 6:15:00 AM 13.6 56.48 0.253 7.85 2.77 3.96
5/5/2022 6:30:00 AM 13.8 56.84 0.257 7.96 2.49 3.93
5/5/2022 6:45:00 AM 13.92 57.056 0.258 8.02 2.36 3.92
5/5/2022 7:00:00 AM 13.96 57.128 0.259 8.04 2.44 3.91
5/5/2022 7:15:00 AM 13.97 57.146 0.259 8.06 2.54 3.87
5/5/2022 7:30:00 AM 13.98 57.164 0.26 8.06 2.28 3.91
5/5/2022 7:45:00 AM 14 57.2 0.26 8.1 2.64 3.93
5/5/2022 8:00:00 AM 14.01 57.218 0.26 8.08 2.28 3.87
5/5/2022 8:15:00 AM 14.03 57.254 0.26 8.1 2.14 3.96
5/5/2022 8:30:00 AM 14.05 57.29 0.26 8.1 1.96 3.99
5/5/2022 8:45:00 AM 14.08 57.344 0.189 8.12 2.15 3.99
5/5/2022 9:00:00 AM 14.12 57.416 0.26 8.16 2.17 4.09
5/5/2022 9:15:00 AM 14.17 57.506 0.26 8.13 2.11 4.02
5/5/2022 9:30:00 AM 14.19 57.542 0.261 8.16 2.13 4.06
5/5/2022 9:45:00 AM 14.23 57.614 0.26 8.15 2.32 4.18
5/5/2022 10:00:00 AM 14.28 57.704 0.26 8.17 2.07 4.17
5/5/2022 10:15:00 AM 14.34 57.812 0.261 8.18 2 4.25
5/5/2022 10:30:00 AM 14.39 57.902 0.258 8.21 2.17 4.25
5/5/2022 10:45:00 AM 14.44 57.992 0.261 8.22 2.65 4.31
5/5/2022 11:00:00 AM 14.49 58.082 0.261 8.23 2.16 4.37
5/5/2022 11:15:00 AM 14.55 58.19 0.26 8.23 2.15 4.4
5/5/2022 11:30:00 AM 14.6 58.28 0.26 8.24 2.01 4.46
5/5/2022 11:45:00 AM 14.68 58.424 0.255 8.26 2.2 4.53
5/5/2022 12:00:00 PM 14.74 58.532 0.26 8.28 2.17 4.57
5/5/2022 12:15:00 PM 14.82 58.676 0.261 8.3 2.28 4.62
5/5/2022 12:30:00 PM 14.86 58.748 0.261 8.3 2.26 4.82
5/5/2022 12:45:00 PM 14.96 58.928 0.261 8.32 2.53 4.88
5/5/2022 1:00:00 PM 15.04 59.072 0.261 8.36 2.14 4.93
5/5/2022 1:15:00 PM 15.12 59.216 0.261 8.37 2.39 4.95
5/5/2022 1:30:00 PM 15.17 59.306 0.247 8.37 2.16 5.01
5/5/2022 1:45:00 PM 15.23 59.414 0.261 8.4 2.17 5.12
5/5/2022 2:00:00 PM 15.28 59.504 0.261 8.38 2.3 5.1
5/5/2022 2:15:00 PM 15.34 59.612 0.261 8.44 2.24 4.46
5/5/2022 2:30:00 PM 15.34 59.612 0.26 8.41 1.85 4.42
5/5/2022 2:45:00 PM 15.35 59.63 0.259 8.39 1.85 4.42
5/5/2022 3:00:00 PM 15.34 59.612 0.261 8.35 1.98 4.4
5/5/2022 3:15:00 PM 15.34 59.612 0.26 8.33 1.79 4.42
5/5/2022 3:30:00 PM 15.34 59.612 0.261 8.34 1.72 4.52
5/5/2022 3:45:00 PM 15.33 59.594 0.26 8.32 1.85 4.49
5/5/2022 4:00:00 PM 15.32 59.576 0.261 8.32 1.5 4.55
5/5/2022 4:15:00 PM 15.31 59.558 0.257 8.31 1.73 4.63
5/5/2022 4:30:00 PM 15.3 59.54 0.251 8.31 1.51 4.66
5/5/2022 4:45:00 PM 15.3 59.54 0.251 8.29 1.71 4.85
5/5/2022 5:00:00 PM 15.29 59.522 0.261 8.3 1.79 4.85
5/5/2022 5:15:00 PM 15.28 59.504 0.261 8.27 1.68 4.91
5/5/2022 5:30:00 PM 15.27 59.486 0.102 8.27 1.58 4.94
5/5/2022 5:45:00 PM 15.27 59.486 0.261 8.27 1.63 4.98
5/5/2022 6:00:00 PM 15.26 59.468 0.242 8.27 1.67 5.02
5/5/2022 6:15:00 PM 15.25 59.45 0.26 8.26 1.69 5.08
5/5/2022 6:30:00 PM 15.24 59.432 0.26 8.24 1.68 5.11
5/5/2022 6:45:00 PM 15.24 59.432 0.143 8.15 1.61 5.13
5/5/2022 7:00:00 PM 15.23 59.414 0.261 8.19 1.44 5.15
5/5/2022 7:15:00 PM 15.22 59.396 0.261 8.21 1.57 5.18
5/5/2022 7:30:00 PM 15.22 59.396 0.16 8.16 1.52 5.22
5/5/2022 7:45:00 PM 15.21 59.378 0.261 8.19 1.76 5.26
5/5/2022 8:00:00 PM 15.2 59.36 0.262 8.18 1.55 5.28
5/5/2022 8:15:00 PM 15.2 59.36 0.26 8.18 1.46 5.32
5/5/2022 8:30:00 PM 15.19 59.342 0.262 8.16 1.63 5.34
5/5/2022 8:45:00 PM 15.19 59.342 0.262 8.14 1.6 5.35
5/5/2022 9:00:00 PM 15.18 59.324 0.261 8.12 1.7 5.39
5/5/2022 9:15:00 PM 15.17 59.306 0.262 8.1 1.61 5.39
5/5/2022 9:30:00 PM 15.17 59.306 0.261 8.12 1.74 5.42
5/5/2022 9:45:00 PM 15.16 59.288 0.261 8.1 1.83 5.44
5/5/2022 10:00:00 PM 15.16 59.288 0.259 8.05 1.68 5.48
5/5/2022 10:15:00 PM 15.15 59.27 0.262 8.07 1.57 5.48
5/5/2022 10:30:00 PM 15.15 59.27 0.262 8.08 1.44 5.54
5/5/2022 10:45:00 PM 15.14 59.252 0.26 8.06 1.61 5.51
5/5/2022 11:00:00 PM 15.13 59.234 0.257 8.02 1.86 5.53
5/5/2022 11:15:00 PM 15.13 59.234 0.261 8.06 1.59 5.54
5/5/2022 11:30:00 PM 15.12 59.216 0.261 8.06 1.71 5.53
5/5/2022 11:45:00 PM 15.12 59.216 0.262 8.03 1.42 5.56
5/6/2022 12:00:00 AM 15.11 59.198 0.261 8.01 1.54 5.55
5/6/2022 12:15:00 AM 15.1 59.18 0.262 8.03 1.55 5.59
5/6/2022 12:30:00 AM 15.1 59.18 0.262 8.01 1.63 5.57
5/6/2022 12:45:00 AM 15.09 59.162 0.262 8.03 1.82 5.5
5/6/2022 1:00:00 AM 15.09 59.162 0.262 8 1.56 5.36
5/6/2022 1:15:00 AM 15.08 59.144 0.262 7.97 1.55 5.43
5/6/2022 1:30:00 AM 15.08 59.144 0.262 8.02 1.5 5.47
5/6/2022 1:45:00 AM 15.08 59.144 0.15 8 1.38 5.49
5/6/2022 2:00:00 AM 15.07 59.126 0.262 7.99 1.71 5.48
5/6/2022 2:15:00 AM 15.07 59.126 0.262 8 1.54 5.49
5/6/2022 2:30:00 AM 15.06 59.108 0.262 7.99 1.44 5.52
5/6/2022 2:45:00 AM 15.06 59.108 0.262 7.97 2.93 5.51
5/6/2022 3:00:00 AM 15.05 59.09 0.262 7.98 1.54 5.55
5/6/2022 3:15:00 AM 15.05 59.09 0.263 7.99 1.51 5.53
5/6/2022 3:30:00 AM 15.04 59.072 0.263 7.91 1.64 5.54
5/6/2022 3:45:00 AM 15.04 59.072 0.263 7.96 1.48 5.54
5/6/2022 4:00:00 AM 15.03 59.054 0.262 7.95 1.57 5.54
5/6/2022 4:15:00 AM 15.03 59.054 0.155 7.95 1.5 5.56
5/6/2022 4:30:00 AM 15.02 59.036 0.262 7.96 1.73 5.55
5/6/2022 4:45:00 AM 15.02 59.036 0.263 7.93 1.45 5.43
5/6/2022 5:00:00 AM 15.01 59.018 0.263 7.94 1.34 5.48
5/6/2022 5:15:00 AM 15.01 59.018 0.263 7.94 1.38 5.39
5/6/2022 5:30:00 AM 15 59 0.263 7.94 1.33 5.32
5/6/2022 5:45:00 AM 15 59 0.263 7.93 1.25 5.28
5/6/2022 6:00:00 AM 15 59 0.146 7.94 2.28 5.19
5/6/2022 6:15:00 AM 14.72 58.496 0.259 7.92 2.52 5.41
5/6/2022 6:30:00 AM 14.94 58.892 0.258 8.05 2.5 5.51
5/6/2022 6:45:00 AM 15.08 59.144 0.257 8.1 2.02 5.37
5/6/2022 7:00:00 AM 15.12 59.216 0.257 8.12 1.89 5.28
5/6/2022 7:15:00 AM 15.14 59.252 0.255 8.14 2.02 5.23
5/6/2022 7:30:00 AM 15.13 59.234 0.255 8.14 2.35 5.28
5/6/2022 7:45:00 AM 15.11 59.198 0.18 8.14 2.39 5.37
5/6/2022 8:00:00 AM 15.09 59.162 0.255 8.15 2.09 5.48
5/6/2022 8:15:00 AM 15.06 59.108 0.255 8.14 2.16 5.56
5/6/2022 8:30:00 AM 15.03 59.054 0.255 8.15 2.6 5.55
5/6/2022 8:45:00 AM 15.01 59.018 0.255 8.16 3.09 5.6
5/6/2022 9:00:00 AM 14.98 58.964 0.255 8.17 2.64 5.63
5/6/2022 9:15:00 AM 14.95 58.91 0.252 8.17 2.46 5.64
5/6/2022 9:30:00 AM 14.93 58.874 0.121 8.16 2.57 5.66
5/6/2022 9:45:00 AM 14.91 58.838 0.255 8.16 2.15 5.69
5/6/2022 10:00:00 AM 14.9 58.82 0.254 8.17 2.47 5.71
5/6/2022 10:15:00 AM 14.9 58.82 0.208 8.17 2.32 5.77
5/6/2022 10:30:00 AM 14.89 58.802 0.254 8.17 2.42 5.76
5/6/2022 10:45:00 AM 14.89 58.802 0.254 8.17 2.46 5.64
5/6/2022 11:00:00 AM 14.88 58.784 0.254 8.18 2.97 5.73
5/6/2022 11:15:00 AM 14.88 58.784 0.254 8.2 2.18 5.77
5/6/2022 11:30:00 AM 14.88 58.784 0.254 8.21 2.5 5.79
5/6/2022 11:45:00 AM 14.88 58.784 0.254 8.22 2.49 5.81
5/6/2022 12:00:00 PM 14.88 58.784 0.254 8.23 2.4 5.72
5/6/2022 12:15:00 PM 14.87 58.766 0.254 8.21 2.32 5.77
5/6/2022 12:30:00 PM 14.87 58.766 0.253 8.24 2.41 5.72
5/6/2022 12:45:00 PM 14.87 58.766 0.253 8.24 2.67 5.74
5/6/2022 1:00:00 PM 14.86 58.748 0.107 8.25 2.77 5.81
5/6/2022 1:15:00 PM 14.87 58.766 0.251 8.26 2.89 5.84
5/6/2022 1:30:00 PM 14.86 58.748 0.253 8.26 2.44 5.85
5/6/2022 1:45:00 PM 14.86 58.748 0.253 8.27 2.17 5.88
5/6/2022 2:00:00 PM 14.86 58.748 0.253 8.28 2.38 5.88
5/6/2022 2:15:00 PM 14.85 58.73 0.22 8.28 2.59 5.91
5/6/2022 2:30:00 PM 14.84 58.712 0.112 8.29 1.95 5.93
5/6/2022 2:45:00 PM 14.84 58.712 0.252 8.29 2.71 5.97
5/6/2022 3:00:00 PM 14.84 58.712 0.253 8.3 3.14 5.95
5/6/2022 3:15:00 PM 14.84 58.712 0.253 8.31 3.66 5.96
5/6/2022 3:30:00 PM 14.85 58.73 0.253 8.34 2.3 5.86
5/6/2022 3:45:00 PM 14.86 58.748 0.233 8.34 2.96 5.8
5/6/2022 4:00:00 PM 14.86 58.748 0.252 8.35 6.94 5.84
5/6/2022 4:15:00 PM 14.87 58.766 0.253 8.37 2.14 5.8
5/6/2022 4:30:00 PM 14.87 58.766 0.252 8.37 2.4 5.86
5/6/2022 4:45:00 PM 14.87 58.766 0.252 8.37 2.22 5.9
5/6/2022 5:00:00 PM 14.87 58.766 0.253 8.39 2.3 5.93
5/6/2022 5:15:00 PM 14.87 58.766 0.253 8.36 2.05 5.99
5/6/2022 5:30:00 PM 14.87 58.766 0.253 8.34 1.58 5.97
5/6/2022 5:45:00 PM 14.87 58.766 0.252 8.3 1.81 5.99
5/6/2022 6:00:00 PM 14.87 58.766 0.253 8.29 1.77 5.94
5/6/2022 6:15:00 PM 14.86 58.748 0.253 8.23 1.5 5.94
5/6/2022 6:30:00 PM 14.86 58.748 0.253 8.25 1.62 5.94
5/6/2022 6:45:00 PM 14.86 58.748 0.253 8.23 2.15 5.98
5/6/2022 7:00:00 PM 14.86 58.748 0.253 8.24 1.48 5.84
5/6/2022 7:15:00 PM 14.85 58.73 0.253 8.22 1.76 5.88
5/6/2022 7:30:00 PM 14.85 58.73 0.252 8.21 1.61 5.89
5/6/2022 7:45:00 PM 14.85 58.73 0.253 8.21 1.31 5.9
5/6/2022 8:00:00 PM 14.84 58.712 0.252 8.21 2.09 5.8
5/6/2022 8:15:00 PM 14.84 58.712 0.253 8.22 1.66 5.87
5/6/2022 8:30:00 PM 14.84 58.712 0.253 8.21 1.54 5.89
5/6/2022 8:45:00 PM 14.83 58.694 0.11 8.17 1.67 5.91
5/6/2022 9:00:00 PM 14.83 58.694 0.253 8.16 2.47 5.96
5/6/2022 9:15:00 PM 14.83 58.694 0.252 8.17 2.47 5.98
5/6/2022 9:30:00 PM 14.82 58.676 0.253 8.15 1.59 5.98
5/6/2022 9:45:00 PM 14.82 58.676 0.175 8.15 1.77 5.97
5/6/2022 10:00:00 PM 14.82 58.676 0.253 8.16 1.75 5.97
5/6/2022 10:15:00 PM 14.81 58.658 0.253 8.15 1.78 5.97
5/6/2022 10:30:00 PM 14.81 58.658 0.253 8.15 1.64 5.99
5/6/2022 10:45:00 PM 14.81 58.658 0.253 8.14 1.82 5.99
5/6/2022 11:00:00 PM 14.8 58.64 0.253 8.13 1.74 6.01
5/6/2022 11:15:00 PM 14.8 58.64 0.253 8.13 1.53 6.01
5/6/2022 11:30:00 PM 14.8 58.64 0.253 8.11 2.56 6
5/6/2022 11:45:00 PM 14.79 58.622 0.103 8.11 1.79 5.99
5/7/2022 12:00:00 AM 14.79 58.622 0.225 8.09 3.21 5.98
5/7/2022 12:15:00 AM 14.78 58.604 0.253 8.1 1.58 5.96
5/7/2022 12:30:00 AM 14.78 58.604 0.253 8.1 1.65 5.97
5/7/2022 12:45:00 AM 14.78 58.604 0.253 8.08 1.41 5.97
5/7/2022 1:00:00 AM 14.77 58.586 0.253 8.08 2.01 5.87
5/7/2022 1:15:00 AM 14.77 58.586 0.254 8.07 1.42 5.92
5/7/2022 1:30:00 AM 14.76 58.568 0.253 8.06 1.87 5.94
5/7/2022 1:45:00 AM 14.76 58.568 0.253 8.07 1.48 5.96
5/7/2022 2:00:00 AM 14.76 58.568 0.254 8.07 1.36 5.98
5/7/2022 2:15:00 AM 14.75 58.55 0.254 8.04 1.55 5.85
5/7/2022 2:30:00 AM 14.75 58.55 0.254 8.05 1.44 5.81
5/7/2022 2:45:00 AM 14.75 58.55 0.254 8.05 1.42 5.76
5/7/2022 3:00:00 AM 14.74 58.532 0.254 8.02 1.37 5.69
5/7/2022 3:15:00 AM 14.74 58.532 0.254 8.03 1.48 5.7
5/7/2022 3:30:00 AM 14.73 58.514 0.254 8.02 2.12 5.73
5/7/2022 3:45:00 AM 14.73 58.514 0.254 8 1.4 5.68
5/7/2022 4:00:00 AM 14.73 58.514 0.254 8.01 1.63 5.65
5/7/2022 4:15:00 AM 14.72 58.496 0.254 8.01 1.58 5.69
5/7/2022 4:30:00 AM 14.72 58.496 0.254 7.99 1.65 5.72
5/7/2022 4:45:00 AM 14.72 58.496 0.254 7.99 1.86 5.73
5/7/2022 5:00:00 AM 14.71 58.478 0.254 8 1.57 5.67
5/7/2022 5:15:00 AM 14.73 58.514 0.252 7.99 1.47 5.66
5/7/2022 5:30:00 AM 14.57 58.226 0.254 7.94 2.08 5.71
5/7/2022 5:45:00 AM 14.45 58.01 0.253 7.98 2.55 5.75
5/7/2022 6:00:00 AM 14.37 57.866 0.252 8.04 2.63 5.78
5/7/2022 6:15:00 AM 14.35 57.83 0.252 8.04 2.36 5.8
5/7/2022 6:30:00 AM 14.33 57.794 0.251 8.06 2.32 5.78
5/7/2022 6:45:00 AM 14.31 57.758 0.251 8.06 2.44 5.82
5/7/2022 7:00:00 AM 14.29 57.722 0.251 8.05 2.45 5.81
5/7/2022 7:15:00 AM 14.27 57.686 0.251 8.06 2.27 5.73
5/7/2022 7:30:00 AM 14.25 57.65 0.251 8.06 1.98 5.61
5/7/2022 7:45:00 AM 14.24 57.632 0.251 8.06 2.73 5.58
5/7/2022 8:00:00 AM 14.22 57.596 0.252 8.03 2.34 5.54
5/7/2022 8:15:00 AM 14.21 57.578 0.252 8.06 2.84 5.47
5/7/2022 8:30:00 AM 14.19 57.542 0.252 8.05 2.25 5.45
5/7/2022 8:45:00 AM 14.17 57.506 0.252 8.05 2.39 5.44
5/7/2022 9:00:00 AM 14.14 57.452 0.252 8.05 2.41 5.42
5/7/2022 9:15:00 AM 14.11 57.398 0.252 8.05 2.15 5.39
5/7/2022 9:30:00 AM 14.09 57.362 0.252 8.05 2.41 5.38
5/7/2022 9:45:00 AM 14.06 57.308 0.251 8.05 3.09 5.3
5/7/2022 10:00:00 AM 14.03 57.254 0.251 8.05 2.44 5.3
5/7/2022 10:15:00 AM 13.99 57.182 0.251 8.05 2.53 5.29
5/7/2022 10:30:00 AM 13.97 57.146 0.251 8.06 2.85 5.27
5/7/2022 10:45:00 AM 13.94 57.092 0.251 8.04 2.38 5.27
5/7/2022 11:00:00 AM 13.9 57.02 0.25 8.05 2.42 5.26
5/7/2022 11:15:00 AM